PWSweather.com
Personal Weather Stations
Station Observations
OPENSRS
Liberty Village, Toronto, ON M6K 3M1

Liberty VillageToronto, ON M6K 3M1

Lat: 43.63831, Lon: -79.42566

Elevation: 303

Station Type: Davis Instruments Vantage Pro 2

weather.opensrs.com

High Low Average
Temperature 72.4°F22.4°F 59.9°F15.5°F 66.6°F19.2°F
Dew Point 55.6°F13.1°F 45.0°F7.2°F 51.0°F10.6°F
Winds 12.0 mph N19.3 mph N Calm Calm 4.0 mph 6.4 mph
Wind Gusts 17.0 mph27.4 mph -- 9.7 mph15.6 mph
Humidity 73% 41% 58%
Pressure 30.07 in1018.30 in 29.98 in1015.20 in -
Precipitation 0.00 in0.00 in - -
Hour Temp Dew Point Humidity Winds Wind Gusts Pressure Precip Precip Rate Daily Precip Total
12:00 AM 65.1°F18.4°C 52.6°F11.4°C 64% 3.0 mph NNE4.8 kmh NNE 3.0 mph4.8 kmh 30.00 in1015.9 mb 0.00 in0.0 mm 0.00 in/hr0.0 mm/hr 0.00 in0.0 mm
12:03 AM 65.1°F18.4°C 52.6°F11.4°C 64% Calm Calm 8.0 mph12.9 kmh 30.00 in1015.9 mb 0.00 in0.0 mm 0.00 in/hr0.0 mm/hr 0.00 in0.0 mm
12:04 AM 65.1°F18.4°C 52.6°F11.4°C 64% 2.0 mph NNE3.2 kmh NNE 8.0 mph12.9 kmh 30.00 in1015.9 mb 0.00 in0.0 mm 0.00 in/hr0.0 mm/hr 0.00 in0.0 mm
12:05 AM 65.0°F18.3°C 52.5°F11.4°C 64% 2.0 mph NNE3.2 kmh NNE 8.0 mph12.9 kmh 30.00 in1015.9 mb 0.00 in0.0 mm 0.00 in/hr0.0 mm/hr 0.00 in0.0 mm
12:08 AM 65.0°F18.3°C 53.0°F11.7°C 65% 4.0 mph N6.4 kmh N 8.0 mph12.9 kmh 30.00 in1015.9 mb 0.00 in0.0 mm 0.00 in/hr0.0 mm/hr 0.00 in0.0 mm
12:09 AM 65.0°F18.3°C 53.0°F11.7°C 65% 2.0 mph N3.2 kmh N 8.0 mph12.9 kmh 30.00 in1015.9 mb 0.00 in0.0 mm 0.00 in/hr0.0 mm/hr 0.00 in0.0 mm
12:10 AM 65.0°F18.3°C 53.0°F11.7°C 65% 6.0 mph NNE9.7 kmh NNE 10.0 mph16.1 kmh 30.00 in1015.9 mb 0.00 in0.0 mm 0.00 in/hr0.0 mm/hr 0.00 in0.0 mm
12:13 AM 64.9°F18.3°C 52.9°F11.6°C 65% 4.0 mph N6.4 kmh N 10.0 mph16.1 kmh 30.00 in1015.9 mb 0.00 in0.0 mm 0.00 in/hr0.0 mm/hr 0.00 in0.0 mm
12:14 AM 64.9°F18.3°C 52.9°F11.6°C 65% 5.0 mph N8.0 kmh N 10.0 mph16.1 kmh 30.00 in1015.9 mb 0.00 in0.0 mm 0.00 in/hr0.0 mm/hr 0.00 in0.0 mm
12:15 AM 64.8°F18.2°C 52.8°F11.6°C 65% 4.0 mph NNE6.4 kmh NNE 10.0 mph16.1 kmh 30.00 in1015.9 mb 0.00 in0.0 mm 0.00 in/hr0.0 mm/hr 0.00 in0.0 mm
12:18 AM 64.8°F18.2°C 52.8°F11.6°C 65% 6.0 mph N9.7 kmh N 10.0 mph16.1 kmh 30.00 in1015.9 mb 0.00 in0.0 mm 0.00 in/hr0.0 mm/hr 0.00 in0.0 mm
12:19 AM 64.8°F18.2°C 53.2°F11.8°C 66% 5.0 mph N8.0 kmh N 10.0 mph16.1 kmh 30.00 in1015.9 mb 0.00 in0.0 mm 0.00 in/hr0.0 mm/hr 0.00 in0.0 mm
12:20 AM 64.8°F18.2°C 53.2°F11.8°C 66% 5.0 mph N8.0 kmh N 10.0 mph16.1 kmh 30.00 in1015.9 mb 0.00 in0.0 mm 0.00 in/hr0.0 mm/hr 0.00 in0.0 mm
12:23 AM 64.7°F18.2°C 53.1°F11.7°C 66% 3.0 mph N4.8 kmh N 10.0 mph16.1 kmh 30.00 in1015.9 mb 0.00 in0.0 mm 0.00 in/hr0.0 mm/hr 0.00 in0.0 mm
12:24 AM 64.7°F18.2°C 53.1°F11.7°C 66% 4.0 mph N6.4 kmh N 10.0 mph16.1 kmh 30.00 in1015.9 mb 0.00 in0.0 mm 0.00 in/hr0.0 mm/hr 0.00 in0.0 mm
12:25 AM 64.6°F18.1°C 53.0°F11.7°C 66% Calm Calm 10.0 mph16.1 kmh 30.00 in1015.9 mb 0.00 in0.0 mm 0.00 in/hr0.0 mm/hr 0.00 in0.0 mm
12:28 AM 64.6°F18.1°C 53.0°F11.7°C 66% 5.0 mph N8.0 kmh N 10.0 mph16.1 kmh 30.00 in1015.9 mb 0.00 in0.0 mm 0.00 in/hr0.0 mm/hr 0.00 in0.0 mm
12:29 AM 64.5°F18.1°C 52.9°F11.6°C 66% 1.0 mph N1.6 kmh N 10.0 mph16.1 kmh 30.00 in1015.9 mb 0.00 in0.0 mm 0.00 in/hr0.0 mm/hr 0.00 in0.0 mm
12:30 AM 64.5°F18.1°C 52.9°F11.6°C 66% 5.0 mph N8.0 kmh N 10.0 mph16.1 kmh 30.00 in1015.9 mb 0.00 in0.0 mm 0.00 in/hr0.0 mm/hr 0.00 in0.0 mm
12:33 AM 64.4°F18.0°C 52.8°F11.6°C 66% 4.0 mph N6.4 kmh N 10.0 mph16.1 kmh 30.00 in1015.9 mb 0.00 in0.0 mm 0.00 in/hr0.0 mm/hr 0.00 in0.0 mm
12:34 AM 64.4°F18.0°C 53.2°F11.8°C 67% 2.0 mph N3.2 kmh N 10.0 mph16.1 kmh 30.00 in1015.9 mb 0.00 in0.0 mm 0.00 in/hr0.0 mm/hr 0.00 in0.0 mm
12:35 AM 64.4°F18.0°C 53.2°F11.8°C 67% 3.0 mph N4.8 kmh N 10.0 mph16.1 kmh 30.00 in1015.9 mb 0.00 in0.0 mm 0.00 in/hr0.0 mm/hr 0.00 in0.0 mm
12:38 AM 64.3°F17.9°C 53.1°F11.7°C 67% 4.0 mph N6.4 kmh N 10.0 mph16.1 kmh 30.00 in1015.9 mb 0.00 in0.0 mm 0.00 in/hr0.0 mm/hr 0.00 in0.0 mm
12:39 AM 64.3°F17.9°C 53.1°F11.7°C 67% 6.0 mph N9.7 kmh N 10.0 mph16.1 kmh 30.00 in1015.9 mb 0.00 in0.0 mm 0.00 in/hr0.0 mm/hr 0.00 in0.0 mm
12:40 AM 64.3°F17.9°C 53.1°F11.7°C 67% 5.0 mph N8.0 kmh N 10.0 mph16.1 kmh 30.00 in1015.9 mb 0.00 in0.0 mm 0.00 in/hr0.0 mm/hr 0.00 in0.0 mm
12:43 AM 64.2°F17.9°C 53.4°F11.9°C 68% 6.0 mph N9.7 kmh N 10.0 mph16.1 kmh 30.00 in1015.9 mb 0.00 in0.0 mm 0.00 in/hr0.0 mm/hr 0.00 in0.0 mm
12:44 AM 64.2°F17.9°C 53.4°F11.9°C 68% 5.0 mph N8.0 kmh N 10.0 mph16.1 kmh 30.00 in1015.9 mb 0.00 in0.0 mm 0.00 in/hr0.0 mm/hr 0.00 in0.0 mm
12:45 AM 64.2°F17.9°C 53.4°F11.9°C 68% 4.0 mph N6.4 kmh N 10.0 mph16.1 kmh 30.00 in1015.9 mb 0.00 in0.0 mm 0.00 in/hr0.0 mm/hr 0.00 in0.0 mm
12:48 AM 64.1°F17.8°C 53.3°F11.8°C 68% 10.0 mph N16.1 kmh N 10.0 mph16.1 kmh 30.00 in1015.9 mb 0.00 in0.0 mm 0.00 in/hr0.0 mm/hr 0.00 in0.0 mm
12:49 AM 64.1°F17.8°C 53.7°F12.1°C 69% 4.0 mph NNE6.4 kmh NNE 10.0 mph16.1 kmh 30.00 in1015.9 mb 0.00 in0.0 mm 0.00 in/hr0.0 mm/hr 0.00 in0.0 mm
12:50 AM 64.1°F17.8°C 53.7°F12.1°C 69% 2.0 mph N3.2 kmh N 10.0 mph16.1 kmh 30.00 in1015.9 mb 0.00 in0.0 mm 0.00 in/hr0.0 mm/hr 0.00 in0.0 mm
12:53 AM 64.0°F17.8°C 53.6°F12.0°C 69% 7.0 mph N11.3 kmh N 10.0 mph16.1 kmh 30.00 in1015.9 mb 0.00 in0.0 mm 0.00 in/hr0.0 mm/hr 0.00 in0.0 mm
12:54 AM 64.0°F17.8°C 53.6°F12.0°C 69% 5.0 mph N8.0 kmh N 10.0 mph16.1 kmh 30.00 in1015.9 mb 0.00 in0.0 mm 0.00 in/hr0.0 mm/hr 0.00 in0.0 mm
12:55 AM 64.0°F17.8°C 53.6°F12.0°C 69% 4.0 mph N6.4 kmh N 10.0 mph16.1 kmh 30.00 in1015.9 mb 0.00 in0.0 mm 0.00 in/hr0.0 mm/hr 0.00 in0.0 mm
12:58 AM 64.0°F17.8°C 53.6°F12.0°C 69% 6.0 mph N9.7 kmh N 10.0 mph16.1 kmh 30.00 in1015.9 mb 0.00 in0.0 mm 0.00 in/hr0.0 mm/hr 0.00 in0.0 mm
12:59 AM 64.0°F17.8°C 54.0°F12.2°C 70% 5.0 mph N8.0 kmh N 10.0 mph16.1 kmh 30.00 in1015.9 mb 0.00 in0.0 mm 0.00 in/hr0.0 mm/hr 0.00 in0.0 mm
01:00 AM 64.0°F17.8°C 54.0°F12.2°C 70% 5.0 mph N8.0 kmh N 6.0 mph9.7 kmh 30.00 in1015.9 mb 0.00 in0.0 mm 0.00 in/hr0.0 mm/hr 0.00 in0.0 mm
01:03 AM 63.9°F17.7°C 53.9°F12.2°C 70% 6.0 mph N9.7 kmh N 8.0 mph12.9 kmh 30.00 in1015.9 mb 0.00 in0.0 mm 0.00 in/hr0.0 mm/hr 0.00 in0.0 mm
01:04 AM 63.9°F17.7°C 53.9°F12.2°C 70% 7.0 mph NNE11.3 kmh NNE 10.0 mph16.1 kmh 30.00 in1015.9 mb 0.00 in0.0 mm 0.00 in/hr0.0 mm/hr 0.00 in0.0 mm
01:05 AM 63.9°F17.7°C 53.9°F12.2°C 70% 7.0 mph N11.3 kmh N 10.0 mph16.1 kmh 30.00 in1015.9 mb 0.00 in0.0 mm 0.00 in/hr0.0 mm/hr 0.00 in0.0 mm
01:08 AM 63.9°F17.7°C 53.9°F12.2°C 70% 3.0 mph N4.8 kmh N 10.0 mph16.1 kmh 30.00 in1015.9 mb 0.00 in0.0 mm 0.00 in/hr0.0 mm/hr 0.00 in0.0 mm
01:09 AM 63.9°F17.7°C 53.9°F12.2°C 70% 4.0 mph N6.4 kmh N 10.0 mph16.1 kmh 30.00 in1015.9 mb 0.00 in0.0 mm 0.00 in/hr0.0 mm/hr 0.00 in0.0 mm
01:10 AM 63.9°F17.7°C 53.9°F12.2°C 70% 9.0 mph N14.5 kmh N 10.0 mph16.1 kmh 30.00 in1015.9 mb 0.00 in0.0 mm 0.00 in/hr0.0 mm/hr 0.00 in0.0 mm
01:13 AM 63.9°F17.7°C 53.9°F12.2°C 70% 4.0 mph N6.4 kmh N 10.0 mph16.1 kmh 30.00 in1015.9 mb 0.00 in0.0 mm 0.00 in/hr0.0 mm/hr 0.00 in0.0 mm
01:14 AM 63.8°F17.7°C 53.8°F12.1°C 70% 2.0 mph N3.2 kmh N 10.0 mph16.1 kmh 30.00 in1015.9 mb 0.00 in0.0 mm 0.00 in/hr0.0 mm/hr 0.00 in0.0 mm
01:15 AM 63.8°F17.7°C 53.8°F12.1°C 70% 1.0 mph N1.6 kmh N 10.0 mph16.1 kmh 30.00 in1015.9 mb 0.00 in0.0 mm 0.00 in/hr0.0 mm/hr 0.00 in0.0 mm
01:18 AM 63.8°F17.7°C 53.8°F12.1°C 70% 4.0 mph N6.4 kmh N 10.0 mph16.1 kmh 29.99 in1015.6 mb 0.00 in0.0 mm 0.00 in/hr0.0 mm/hr 0.00 in0.0 mm
01:19 AM 63.8°F17.7°C 53.8°F12.1°C 70% 6.0 mph NNE9.7 kmh NNE 10.0 mph16.1 kmh 29.99 in1015.6 mb 0.00 in0.0 mm 0.00 in/hr0.0 mm/hr 0.00 in0.0 mm
01:20 AM 63.8°F17.7°C 53.8°F12.1°C 70% 4.0 mph N6.4 kmh N 10.0 mph16.1 kmh 30.00 in1015.9 mb 0.00 in0.0 mm 0.00 in/hr0.0 mm/hr 0.00 in0.0 mm
01:23 AM 63.9°F17.7°C 53.9°F12.2°C 70% 7.0 mph N11.3 kmh N 10.0 mph16.1 kmh 29.99 in1015.6 mb 0.00 in0.0 mm 0.00 in/hr0.0 mm/hr 0.00 in0.0 mm
01:24 AM 63.9°F17.7°C 53.9°F12.2°C 70% 3.0 mph N4.8 kmh N 10.0 mph16.1 kmh 30.00 in1015.9 mb 0.00 in0.0 mm 0.00 in/hr0.0 mm/hr 0.00 in0.0 mm
01:25 AM 63.9°F17.7°C 53.9°F12.2°C 70% 6.0 mph N9.7 kmh N 10.0 mph16.1 kmh 29.99 in1015.6 mb 0.00 in0.0 mm 0.00 in/hr0.0 mm/hr 0.00 in0.0 mm
01:28 AM 64.0°F17.8°C 53.6°F12.0°C 69% Calm Calm 10.0 mph16.1 kmh 29.99 in1015.6 mb 0.00 in0.0 mm 0.00 in/hr0.0 mm/hr 0.00 in0.0 mm
01:29 AM 64.0°F17.8°C 53.6°F12.0°C 69% 4.0 mph N6.4 kmh N 10.0 mph16.1 kmh 29.99 in1015.6 mb 0.00 in0.0 mm 0.00 in/hr0.0 mm/hr 0.00 in0.0 mm
01:30 AM 64.0°F17.8°C 53.6°F12.0°C 69% 5.0 mph N8.0 kmh N 10.0 mph16.1 kmh 29.99 in1015.6 mb 0.00 in0.0 mm 0.00 in/hr0.0 mm/hr 0.00 in0.0 mm
01:33 AM 64.0°F17.8°C 53.2°F11.8°C 68% 8.0 mph N12.9 kmh N 10.0 mph16.1 kmh 29.99 in1015.6 mb 0.00 in0.0 mm 0.00 in/hr0.0 mm/hr 0.00 in0.0 mm
01:34 AM 64.1°F17.8°C 53.3°F11.8°C 68% 4.0 mph N6.4 kmh N 10.0 mph16.1 kmh 29.99 in1015.6 mb 0.00 in0.0 mm 0.00 in/hr0.0 mm/hr 0.00 in0.0 mm
01:35 AM 64.1°F17.8°C 53.3°F11.8°C 68% 5.0 mph NE8.0 kmh NE 10.0 mph16.1 kmh 29.99 in1015.6 mb 0.00 in0.0 mm 0.00 in/hr0.0 mm/hr 0.00 in0.0 mm
01:38 AM 64.2°F17.9°C 53.0°F11.7°C 67% 9.0 mph N14.5 kmh N 11.0 mph17.7 kmh 29.99 in1015.6 mb 0.00 in0.0 mm 0.00 in/hr0.0 mm/hr 0.00 in0.0 mm
01:39 AM 64.2°F17.9°C 53.0°F11.7°C 67% 4.0 mph N6.4 kmh N 11.0 mph17.7 kmh 29.99 in1015.6 mb 0.00 in0.0 mm 0.00 in/hr0.0 mm/hr 0.00 in0.0 mm
01:40 AM 64.2°F17.9°C 53.0°F11.7°C 67% 7.0 mph N11.3 kmh N 11.0 mph17.7 kmh 29.99 in1015.6 mb 0.00 in0.0 mm 0.00 in/hr0.0 mm/hr 0.00 in0.0 mm
01:43 AM 64.3°F17.9°C 52.7°F11.5°C 66% 5.0 mph N8.0 kmh N 11.0 mph17.7 kmh 29.99 in1015.6 mb 0.00 in0.0 mm 0.00 in/hr0.0 mm/hr 0.00 in0.0 mm
01:44 AM 64.3°F17.9°C 52.7°F11.5°C 66% 5.0 mph N8.0 kmh N 11.0 mph17.7 kmh 29.99 in1015.6 mb 0.00 in0.0 mm 0.00 in/hr0.0 mm/hr 0.00 in0.0 mm
01:45 AM 64.3°F17.9°C 52.7°F11.5°C 66% 4.0 mph N6.4 kmh N 11.0 mph17.7 kmh 29.99 in1015.6 mb 0.00 in0.0 mm 0.00 in/hr0.0 mm/hr 0.00 in0.0 mm
01:48 AM 64.3°F17.9°C 52.7°F11.5°C 66% 5.0 mph NNE8.0 kmh NNE 11.0 mph17.7 kmh 29.99 in1015.6 mb 0.00 in0.0 mm 0.00 in/hr0.0 mm/hr 0.00 in0.0 mm
01:49 AM 64.2°F17.9°C 52.6°F11.4°C 66% 3.0 mph NNE4.8 kmh NNE 11.0 mph17.7 kmh 29.99 in1015.6 mb 0.00 in0.0 mm 0.00 in/hr0.0 mm/hr 0.00 in0.0 mm
01:50 AM 64.3°F17.9°C 52.7°F11.5°C 66% 7.0 mph NNE11.3 kmh NNE 11.0 mph17.7 kmh 29.99 in1015.6 mb 0.00 in0.0 mm 0.00 in/hr0.0 mm/hr 0.00 in0.0 mm
01:53 AM 64.2°F17.9°C 52.2°F11.2°C 65% 5.0 mph N8.0 kmh N 11.0 mph17.7 kmh 29.99 in1015.6 mb 0.00 in0.0 mm 0.00 in/hr0.0 mm/hr 0.00 in0.0 mm
01:54 AM 64.2°F17.9°C 52.2°F11.2°C 65% 3.0 mph N4.8 kmh N 11.0 mph17.7 kmh 29.99 in1015.6 mb 0.00 in0.0 mm 0.00 in/hr0.0 mm/hr 0.00 in0.0 mm
01:55 AM 64.2°F17.9°C 52.2°F11.2°C 65% 4.0 mph N6.4 kmh N 11.0 mph17.7 kmh 29.99 in1015.6 mb 0.00 in0.0 mm 0.00 in/hr0.0 mm/hr 0.00 in0.0 mm
01:58 AM 64.2°F17.9°C 52.2°F11.2°C 65% 5.0 mph N8.0 kmh N 11.0 mph17.7 kmh 29.99 in1015.6 mb 0.00 in0.0 mm 0.00 in/hr0.0 mm/hr 0.00 in0.0 mm
01:59 AM 64.2°F17.9°C 52.2°F11.2°C 65% 2.0 mph N3.2 kmh N 11.0 mph17.7 kmh 29.99 in1015.6 mb 0.00 in0.0 mm 0.00 in/hr0.0 mm/hr 0.00 in0.0 mm
02:00 AM 64.2°F17.9°C 52.2°F11.2°C 65% 6.0 mph N9.7 kmh N 6.0 mph9.7 kmh 29.99 in1015.6 mb 0.00 in0.0 mm 0.00 in/hr0.0 mm/hr 0.00 in0.0 mm
02:03 AM 64.2°F17.9°C 52.2°F11.2°C 65% 5.0 mph N8.0 kmh N 12.0 mph19.3 kmh 29.99 in1015.6 mb 0.00 in0.0 mm 0.00 in/hr0.0 mm/hr 0.00 in0.0 mm
02:04 AM 64.2°F17.9°C 51.8°F11.0°C 64% 7.0 mph N11.3 kmh N 12.0 mph19.3 kmh 29.99 in1015.6 mb 0.00 in0.0 mm 0.00 in/hr0.0 mm/hr 0.00 in0.0 mm
02:05 AM 64.2°F17.9°C 51.8°F11.0°C 64% 7.0 mph NNW11.3 kmh NNW 12.0 mph19.3 kmh 29.99 in1015.6 mb 0.00 in0.0 mm 0.00 in/hr0.0 mm/hr 0.00 in0.0 mm
02:08 AM 64.2°F17.9°C 51.8°F11.0°C 64% 4.0 mph NNE6.4 kmh NNE 12.0 mph19.3 kmh 29.99 in1015.6 mb 0.00 in0.0 mm 0.00 in/hr0.0 mm/hr 0.00 in0.0 mm
02:09 AM 64.2°F17.9°C 51.8°F11.0°C 64% 8.0 mph N12.9 kmh N 12.0 mph19.3 kmh 29.99 in1015.6 mb 0.00 in0.0 mm 0.00 in/hr0.0 mm/hr 0.00 in0.0 mm
02:10 AM 64.1°F17.8°C 52.1°F11.2°C 65% 5.0 mph N8.0 kmh N 12.0 mph19.3 kmh 29.99 in1015.6 mb 0.00 in0.0 mm 0.00 in/hr0.0 mm/hr 0.00 in0.0 mm
02:13 AM 64.1°F17.8°C 52.1°F11.2°C 65% 6.0 mph N9.7 kmh N 12.0 mph19.3 kmh 29.99 in1015.6 mb 0.00 in0.0 mm 0.00 in/hr0.0 mm/hr 0.00 in0.0 mm
02:14 AM 64.0°F17.8°C 52.0°F11.1°C 65% 7.0 mph NNW11.3 kmh NNW 12.0 mph19.3 kmh 29.99 in1015.6 mb 0.00 in0.0 mm 0.00 in/hr0.0 mm/hr 0.00 in0.0 mm
02:15 AM 64.0°F17.8°C 51.6°F10.9°C 64% 4.0 mph NNE6.4 kmh NNE 12.0 mph19.3 kmh 29.99 in1015.6 mb 0.00 in0.0 mm 0.00 in/hr0.0 mm/hr 0.00 in0.0 mm
02:18 AM 64.0°F17.8°C 51.6°F10.9°C 64% 6.0 mph N9.7 kmh N 12.0 mph19.3 kmh 29.99 in1015.6 mb 0.00 in0.0 mm 0.00 in/hr0.0 mm/hr 0.00 in0.0 mm
02:19 AM 64.0°F17.8°C 51.6°F10.9°C 64% 7.0 mph N11.3 kmh N 12.0 mph19.3 kmh 29.99 in1015.6 mb 0.00 in0.0 mm 0.00 in/hr0.0 mm/hr 0.00 in0.0 mm
02:20 AM 64.0°F17.8°C 51.6°F10.9°C 64% 7.0 mph N11.3 kmh N 12.0 mph19.3 kmh 29.99 in1015.6 mb 0.00 in0.0 mm 0.00 in/hr0.0 mm/hr 0.00 in0.0 mm
02:23 AM 63.9°F17.7°C 51.5°F10.8°C 64% 3.0 mph NNW4.8 kmh NNW 12.0 mph19.3 kmh 30.00 in1015.9 mb 0.00 in0.0 mm 0.00 in/hr0.0 mm/hr 0.00 in0.0 mm
02:24 AM 63.9°F17.7°C 51.5°F10.8°C 64% 4.0 mph N6.4 kmh N 12.0 mph19.3 kmh 29.99 in1015.6 mb 0.00 in0.0 mm 0.00 in/hr0.0 mm/hr 0.00 in0.0 mm
02:25 AM 63.9°F17.7°C 51.5°F10.8°C 64% 9.0 mph N14.5 kmh N 13.0 mph20.9 kmh 30.00 in1015.9 mb 0.00 in0.0 mm 0.00 in/hr0.0 mm/hr 0.00 in0.0 mm
02:28 AM 63.9°F17.7°C 51.1°F10.6°C 63% 6.0 mph N9.7 kmh N 13.0 mph20.9 kmh 29.99 in1015.6 mb 0.00 in0.0 mm 0.00 in/hr0.0 mm/hr 0.00 in0.0 mm
02:29 AM 63.9°F17.7°C 51.1°F10.6°C 63% 6.0 mph N9.7 kmh N 13.0 mph20.9 kmh 29.99 in1015.6 mb 0.00 in0.0 mm 0.00 in/hr0.0 mm/hr 0.00 in0.0 mm
02:30 AM 63.9°F17.7°C 51.1°F10.6°C 63% 4.0 mph N6.4 kmh N 13.0 mph20.9 kmh 30.00 in1015.9 mb 0.00 in0.0 mm 0.00 in/hr0.0 mm/hr 0.00 in0.0 mm
02:33 AM 63.9°F17.7°C 51.1°F10.6°C 63% 7.0 mph NNE11.3 kmh NNE 13.0 mph20.9 kmh 29.99 in1015.6 mb 0.00 in0.0 mm 0.00 in/hr0.0 mm/hr 0.00 in0.0 mm
02:34 AM 63.9°F17.7°C 51.1°F10.6°C 63% 8.0 mph NNE12.9 kmh NNE 13.0 mph20.9 kmh 30.00 in1015.9 mb 0.00 in0.0 mm 0.00 in/hr0.0 mm/hr 0.00 in0.0 mm
02:35 AM 63.9°F17.7°C 51.1°F10.6°C 63% 5.0 mph N8.0 kmh N 13.0 mph20.9 kmh 29.99 in1015.6 mb 0.00 in0.0 mm 0.00 in/hr0.0 mm/hr 0.00 in0.0 mm
02:38 AM 63.9°F17.7°C 51.1°F10.6°C 63% 10.0 mph NNE16.1 kmh NNE 13.0 mph20.9 kmh 29.99 in1015.6 mb 0.00 in0.0 mm 0.00 in/hr0.0 mm/hr 0.00 in0.0 mm
02:39 AM 63.9°F17.7°C 51.1°F10.6°C 63% 4.0 mph N6.4 kmh N 13.0 mph20.9 kmh 29.99 in1015.6 mb 0.00 in0.0 mm 0.00 in/hr0.0 mm/hr 0.00 in0.0 mm
02:40 AM 63.9°F17.7°C 51.1°F10.6°C 63% 3.0 mph N4.8 kmh N 13.0 mph20.9 kmh 30.00 in1015.9 mb 0.00 in0.0 mm 0.00 in/hr0.0 mm/hr 0.00 in0.0 mm
02:43 AM 63.8°F17.7°C 51.0°F10.6°C 63% 10.0 mph N16.1 kmh N 13.0 mph20.9 kmh 29.99 in1015.6 mb 0.00 in0.0 mm 0.00 in/hr0.0 mm/hr 0.00 in0.0 mm
02:44 AM 63.8°F17.7°C 51.0°F10.6°C 63% 8.0 mph NNE12.9 kmh NNE 15.0 mph24.1 kmh 29.99 in1015.6 mb 0.00 in0.0 mm 0.00 in/hr0.0 mm/hr 0.00 in0.0 mm
02:45 AM 63.8°F17.7°C 51.0°F10.6°C 63% 9.0 mph N14.5 kmh N 15.0 mph24.1 kmh 29.99 in1015.6 mb 0.00 in0.0 mm 0.00 in/hr0.0 mm/hr 0.00 in0.0 mm
02:48 AM 63.7°F17.6°C 50.9°F10.5°C 63% Calm Calm 15.0 mph24.1 kmh 29.99 in1015.6 mb 0.00 in0.0 mm 0.00 in/hr0.0 mm/hr 0.00 in0.0 mm
02:49 AM 63.7°F17.6°C 50.9°F10.5°C 63% 6.0 mph N9.7 kmh N 15.0 mph24.1 kmh 29.99 in1015.6 mb 0.00 in0.0 mm 0.00 in/hr0.0 mm/hr 0.00 in0.0 mm
02:50 AM 63.7°F17.6°C 50.9°F10.5°C 63% 6.0 mph NNE9.7 kmh NNE 15.0 mph24.1 kmh 29.99 in1015.6 mb 0.00 in0.0 mm 0.00 in/hr0.0 mm/hr 0.00 in0.0 mm
02:53 AM 63.7°F17.6°C 50.9°F10.5°C 63% 3.0 mph N4.8 kmh N 15.0 mph24.1 kmh 29.99 in1015.6 mb 0.00 in0.0 mm 0.00 in/hr0.0 mm/hr 0.00 in0.0 mm
02:54 AM 63.7°F17.6°C 50.9°F10.5°C 63% 7.0 mph N11.3 kmh N 15.0 mph24.1 kmh 29.99 in1015.6 mb 0.00 in0.0 mm 0.00 in/hr0.0 mm/hr 0.00 in0.0 mm
02:55 AM 63.7°F17.6°C 50.9°F10.5°C 63% 6.0 mph N9.7 kmh N 15.0 mph24.1 kmh 29.99 in1015.6 mb 0.00 in0.0 mm 0.00 in/hr0.0 mm/hr 0.00 in0.0 mm
02:58 AM 63.7°F17.6°C 50.9°F10.5°C 63% 5.0 mph NNE8.0 kmh NNE 15.0 mph24.1 kmh 30.00 in1015.9 mb 0.00 in0.0 mm 0.00 in/hr0.0 mm/hr 0.00 in0.0 mm
02:59 AM 63.7°F17.6°C 50.5°F10.3°C 62% 6.0 mph N9.7 kmh N 15.0 mph24.1 kmh 29.99 in1015.6 mb 0.00 in0.0 mm 0.00 in/hr0.0 mm/hr 0.00 in0.0 mm
03:00 AM 63.7°F17.6°C 50.5°F10.3°C 62% 11.0 mph N17.7 kmh N 11.0 mph17.7 kmh 29.99 in1015.6 mb 0.00 in0.0 mm 0.00 in/hr0.0 mm/hr 0.00 in0.0 mm
03:03 AM 63.7°F17.6°C 50.5°F10.3°C 62% 9.0 mph N14.5 kmh N 12.0 mph19.3 kmh 29.99 in1015.6 mb 0.00 in0.0 mm 0.00 in/hr0.0 mm/hr 0.00 in0.0 mm
03:04 AM 63.7°F17.6°C 50.5°F10.3°C 62% 7.0 mph N11.3 kmh N 12.0 mph19.3 kmh 29.99 in1015.6 mb 0.00 in0.0 mm 0.00 in/hr0.0 mm/hr 0.00 in0.0 mm
03:05 AM 63.7°F17.6°C 50.5°F10.3°C 62% 4.0 mph N6.4 kmh N 12.0 mph19.3 kmh 30.00 in1015.9 mb 0.00 in0.0 mm 0.00 in/hr0.0 mm/hr 0.00 in0.0 mm
03:08 AM 63.7°F17.6°C 50.5°F10.3°C 62% 7.0 mph NE11.3 kmh NE 13.0 mph20.9 kmh 29.99 in1015.6 mb 0.00 in0.0 mm 0.00 in/hr0.0 mm/hr 0.00 in0.0 mm
03:09 AM 63.7°F17.6°C 50.5°F10.3°C 62% 4.0 mph N6.4 kmh N 13.0 mph20.9 kmh 29.99 in1015.6 mb 0.00 in0.0 mm 0.00 in/hr0.0 mm/hr 0.00 in0.0 mm
03:10 AM 63.7°F17.6°C 50.5°F10.3°C 62% 7.0 mph N11.3 kmh N 13.0 mph20.9 kmh 29.99 in1015.6 mb 0.00 in0.0 mm 0.00 in/hr0.0 mm/hr 0.00 in0.0 mm
03:13 AM 63.7°F17.6°C 50.5°F10.3°C 62% 3.0 mph N4.8 kmh N 13.0 mph20.9 kmh 29.99 in1015.6 mb 0.00 in0.0 mm 0.00 in/hr0.0 mm/hr 0.00 in0.0 mm
03:14 AM 63.7°F17.6°C 50.5°F10.3°C 62% 6.0 mph N9.7 kmh N 13.0 mph20.9 kmh 30.00 in1015.9 mb 0.00 in0.0 mm 0.00 in/hr0.0 mm/hr 0.00 in0.0 mm
03:15 AM 63.7°F17.6°C 50.5°F10.3°C 62% 12.0 mph N19.3 kmh N 13.0 mph20.9 kmh 30.00 in1015.9 mb 0.00 in0.0 mm 0.00 in/hr0.0 mm/hr 0.00 in0.0 mm
03:18 AM 63.8°F17.7°C 50.6°F10.3°C 62% 4.0 mph N6.4 kmh N 13.0 mph20.9 kmh 30.00 in1015.9 mb 0.00 in0.0 mm 0.00 in/hr0.0 mm/hr 0.00 in0.0 mm
03:19 AM 63.7°F17.6°C 50.5°F10.3°C 62% 6.0 mph N9.7 kmh N 13.0 mph20.9 kmh 30.00 in1015.9 mb 0.00 in0.0 mm 0.00 in/hr0.0 mm/hr 0.00 in0.0 mm
03:20 AM 63.7°F17.6°C 50.5°F10.3°C 62% 5.0 mph N8.0 kmh N 13.0 mph20.9 kmh 30.00 in1015.9 mb 0.00 in0.0 mm 0.00 in/hr0.0 mm/hr 0.00 in0.0 mm
03:23 AM 63.7°F17.6°C 50.5°F10.3°C 62% 5.0 mph N8.0 kmh N 13.0 mph20.9 kmh 30.00 in1015.9 mb 0.00 in0.0 mm 0.00 in/hr0.0 mm/hr 0.00 in0.0 mm
03:24 AM 63.7°F17.6°C 50.5°F10.3°C 62% 4.0 mph N6.4 kmh N 13.0 mph20.9 kmh 30.00 in1015.9 mb 0.00 in0.0 mm 0.00 in/hr0.0 mm/hr 0.00 in0.0 mm
03:25 AM 63.8°F17.7°C 50.6°F10.3°C 62% 7.0 mph NNW11.3 kmh NNW 13.0 mph20.9 kmh 30.00 in1015.9 mb 0.00 in0.0 mm 0.00 in/hr0.0 mm/hr 0.00 in0.0 mm
03:28 AM 63.8°F17.7°C 50.6°F10.3°C 62% 6.0 mph N9.7 kmh N 13.0 mph20.9 kmh 30.00 in1015.9 mb 0.00 in0.0 mm 0.00 in/hr0.0 mm/hr 0.00 in0.0 mm
03:29 AM 63.8°F17.7°C 50.6°F10.3°C 62% 7.0 mph N11.3 kmh N 13.0 mph20.9 kmh 30.00 in1015.9 mb 0.00 in0.0 mm 0.00 in/hr0.0 mm/hr 0.00 in0.0 mm
03:30 AM 63.8°F17.7°C 50.6°F10.3°C 62% 6.0 mph NNE9.7 kmh NNE 13.0 mph20.9 kmh 30.00 in1015.9 mb 0.00 in0.0 mm 0.00 in/hr0.0 mm/hr 0.00 in0.0 mm
03:33 AM 63.8°F17.7°C 50.6°F10.3°C 62% 3.0 mph NNE4.8 kmh NNE 13.0 mph20.9 kmh 30.00 in1015.9 mb 0.00 in0.0 mm 0.00 in/hr0.0 mm/hr 0.00 in0.0 mm
03:34 AM 63.7°F17.6°C 50.5°F10.3°C 62% 5.0 mph NNE8.0 kmh NNE 13.0 mph20.9 kmh 30.00 in1015.9 mb 0.00 in0.0 mm 0.00 in/hr0.0 mm/hr 0.00 in0.0 mm
03:35 AM 63.7°F17.6°C 50.5°F10.3°C 62% 3.0 mph NNE4.8 kmh NNE 13.0 mph20.9 kmh 30.00 in1015.9 mb 0.00 in0.0 mm 0.00 in/hr0.0 mm/hr 0.00 in0.0 mm
03:38 AM 63.7°F17.6°C 50.5°F10.3°C 62% 2.0 mph N3.2 kmh N 13.0 mph20.9 kmh 30.00 in1015.9 mb 0.00 in0.0 mm 0.00 in/hr0.0 mm/hr 0.00 in0.0 mm
03:39 AM 63.7°F17.6°C 50.5°F10.3°C 62% 4.0 mph N6.4 kmh N 13.0 mph20.9 kmh 30.00 in1015.9 mb 0.00 in0.0 mm 0.00 in/hr0.0 mm/hr 0.00 in0.0 mm
03:40 AM 63.7°F17.6°C 50.5°F10.3°C 62% 4.0 mph N6.4 kmh N 13.0 mph20.9 kmh 30.00 in1015.9 mb 0.00 in0.0 mm 0.00 in/hr0.0 mm/hr 0.00 in0.0 mm
03:43 AM 63.6°F17.6°C 50.4°F10.2°C 62% 8.0 mph NNW12.9 kmh NNW 13.0 mph20.9 kmh 30.00 in1015.9 mb 0.00 in0.0 mm 0.00 in/hr0.0 mm/hr 0.00 in0.0 mm
03:44 AM 63.6°F17.6°C 50.4°F10.2°C 62% 5.0 mph NNE8.0 kmh NNE 13.0 mph20.9 kmh 30.00 in1015.9 mb 0.00 in0.0 mm 0.00 in/hr0.0 mm/hr 0.00 in0.0 mm
03:45 AM 63.6°F17.6°C 50.4°F10.2°C 62% 6.0 mph NNE9.7 kmh NNE 13.0 mph20.9 kmh 30.00 in1015.9 mb 0.00 in0.0 mm 0.00 in/hr0.0 mm/hr 0.00 in0.0 mm
03:48 AM 63.6°F17.6°C 50.4°F10.2°C 62% 6.0 mph N9.7 kmh N 13.0 mph20.9 kmh 30.00 in1015.9 mb 0.00 in0.0 mm 0.00 in/hr0.0 mm/hr 0.00 in0.0 mm
03:49 AM 63.6°F17.6°C 50.4°F10.2°C 62% 3.0 mph N4.8 kmh N 13.0 mph20.9 kmh 30.00 in1015.9 mb 0.00 in0.0 mm 0.00 in/hr0.0 mm/hr 0.00 in0.0 mm
03:50 AM 63.6°F17.6°C 50.4°F10.2°C 62% 4.0 mph N6.4 kmh N 13.0 mph20.9 kmh 30.00 in1015.9 mb 0.00 in0.0 mm 0.00 in/hr0.0 mm/hr 0.00 in0.0 mm
03:53 AM 63.5°F17.5°C 50.7°F10.4°C 63% 1.0 mph NNE1.6 kmh NNE 13.0 mph20.9 kmh 30.00 in1015.9 mb 0.00 in0.0 mm 0.00 in/hr0.0 mm/hr 0.00 in0.0 mm
03:54 AM 63.5°F17.5°C 50.7°F10.4°C 63% 7.0 mph NNE11.3 kmh NNE 13.0 mph20.9 kmh 30.00 in1015.9 mb 0.00 in0.0 mm 0.00 in/hr0.0 mm/hr 0.00 in0.0 mm
03:55 AM 63.5°F17.5°C 50.3°F10.2°C 62% 2.0 mph NNW3.2 kmh NNW 13.0 mph20.9 kmh 30.00 in1015.9 mb 0.00 in0.0 mm 0.00 in/hr0.0 mm/hr 0.00 in0.0 mm
03:58 AM 63.4°F17.4°C 50.2°F10.1°C 62% 7.0 mph N11.3 kmh N 13.0 mph20.9 kmh 30.00 in1015.9 mb 0.00 in0.0 mm 0.00 in/hr0.0 mm/hr 0.00 in0.0 mm
03:59 AM 63.4°F17.4°C 50.2°F10.1°C 62% 6.0 mph N9.7 kmh N 13.0 mph20.9 kmh 30.00 in1015.9 mb 0.00 in0.0 mm 0.00 in/hr0.0 mm/hr 0.00 in0.0 mm
04:00 AM 63.3°F17.4°C 50.1°F10.1°C 62% 2.0 mph N3.2 kmh N 2.0 mph3.2 kmh 30.00 in1015.9 mb 0.00 in0.0 mm 0.00 in/hr0.0 mm/hr 0.00 in0.0 mm
04:03 AM 63.3°F17.4°C 50.5°F10.3°C 63% 6.0 mph N9.7 kmh N 7.0 mph11.3 kmh 30.00 in1015.9 mb 0.00 in0.0 mm 0.00 in/hr0.0 mm/hr 0.00 in0.0 mm
04:04 AM 63.3°F17.4°C 50.5°F10.3°C 63% 6.0 mph N9.7 kmh N 8.0 mph12.9 kmh 30.00 in1015.9 mb 0.00 in0.0 mm 0.00 in/hr0.0 mm/hr 0.00 in0.0 mm
04:05 AM 63.3°F17.4°C 50.5°F10.3°C 63% Calm Calm 8.0 mph12.9 kmh 30.00 in1015.9 mb 0.00 in0.0 mm 0.00 in/hr0.0 mm/hr 0.00 in0.0 mm
04:08 AM 63.2°F17.3°C 50.0°F10.0°C 62% 6.0 mph NNE9.7 kmh NNE 10.0 mph16.1 kmh 30.00 in1015.9 mb 0.00 in0.0 mm 0.00 in/hr0.0 mm/hr 0.00 in0.0 mm
04:09 AM 63.2°F17.3°C 50.0°F10.0°C 62% 7.0 mph N11.3 kmh N 10.0 mph16.1 kmh 30.00 in1015.9 mb 0.00 in0.0 mm 0.00 in/hr0.0 mm/hr 0.00 in0.0 mm
04:10 AM 63.2°F17.3°C 50.0°F10.0°C 62% 3.0 mph N4.8 kmh N 10.0 mph16.1 kmh 30.00 in1015.9 mb 0.00 in0.0 mm 0.00 in/hr0.0 mm/hr 0.00 in0.0 mm
04:13 AM 63.1°F17.3°C 49.9°F9.9°C 62% 4.0 mph N6.4 kmh N 10.0 mph16.1 kmh 30.00 in1015.9 mb 0.00 in0.0 mm 0.00 in/hr0.0 mm/hr 0.00 in0.0 mm
04:14 AM 63.1°F17.3°C 49.9°F9.9°C 62% 6.0 mph N9.7 kmh N 10.0 mph16.1 kmh 30.01 in1016.3 mb 0.00 in0.0 mm 0.00 in/hr0.0 mm/hr 0.00 in0.0 mm
04:15 AM 63.1°F17.3°C 49.9°F9.9°C 62% 4.0 mph N6.4 kmh N 10.0 mph16.1 kmh 30.01 in1016.3 mb 0.00 in0.0 mm 0.00 in/hr0.0 mm/hr 0.00 in0.0 mm
04:18 AM 63.0°F17.2°C 49.8°F9.9°C 62% 2.0 mph N3.2 kmh N 10.0 mph16.1 kmh 30.01 in1016.3 mb 0.00 in0.0 mm 0.00 in/hr0.0 mm/hr 0.00 in0.0 mm
04:19 AM 63.0°F17.2°C 49.8°F9.9°C 62% 8.0 mph N12.9 kmh N 10.0 mph16.1 kmh 30.01 in1016.3 mb 0.00 in0.0 mm 0.00 in/hr0.0 mm/hr 0.00 in0.0 mm
04:20 AM 63.0°F17.2°C 49.8°F9.9°C 62% 1.0 mph N1.6 kmh N 10.0 mph16.1 kmh 30.01 in1016.3 mb 0.00 in0.0 mm 0.00 in/hr0.0 mm/hr 0.00 in0.0 mm
04:23 AM 63.0°F17.2°C 49.8°F9.9°C 62% 4.0 mph N6.4 kmh N 10.0 mph16.1 kmh 30.01 in1016.3 mb 0.00 in0.0 mm 0.00 in/hr0.0 mm/hr 0.00 in0.0 mm
04:24 AM 63.0°F17.2°C 49.8°F9.9°C 62% 5.0 mph NNE8.0 kmh NNE 10.0 mph16.1 kmh 30.01 in1016.3 mb 0.00 in0.0 mm 0.00 in/hr0.0 mm/hr 0.00 in0.0 mm
04:25 AM 63.0°F17.2°C 49.8°F9.9°C 62% 3.0 mph N4.8 kmh N 10.0 mph16.1 kmh 30.01 in1016.3 mb 0.00 in0.0 mm 0.00 in/hr0.0 mm/hr 0.00 in0.0 mm
04:28 AM 63.0°F17.2°C 49.8°F9.9°C 62% 3.0 mph N4.8 kmh N 10.0 mph16.1 kmh 30.01 in1016.3 mb 0.00 in0.0 mm 0.00 in/hr0.0 mm/hr 0.00 in0.0 mm
04:29 AM 62.9°F17.2°C 49.7°F9.8°C 62% 3.0 mph N4.8 kmh N 10.0 mph16.1 kmh 30.01 in1016.3 mb 0.00 in0.0 mm 0.00 in/hr0.0 mm/hr 0.00 in0.0 mm
04:30 AM 62.9°F17.2°C 49.7°F9.8°C 62% 1.0 mph N1.6 kmh N 10.0 mph16.1 kmh 30.01 in1016.3 mb 0.00 in0.0 mm 0.00 in/hr0.0 mm/hr 0.00 in0.0 mm
04:33 AM 62.9°F17.2°C 49.7°F9.8°C 62% 5.0 mph N8.0 kmh N 10.0 mph16.1 kmh 30.01 in1016.3 mb 0.00 in0.0 mm 0.00 in/hr0.0 mm/hr 0.00 in0.0 mm
04:34 AM 62.9°F17.2°C 49.7°F9.8°C 62% 4.0 mph N6.4 kmh N 10.0 mph16.1 kmh 30.01 in1016.3 mb 0.00 in0.0 mm 0.00 in/hr0.0 mm/hr 0.00 in0.0 mm
04:35 AM 62.9°F17.2°C 49.7°F9.8°C 62% 3.0 mph N4.8 kmh N 10.0 mph16.1 kmh 30.01 in1016.3 mb 0.00 in0.0 mm 0.00 in/hr0.0 mm/hr 0.00 in0.0 mm
04:38 AM 62.9°F17.2°C 49.7°F9.8°C 62% 4.0 mph NNE6.4 kmh NNE 10.0 mph16.1 kmh 30.01 in1016.3 mb 0.00 in0.0 mm 0.00 in/hr0.0 mm/hr 0.00 in0.0 mm
04:39 AM 62.8°F17.1°C 49.6°F9.8°C 62% 1.0 mph NNE1.6 kmh NNE 10.0 mph16.1 kmh 30.01 in1016.3 mb 0.00 in0.0 mm 0.00 in/hr0.0 mm/hr 0.00 in0.0 mm
04:40 AM 62.8°F17.1°C 49.6°F9.8°C 62% 6.0 mph N9.7 kmh N 10.0 mph16.1 kmh 30.01 in1016.3 mb 0.00 in0.0 mm 0.00 in/hr0.0 mm/hr 0.00 in0.0 mm
04:43 AM 62.8°F17.1°C 50.0°F10.0°C 63% 4.0 mph N6.4 kmh N 10.0 mph16.1 kmh 30.01 in1016.3 mb 0.00 in0.0 mm 0.00 in/hr0.0 mm/hr 0.00 in0.0 mm
04:44 AM 62.8°F17.1°C 50.0°F10.0°C 63% 4.0 mph N6.4 kmh N 10.0 mph16.1 kmh 30.01 in1016.3 mb 0.00 in0.0 mm 0.00 in/hr0.0 mm/hr 0.00 in0.0 mm
04:45 AM 62.8°F17.1°C 50.0°F10.0°C 63% 3.0 mph N4.8 kmh N 10.0 mph16.1 kmh 30.01 in1016.3 mb 0.00 in0.0 mm 0.00 in/hr0.0 mm/hr 0.00 in0.0 mm
04:48 AM 62.7°F17.1°C 49.9°F9.9°C 63% 5.0 mph N8.0 kmh N 10.0 mph16.1 kmh 30.01 in1016.3 mb 0.00 in0.0 mm 0.00 in/hr0.0 mm/hr 0.00 in0.0 mm
04:49 AM 62.7°F17.1°C 49.9°F9.9°C 63% 3.0 mph N4.8 kmh N 10.0 mph16.1 kmh 30.01 in1016.3 mb 0.00 in0.0 mm 0.00 in/hr0.0 mm/hr 0.00 in0.0 mm
04:50 AM 62.7°F17.1°C 49.9°F9.9°C 63% 6.0 mph N9.7 kmh N 10.0 mph16.1 kmh 30.01 in1016.3 mb 0.00 in0.0 mm 0.00 in/hr0.0 mm/hr 0.00 in0.0 mm
04:53 AM 62.3°F16.8°C 50.8°F10.4°C 66% 3.0 mph N4.8 kmh N 10.0 mph16.1 kmh 30.02 in1016.6 mb 0.00 in0.0 mm 0.00 in/hr0.0 mm/hr 0.00 in0.0 mm
04:54 AM 62.1°F16.7°C 51.4°F10.8°C 68% 4.0 mph N6.4 kmh N 10.0 mph16.1 kmh 30.02 in1016.6 mb 0.00 in0.0 mm 0.00 in/hr0.0 mm/hr 0.00 in0.0 mm
04:55 AM 62.0°F16.7°C 51.3°F10.7°C 68% Calm Calm 10.0 mph16.1 kmh 30.02 in1016.6 mb 0.00 in0.0 mm 0.00 in/hr0.0 mm/hr 0.00 in0.0 mm
04:58 AM 61.6°F16.4°C 51.7°F10.9°C 70% 1.0 mph N1.6 kmh N 10.0 mph16.1 kmh 30.02 in1016.6 mb 0.00 in0.0 mm 0.00 in/hr0.0 mm/hr 0.00 in0.0 mm
04:59 AM 61.5°F16.4°C 51.6°F10.9°C 70% 1.0 mph N1.6 kmh N 10.0 mph16.1 kmh 30.02 in1016.6 mb 0.00 in0.0 mm 0.00 in/hr0.0 mm/hr 0.00 in0.0 mm
05:00 AM 61.5°F16.4°C 51.6°F10.9°C 70% 3.0 mph N4.8 kmh N 3.0 mph4.8 kmh 30.02 in1016.6 mb 0.00 in0.0 mm 0.00 in/hr0.0 mm/hr 0.00 in0.0 mm
05:03 AM 61.3°F16.3°C 51.8°F11.0°C 71% 3.0 mph N4.8 kmh N 6.0 mph9.7 kmh 30.02 in1016.6 mb 0.00 in0.0 mm 0.00 in/hr0.0 mm/hr 0.00 in0.0 mm
05:04 AM 61.3°F16.3°C 51.8°F11.0°C 71% 4.0 mph N6.4 kmh N 6.0 mph9.7 kmh 30.02 in1016.6 mb 0.00 in0.0 mm 0.00 in/hr0.0 mm/hr 0.00 in0.0 mm
05:05 AM 61.2°F16.2°C 51.7°F10.9°C 71% 4.0 mph N6.4 kmh N 6.0 mph9.7 kmh 30.02 in1016.6 mb 0.00 in0.0 mm 0.00 in/hr0.0 mm/hr 0.00 in0.0 mm
05:08 AM 61.1°F16.2°C 51.6°F10.9°C 71% 4.0 mph N6.4 kmh N 8.0 mph12.9 kmh 30.02 in1016.6 mb 0.00 in0.0 mm 0.00 in/hr0.0 mm/hr 0.00 in0.0 mm
05:09 AM 61.1°F16.2°C 52.0°F11.1°C 72% 5.0 mph N8.0 kmh N 8.0 mph12.9 kmh 30.02 in1016.6 mb 0.00 in0.0 mm 0.00 in/hr0.0 mm/hr 0.00 in0.0 mm
05:10 AM 61.1°F16.2°C 52.0°F11.1°C 72% 4.0 mph N6.4 kmh N 8.0 mph12.9 kmh 30.02 in1016.6 mb 0.00 in0.0 mm 0.00 in/hr0.0 mm/hr 0.00 in0.0 mm
05:13 AM 61.1°F16.2°C 52.0°F11.1°C 72% 5.0 mph N8.0 kmh N 8.0 mph12.9 kmh 30.02 in1016.6 mb 0.00 in0.0 mm 0.00 in/hr0.0 mm/hr 0.00 in0.0 mm
05:14 AM 61.1°F16.2°C 52.0°F11.1°C 72% 4.0 mph N6.4 kmh N 8.0 mph12.9 kmh 30.02 in1016.6 mb 0.00 in0.0 mm 0.00 in/hr0.0 mm/hr 0.00 in0.0 mm
05:15 AM 61.1°F16.2°C 52.0°F11.1°C 72% 3.0 mph N4.8 kmh N 8.0 mph12.9 kmh 30.02 in1016.6 mb 0.00 in0.0 mm 0.00 in/hr0.0 mm/hr 0.00 in0.0 mm
05:18 AM 61.0°F16.1°C 51.9°F11.1°C 72% 4.0 mph N6.4 kmh N 8.0 mph12.9 kmh 30.02 in1016.6 mb 0.00 in0.0 mm 0.00 in/hr0.0 mm/hr 0.00 in0.0 mm
05:19 AM 61.0°F16.1°C 51.9°F11.1°C 72% 3.0 mph N4.8 kmh N 8.0 mph12.9 kmh 30.02 in1016.6 mb 0.00 in0.0 mm 0.00 in/hr0.0 mm/hr 0.00 in0.0 mm
05:20 AM 61.0°F16.1°C 51.9°F11.1°C 72% 4.0 mph N6.4 kmh N 8.0 mph12.9 kmh 30.02 in1016.6 mb 0.00 in0.0 mm 0.00 in/hr0.0 mm/hr 0.00 in0.0 mm
05:23 AM 61.0°F16.1°C 51.9°F11.1°C 72% 3.0 mph N4.8 kmh N 8.0 mph12.9 kmh 30.03 in1016.9 mb 0.00 in0.0 mm 0.00 in/hr0.0 mm/hr 0.00 in0.0 mm
05:24 AM 61.1°F16.2°C 52.0°F11.1°C 72% 2.0 mph N3.2 kmh N 8.0 mph12.9 kmh 30.03 in1016.9 mb 0.00 in0.0 mm 0.00 in/hr0.0 mm/hr 0.00 in0.0 mm
05:25 AM 61.0°F16.1°C 51.9°F11.1°C 72% 5.0 mph N8.0 kmh N 8.0 mph12.9 kmh 30.03 in1016.9 mb 0.00 in0.0 mm 0.00 in/hr0.0 mm/hr 0.00 in0.0 mm
05:28 AM 61.0°F16.1°C 51.9°F11.1°C 72% 3.0 mph N4.8 kmh N 8.0 mph12.9 kmh 30.03 in1016.9 mb 0.00 in0.0 mm 0.00 in/hr0.0 mm/hr 0.00 in0.0 mm
05:29 AM 61.0°F16.1°C 51.9°F11.1°C 72% 1.0 mph N1.6 kmh N 8.0 mph12.9 kmh 30.03 in1016.9 mb 0.00 in0.0 mm 0.00 in/hr0.0 mm/hr 0.00 in0.0 mm
05:30 AM 61.0°F16.1°C 51.9°F11.1°C 72% 2.0 mph N3.2 kmh N 8.0 mph12.9 kmh 30.03 in1016.9 mb 0.00 in0.0 mm 0.00 in/hr0.0 mm/hr 0.00 in0.0 mm
05:33 AM 61.0°F16.1°C 51.9°F11.1°C 72% 3.0 mph N4.8 kmh N 8.0 mph12.9 kmh 30.03 in1016.9 mb 0.00 in0.0 mm 0.00 in/hr0.0 mm/hr 0.00 in0.0 mm
05:34 AM 61.0°F16.1°C 51.9°F11.1°C 72% 2.0 mph N3.2 kmh N 8.0 mph12.9 kmh 30.03 in1016.9 mb 0.00 in0.0 mm 0.00 in/hr0.0 mm/hr 0.00 in0.0 mm
05:35 AM 61.0°F16.1°C 51.9°F11.1°C 72% 4.0 mph N6.4 kmh N 8.0 mph12.9 kmh 30.03 in1016.9 mb 0.00 in0.0 mm 0.00 in/hr0.0 mm/hr 0.00 in0.0 mm
05:38 AM 61.0°F16.1°C 51.9°F11.1°C 72% 5.0 mph N8.0 kmh N 8.0 mph12.9 kmh 30.03 in1016.9 mb 0.00 in0.0 mm 0.00 in/hr0.0 mm/hr 0.00 in0.0 mm
05:39 AM 61.0°F16.1°C 51.9°F11.1°C 72% 3.0 mph N4.8 kmh N 8.0 mph12.9 kmh 30.03 in1016.9 mb 0.00 in0.0 mm 0.00 in/hr0.0 mm/hr 0.00 in0.0 mm
05:40 AM 61.0°F16.1°C 51.9°F11.1°C 72% 2.0 mph N3.2 kmh N 8.0 mph12.9 kmh 30.03 in1016.9 mb 0.00 in0.0 mm 0.00 in/hr0.0 mm/hr 0.00 in0.0 mm
05:43 AM 60.9°F16.1°C 51.8°F11.0°C 72% 3.0 mph N4.8 kmh N 8.0 mph12.9 kmh 30.03 in1016.9 mb 0.00 in0.0 mm 0.00 in/hr0.0 mm/hr 0.00 in0.0 mm
05:44 AM 60.9°F16.1°C 51.8°F11.0°C 72% 4.0 mph N6.4 kmh N 8.0 mph12.9 kmh 30.03 in1016.9 mb 0.00 in0.0 mm 0.00 in/hr0.0 mm/hr 0.00 in0.0 mm
05:45 AM 60.9°F16.1°C 51.8°F11.0°C 72% 5.0 mph N8.0 kmh N 8.0 mph12.9 kmh 30.03 in1016.9 mb 0.00 in0.0 mm 0.00 in/hr0.0 mm/hr 0.00 in0.0 mm
05:48 AM 60.8°F16.0°C 51.7°F10.9°C 72% 3.0 mph N4.8 kmh N 8.0 mph12.9 kmh 30.03 in1016.9 mb 0.00 in0.0 mm 0.00 in/hr0.0 mm/hr 0.00 in0.0 mm
05:49 AM 60.7°F15.9°C 51.6°F10.9°C 72% 3.0 mph N4.8 kmh N 8.0 mph12.9 kmh 30.03 in1016.9 mb 0.00 in0.0 mm 0.00 in/hr0.0 mm/hr 0.00 in0.0 mm
05:50 AM 60.7°F15.9°C 51.6°F10.9°C 72% 2.0 mph N3.2 kmh N 8.0 mph12.9 kmh 30.03 in1016.9 mb 0.00 in0.0 mm 0.00 in/hr0.0 mm/hr 0.00 in0.0 mm
05:53 AM 60.6°F15.9°C 51.9°F11.1°C 73% 6.0 mph N9.7 kmh N 8.0 mph12.9 kmh 30.03 in1016.9 mb 0.00 in0.0 mm 0.00 in/hr0.0 mm/hr 0.00 in0.0 mm
05:54 AM 60.6°F15.9°C 51.9°F11.1°C 73% 4.0 mph N6.4 kmh N 8.0 mph12.9 kmh 30.03 in1016.9 mb 0.00 in0.0 mm 0.00 in/hr0.0 mm/hr 0.00 in0.0 mm
05:55 AM 60.6°F15.9°C 51.9°F11.1°C 73% 5.0 mph N8.0 kmh N 8.0 mph12.9 kmh 30.03 in1016.9 mb 0.00 in0.0 mm 0.00 in/hr0.0 mm/hr 0.00 in0.0 mm
05:58 AM 60.6°F15.9°C 51.9°F11.1°C 73% 3.0 mph N4.8 kmh N 8.0 mph12.9 kmh 30.03 in1016.9 mb 0.00 in0.0 mm 0.00 in/hr0.0 mm/hr 0.00 in0.0 mm
05:59 AM 60.6°F15.9°C 51.5°F10.8°C 72% 3.0 mph N4.8 kmh N 8.0 mph12.9 kmh 30.03 in1016.9 mb 0.00 in0.0 mm 0.00 in/hr0.0 mm/hr 0.00 in0.0 mm
06:00 AM 60.6°F15.9°C 51.9°F11.1°C 73% 4.0 mph N6.4 kmh N 5.0 mph8.0 kmh 30.03 in1016.9 mb 0.00 in0.0 mm 0.00 in/hr0.0 mm/hr 0.00 in0.0 mm
06:03 AM 60.6°F15.9°C 51.9°F11.1°C 73% 3.0 mph N4.8 kmh N 6.0 mph9.7 kmh 30.03 in1016.9 mb 0.00 in0.0 mm 0.00 in/hr0.0 mm/hr 0.00 in0.0 mm
06:04 AM 60.6°F15.9°C 51.9°F11.1°C 73% 3.0 mph N4.8 kmh N 6.0 mph9.7 kmh 30.03 in1016.9 mb 0.00 in0.0 mm 0.00 in/hr0.0 mm/hr 0.00 in0.0 mm
06:05 AM 60.6°F15.9°C 51.9°F11.1°C 73% 5.0 mph N8.0 kmh N 6.0 mph9.7 kmh 30.03 in1016.9 mb 0.00 in0.0 mm 0.00 in/hr0.0 mm/hr 0.00 in0.0 mm
06:08 AM 60.5°F15.8°C 51.4°F10.8°C 72% 4.0 mph N6.4 kmh N 6.0 mph9.7 kmh 30.03 in1016.9 mb 0.00 in0.0 mm 0.00 in/hr0.0 mm/hr 0.00 in0.0 mm
06:09 AM 60.5°F15.8°C 51.4°F10.8°C 72% 5.0 mph N8.0 kmh N 6.0 mph9.7 kmh 30.03 in1016.9 mb 0.00 in0.0 mm 0.00 in/hr0.0 mm/hr 0.00 in0.0 mm
06:10 AM 60.5°F15.8°C 51.8°F11.0°C 73% 6.0 mph N9.7 kmh N 6.0 mph9.7 kmh 30.03 in1016.9 mb 0.00 in0.0 mm 0.00 in/hr0.0 mm/hr 0.00 in0.0 mm
06:13 AM 60.5°F15.8°C 51.8°F11.0°C 73% 5.0 mph N8.0 kmh N 7.0 mph11.3 kmh 30.03 in1016.9 mb 0.00 in0.0 mm 0.00 in/hr0.0 mm/hr 0.00 in0.0 mm
06:14 AM 60.4°F15.8°C 51.7°F10.9°C 73% 2.0 mph N3.2 kmh N 7.0 mph11.3 kmh 30.03 in1016.9 mb 0.00 in0.0 mm 0.00 in/hr0.0 mm/hr 0.00 in0.0 mm
06:15 AM 60.4°F15.8°C 51.7°F10.9°C 73% 4.0 mph N6.4 kmh N 7.0 mph11.3 kmh 30.03 in1016.9 mb 0.00 in0.0 mm 0.00 in/hr0.0 mm/hr 0.00 in0.0 mm
06:18 AM 60.4°F15.8°C 51.3°F10.7°C 72% 4.0 mph N6.4 kmh N 7.0 mph11.3 kmh 30.03 in1016.9 mb 0.00 in0.0 mm 0.00 in/hr0.0 mm/hr 0.00 in0.0 mm
06:19 AM 60.4°F15.8°C 51.3°F10.7°C 72% 3.0 mph N4.8 kmh N 7.0 mph11.3 kmh 30.03 in1016.9 mb 0.00 in0.0 mm 0.00 in/hr0.0 mm/hr 0.00 in0.0 mm
06:20 AM 60.3°F15.7°C 51.3°F10.7°C 72% 4.0 mph N6.4 kmh N 7.0 mph11.3 kmh 30.03 in1016.9 mb 0.00 in0.0 mm 0.00 in/hr0.0 mm/hr 0.00 in0.0 mm
06:23 AM 60.3°F15.7°C 51.3°F10.7°C 72% 5.0 mph N8.0 kmh N 7.0 mph11.3 kmh 30.03 in1016.9 mb 0.00 in0.0 mm 0.00 in/hr0.0 mm/hr 0.00 in0.0 mm
06:24 AM 60.3°F15.7°C 51.3°F10.7°C 72% Calm Calm 7.0 mph11.3 kmh 30.03 in1016.9 mb 0.00 in0.0 mm 0.00 in/hr0.0 mm/hr 0.00 in0.0 mm
06:25 AM 60.2°F15.7°C 51.2°F10.7°C 72% 3.0 mph N4.8 kmh N 7.0 mph11.3 kmh 30.03 in1016.9 mb 0.00 in0.0 mm 0.00 in/hr0.0 mm/hr 0.00 in0.0 mm
06:28 AM 60.2°F15.7°C 51.2°F10.7°C 72% 5.0 mph N8.0 kmh N 7.0 mph11.3 kmh 30.04 in1017.3 mb 0.00 in0.0 mm 0.00 in/hr0.0 mm/hr 0.00 in0.0 mm
06:29 AM 60.1°F15.6°C 51.4°F10.8°C 73% 2.0 mph N3.2 kmh N 7.0 mph11.3 kmh 30.04 in1017.3 mb 0.00 in0.0 mm 0.00 in/hr0.0 mm/hr 0.00 in0.0 mm
06:30 AM 60.1°F15.6°C 51.4°F10.8°C 73% 5.0 mph N8.0 kmh N 7.0 mph11.3 kmh 30.04 in1017.3 mb 0.00 in0.0 mm 0.00 in/hr0.0 mm/hr 0.00 in0.0 mm
06:33 AM 60.1°F15.6°C 51.4°F10.8°C 73% 4.0 mph N6.4 kmh N 7.0 mph11.3 kmh 30.04 in1017.3 mb 0.00 in0.0 mm 0.00 in/hr0.0 mm/hr 0.00 in0.0 mm
06:34 AM 60.1°F15.6°C 51.4°F10.8°C 73% 1.0 mph N1.6 kmh N 7.0 mph11.3 kmh 30.04 in1017.3 mb 0.00 in0.0 mm 0.00 in/hr0.0 mm/hr 0.00 in0.0 mm
06:35 AM 60.1°F15.6°C 51.4°F10.8°C 73% 4.0 mph N6.4 kmh N 7.0 mph11.3 kmh 30.04 in1017.3 mb 0.00 in0.0 mm 0.00 in/hr0.0 mm/hr 0.00 in0.0 mm
06:38 AM 60.0°F15.6°C 51.3°F10.7°C 73% 3.0 mph N4.8 kmh N 7.0 mph11.3 kmh 30.04 in1017.3 mb 0.00 in0.0 mm 0.00 in/hr0.0 mm/hr 0.00 in0.0 mm
06:39 AM 60.0°F15.6°C 51.3°F10.7°C 73% 4.0 mph N6.4 kmh N 7.0 mph11.3 kmh 30.03 in1016.9 mb 0.00 in0.0 mm 0.00 in/hr0.0 mm/hr 0.00 in0.0 mm
06:40 AM 60.0°F15.6°C 51.3°F10.7°C 73% 4.0 mph N6.4 kmh N 7.0 mph11.3 kmh 30.03 in1016.9 mb 0.00 in0.0 mm 0.00 in/hr0.0 mm/hr 0.00 in0.0 mm
06:43 AM 59.9°F15.5°C 51.2°F10.7°C 73% 3.0 mph N4.8 kmh N 7.0 mph11.3 kmh 30.04 in1017.3 mb 0.00 in0.0 mm 0.00 in/hr0.0 mm/hr 0.00 in0.0 mm
06:44 AM 59.9°F15.5°C 51.2°F10.7°C 73% 3.0 mph N4.8 kmh N 7.0 mph11.3 kmh 30.04 in1017.3 mb 0.00 in0.0 mm 0.00 in/hr0.0 mm/hr 0.00 in0.0 mm
06:45 AM 59.9°F15.5°C 51.2°F10.7°C 73% 1.0 mph N1.6 kmh N 7.0 mph11.3 kmh 30.04 in1017.3 mb 0.00 in0.0 mm 0.00 in/hr0.0 mm/hr 0.00 in0.0 mm
06:48 AM 59.9°F15.5°C 51.2°F10.7°C 73% Calm Calm 7.0 mph11.3 kmh 30.04 in1017.3 mb 0.00 in0.0 mm 0.00 in/hr0.0 mm/hr 0.00 in0.0 mm
06:49 AM 59.9°F15.5°C 51.2°F10.7°C 73% 3.0 mph N4.8 kmh N 8.0 mph12.9 kmh 30.04 in1017.3 mb 0.00 in0.0 mm 0.00 in/hr0.0 mm/hr 0.00 in0.0 mm
06:50 AM 59.9°F15.5°C 51.2°F10.7°C 73% 2.0 mph N3.2 kmh N 8.0 mph12.9 kmh 30.04 in1017.3 mb 0.00 in0.0 mm 0.00 in/hr0.0 mm/hr 0.00 in0.0 mm
06:53 AM 60.0°F15.6°C 51.0°F10.6°C 72% 3.0 mph N4.8 kmh N 8.0 mph12.9 kmh 30.04 in1017.3 mb 0.00 in0.0 mm 0.00 in/hr0.0 mm/hr 0.00 in0.0 mm
06:54 AM 60.0°F15.6°C 51.0°F10.6°C 72% 5.0 mph N8.0 kmh N 8.0 mph12.9 kmh 30.03 in1016.9 mb 0.00 in0.0 mm 0.00 in/hr0.0 mm/hr 0.00 in0.0 mm
06:55 AM 60.1°F15.6°C 51.1°F10.6°C 72% 2.0 mph N3.2 kmh N 8.0 mph12.9 kmh 30.04 in1017.3 mb 0.00 in0.0 mm 0.00 in/hr0.0 mm/hr 0.00 in0.0 mm
06:58 AM 60.2°F15.7°C 51.2°F10.7°C 72% 4.0 mph N6.4 kmh N 8.0 mph12.9 kmh 30.04 in1017.3 mb 0.00 in0.0 mm 0.00 in/hr0.0 mm/hr 0.00 in0.0 mm
06:59 AM 60.1°F15.6°C 51.1°F10.6°C 72% Calm Calm 8.0 mph12.9 kmh 30.04 in1017.3 mb 0.00 in0.0 mm 0.00 in/hr0.0 mm/hr 0.00 in0.0 mm
07:00 AM 60.2°F15.7°C 51.2°F10.7°C 72% 3.0 mph N4.8 kmh N 3.0 mph4.8 kmh 30.04 in1017.3 mb 0.00 in0.0 mm 0.00 in/hr0.0 mm/hr 0.00 in0.0 mm
07:03 AM 60.3°F15.7°C 51.3°F10.7°C 72% 1.0 mph N1.6 kmh N 6.0 mph9.7 kmh 30.04 in1017.3 mb 0.00 in0.0 mm 0.00 in/hr0.0 mm/hr 0.00 in0.0 mm
07:04 AM 60.3°F15.7°C 51.3°F10.7°C 72% 1.0 mph N1.6 kmh N 6.0 mph9.7 kmh 30.04 in1017.3 mb 0.00 in0.0 mm 0.00 in/hr0.0 mm/hr 0.00 in0.0 mm
07:05 AM 60.3°F15.7°C 51.3°F10.7°C 72% Calm Calm 6.0 mph9.7 kmh 30.04 in1017.3 mb 0.00 in0.0 mm 0.00 in/hr0.0 mm/hr 0.00 in0.0 mm
07:08 AM 60.4°F15.8°C 51.3°F10.7°C 72% Calm Calm 6.0 mph9.7 kmh 30.04 in1017.3 mb 0.00 in0.0 mm 0.00 in/hr0.0 mm/hr 0.00 in0.0 mm
07:09 AM 60.4°F15.8°C 51.3°F10.7°C 72% Calm Calm 6.0 mph9.7 kmh 30.04 in1017.3 mb 0.00 in0.0 mm 0.00 in/hr0.0 mm/hr 0.00 in0.0 mm
07:10 AM 60.4°F15.8°C 51.3°F10.7°C 72% 1.0 mph N1.6 kmh N 6.0 mph9.7 kmh 30.04 in1017.3 mb 0.00 in0.0 mm 0.00 in/hr0.0 mm/hr 0.00 in0.0 mm
07:13 AM 60.5°F15.8°C 51.4°F10.8°C 72% Calm Calm 6.0 mph9.7 kmh 30.04 in1017.3 mb 0.00 in0.0 mm 0.00 in/hr0.0 mm/hr 0.00 in0.0 mm
07:14 AM 60.5°F15.8°C 51.4°F10.8°C 72% 1.0 mph N1.6 kmh N 6.0 mph9.7 kmh 30.04 in1017.3 mb 0.00 in0.0 mm 0.00 in/hr0.0 mm/hr 0.00 in0.0 mm
07:15 AM 60.5°F15.8°C 51.4°F10.8°C 72% 1.0 mph N1.6 kmh N 6.0 mph9.7 kmh 30.04 in1017.3 mb 0.00 in0.0 mm 0.00 in/hr0.0 mm/hr 0.00 in0.0 mm
07:18 AM 60.6°F15.9°C 51.2°F10.7°C 71% Calm Calm 6.0 mph9.7 kmh 30.04 in1017.3 mb 0.00 in0.0 mm 0.00 in/hr0.0 mm/hr 0.00 in0.0 mm
07:19 AM 60.6°F15.9°C 51.2°F10.7°C 71% Calm Calm 6.0 mph9.7 kmh 30.04 in1017.3 mb 0.00 in0.0 mm 0.00 in/hr0.0 mm/hr 0.00 in0.0 mm
07:20 AM 60.6°F15.9°C 51.2°F10.7°C 71% Calm Calm 6.0 mph9.7 kmh 30.04 in1017.3 mb 0.00 in0.0 mm 0.00 in/hr0.0 mm/hr 0.00 in0.0 mm
07:23 AM 60.7°F15.9°C 51.3°F10.7°C 71% Calm Calm 6.0 mph9.7 kmh 30.04 in1017.3 mb 0.00 in0.0 mm 0.00 in/hr0.0 mm/hr 0.00 in0.0 mm
07:24 AM 60.7°F15.9°C 51.3°F10.7°C 71% 3.0 mph N4.8 kmh N 6.0 mph9.7 kmh 30.04 in1017.3 mb 0.00 in0.0 mm 0.00 in/hr0.0 mm/hr 0.00 in0.0 mm
07:25 AM 60.8°F16.0°C 51.4°F10.8°C 71% 1.0 mph N1.6 kmh N 6.0 mph9.7 kmh 30.05 in1017.6 mb 0.00 in0.0 mm 0.00 in/hr0.0 mm/hr 0.00 in0.0 mm
07:28 AM 60.8°F16.0°C 51.4°F10.8°C 71% 1.0 mph N1.6 kmh N 6.0 mph9.7 kmh 30.05 in1017.6 mb 0.00 in0.0 mm 0.00 in/hr0.0 mm/hr 0.00 in0.0 mm
07:29 AM 60.9°F16.1°C 51.5°F10.8°C 71% 2.0 mph N3.2 kmh N 6.0 mph9.7 kmh 30.05 in1017.6 mb 0.00 in0.0 mm 0.00 in/hr0.0 mm/hr 0.00 in0.0 mm
07:30 AM 61.0°F16.1°C 51.5°F10.8°C 71% Calm Calm 6.0 mph9.7 kmh 30.05 in1017.6 mb 0.00 in0.0 mm 0.00 in/hr0.0 mm/hr 0.00 in0.0 mm
07:33 AM 61.1°F16.2°C 51.6°F10.9°C 71% 6.0 mph N9.7 kmh N 7.0 mph11.3 kmh 30.05 in1017.6 mb 0.00 in0.0 mm 0.00 in/hr0.0 mm/hr 0.00 in0.0 mm
07:34 AM 61.2°F16.2°C 51.7°F10.9°C 71% Calm Calm 7.0 mph11.3 kmh 30.05 in1017.6 mb 0.00 in0.0 mm 0.00 in/hr0.0 mm/hr 0.00 in0.0 mm
07:35 AM 61.2°F16.2°C 51.4°F10.8°C 70% 1.0 mph N1.6 kmh N 7.0 mph11.3 kmh 30.05 in1017.6 mb 0.00 in0.0 mm 0.00 in/hr0.0 mm/hr 0.00 in0.0 mm
07:38 AM 61.3°F16.3°C 51.5°F10.8°C 70% 3.0 mph N4.8 kmh N 7.0 mph11.3 kmh 30.05 in1017.6 mb 0.00 in0.0 mm 0.00 in/hr0.0 mm/hr 0.00 in0.0 mm
07:39 AM 61.4°F16.3°C 51.5°F10.8°C 70% 3.0 mph N4.8 kmh N 7.0 mph11.3 kmh 30.05 in1017.6 mb 0.00 in0.0 mm 0.00 in/hr0.0 mm/hr 0.00 in0.0 mm
07:40 AM 61.4°F16.3°C 51.5°F10.8°C 70% 6.0 mph NNE9.7 kmh NNE 8.0 mph12.9 kmh 30.05 in1017.6 mb 0.00 in0.0 mm 0.00 in/hr0.0 mm/hr 0.00 in0.0 mm
07:43 AM 61.6°F16.4°C 51.7°F10.9°C 70% 5.0 mph N8.0 kmh N 8.0 mph12.9 kmh 30.05 in1017.6 mb 0.00 in0.0 mm 0.00 in/hr0.0 mm/hr 0.00 in0.0 mm
07:44 AM 61.6°F16.4°C 51.7°F10.9°C 70% 4.0 mph N6.4 kmh N 8.0 mph12.9 kmh 30.05 in1017.6 mb 0.00 in0.0 mm 0.00 in/hr0.0 mm/hr 0.00 in0.0 mm
07:45 AM 61.7°F16.5°C 51.4°F10.8°C 69% 5.0 mph N8.0 kmh N 8.0 mph12.9 kmh 30.05 in1017.6 mb 0.00 in0.0 mm 0.00 in/hr0.0 mm/hr 0.00 in0.0 mm
07:48 AM 61.8°F16.6°C 51.5°F10.8°C 69% 5.0 mph N8.0 kmh N 10.0 mph16.1 kmh 30.05 in1017.6 mb 0.00 in0.0 mm 0.00 in/hr0.0 mm/hr 0.00 in0.0 mm
07:49 AM 61.8°F16.6°C 51.5°F10.8°C 69% 6.0 mph N9.7 kmh N 10.0 mph16.1 kmh 30.05 in1017.6 mb 0.00 in0.0 mm 0.00 in/hr0.0 mm/hr 0.00 in0.0 mm
07:50 AM 61.9°F16.6°C 51.6°F10.9°C 69% 5.0 mph NNE8.0 kmh NNE 10.0 mph16.1 kmh 30.05 in1017.6 mb 0.00 in0.0 mm 0.00 in/hr0.0 mm/hr 0.00 in0.0 mm
07:53 AM 61.9°F16.6°C 51.2°F10.7°C 68% 3.0 mph NNE4.8 kmh NNE 10.0 mph16.1 kmh 30.05 in1017.6 mb 0.00 in0.0 mm 0.00 in/hr0.0 mm/hr 0.00 in0.0 mm
07:54 AM 62.0°F16.7°C 51.3°F10.7°C 68% 7.0 mph N11.3 kmh N 12.0 mph19.3 kmh 30.05 in1017.6 mb 0.00 in0.0 mm 0.00 in/hr0.0 mm/hr 0.00 in0.0 mm
07:55 AM 62.0°F16.7°C 51.3°F10.7°C 68% 6.0 mph NNE9.7 kmh NNE 12.0 mph19.3 kmh 30.05 in1017.6 mb 0.00 in0.0 mm 0.00 in/hr0.0 mm/hr 0.00 in0.0 mm
07:58 AM 62.1°F16.7°C 51.4°F10.8°C 68% 4.0 mph N6.4 kmh N 12.0 mph19.3 kmh 30.05 in1017.6 mb 0.00 in0.0 mm 0.00 in/hr0.0 mm/hr 0.00 in0.0 mm
07:59 AM 62.1°F16.7°C 51.4°F10.8°C 68% 4.0 mph N6.4 kmh N 12.0 mph19.3 kmh 30.05 in1017.6 mb 0.00 in0.0 mm 0.00 in/hr0.0 mm/hr 0.00 in0.0 mm
08:00 AM 62.2°F16.8°C 51.5°F10.8°C 68% 4.0 mph N6.4 kmh N 4.0 mph6.4 kmh 30.05 in1017.6 mb 0.00 in0.0 mm 0.00 in/hr0.0 mm/hr 0.00 in0.0 mm
08:03 AM 62.3°F16.8°C 51.2°F10.7°C 67% 4.0 mph N6.4 kmh N 10.0 mph16.1 kmh 30.06 in1017.9 mb 0.00 in0.0 mm 0.00 in/hr0.0 mm/hr 0.00 in0.0 mm
08:04 AM 62.4°F16.9°C 51.3°F10.7°C 67% 4.0 mph N6.4 kmh N 10.0 mph16.1 kmh 30.06 in1017.9 mb 0.00 in0.0 mm 0.00 in/hr0.0 mm/hr 0.00 in0.0 mm
08:05 AM 62.4°F16.9°C 51.3°F10.7°C 67% 5.0 mph N8.0 kmh N 10.0 mph16.1 kmh 30.06 in1017.9 mb 0.00 in0.0 mm 0.00 in/hr0.0 mm/hr 0.00 in0.0 mm
08:08 AM 62.5°F16.9°C 51.0°F10.6°C 66% 3.0 mph NNE4.8 kmh NNE 14.0 mph22.5 kmh 30.06 in1017.9 mb 0.00 in0.0 mm 0.00 in/hr0.0 mm/hr 0.00 in0.0 mm
08:09 AM 62.5°F16.9°C 51.0°F10.6°C 66% 5.0 mph NE8.0 kmh NE 14.0 mph22.5 kmh 30.06 in1017.9 mb 0.00 in0.0 mm 0.00 in/hr0.0 mm/hr 0.00 in0.0 mm
08:10 AM 62.5°F16.9°C 50.6°F10.3°C 65% 6.0 mph N9.7 kmh N 14.0 mph22.5 kmh 30.06 in1017.9 mb 0.00 in0.0 mm 0.00 in/hr0.0 mm/hr 0.00 in0.0 mm
08:13 AM 62.6°F17.0°C 50.7°F10.4°C 65% 1.0 mph NNE1.6 kmh NNE 14.0 mph22.5 kmh 30.06 in1017.9 mb 0.00 in0.0 mm 0.00 in/hr0.0 mm/hr 0.00 in0.0 mm
08:14 AM 62.6°F17.0°C 50.3°F10.2°C 64% 7.0 mph N11.3 kmh N 14.0 mph22.5 kmh 30.06 in1017.9 mb 0.00 in0.0 mm 0.00 in/hr0.0 mm/hr 0.00 in0.0 mm
08:15 AM 62.6°F17.0°C 50.3°F10.2°C 64% 7.0 mph NNE11.3 kmh NNE 14.0 mph22.5 kmh 30.06 in1017.9 mb 0.00 in0.0 mm 0.00 in/hr0.0 mm/hr 0.00 in0.0 mm
08:18 AM 62.8°F17.1°C 50.9°F10.5°C 65% 3.0 mph NNE4.8 kmh NNE 14.0 mph22.5 kmh 30.06 in1017.9 mb 0.00 in0.0 mm 0.00 in/hr0.0 mm/hr 0.00 in0.0 mm
08:19 AM 62.8°F17.1°C 50.5°F10.3°C 64% 11.0 mph NNE17.7 kmh NNE 14.0 mph22.5 kmh 30.06 in1017.9 mb 0.00 in0.0 mm 0.00 in/hr0.0 mm/hr 0.00 in0.0 mm
08:20 AM 62.9°F17.2°C 50.6°F10.3°C 64% 5.0 mph N8.0 kmh N 14.0 mph22.5 kmh 30.06 in1017.9 mb 0.00 in0.0 mm 0.00 in/hr0.0 mm/hr 0.00 in0.0 mm
08:23 AM 63.1°F17.3°C 50.7°F10.4°C 64% 3.0 mph N4.8 kmh N 14.0 mph22.5 kmh 30.06 in1017.9 mb 0.00 in0.0 mm 0.00 in/hr0.0 mm/hr 0.00 in0.0 mm
08:24 AM 63.1°F17.3°C 50.7°F10.4°C 64% 8.0 mph NNE12.9 kmh NNE 14.0 mph22.5 kmh 30.06 in1017.9 mb 0.00 in0.0 mm 0.00 in/hr0.0 mm/hr 0.00 in0.0 mm
08:25 AM 63.1°F17.3°C 50.7°F10.4°C 64% 4.0 mph NNE6.4 kmh NNE 14.0 mph22.5 kmh 30.06 in1017.9 mb 0.00 in0.0 mm 0.00 in/hr0.0 mm/hr 0.00 in0.0 mm
08:28 AM 63.1°F17.3°C 50.7°F10.4°C 64% 10.0 mph NNE16.1 kmh NNE 14.0 mph22.5 kmh 30.06 in1017.9 mb 0.00 in0.0 mm 0.00 in/hr0.0 mm/hr 0.00 in0.0 mm
08:29 AM 63.1°F17.3°C 50.7°F10.4°C 64% 6.0 mph N9.7 kmh N 14.0 mph22.5 kmh 30.06 in1017.9 mb 0.00 in0.0 mm 0.00 in/hr0.0 mm/hr 0.00 in0.0 mm
08:30 AM 63.1°F17.3°C 50.7°F10.4°C 64% 7.0 mph NNE11.3 kmh NNE 14.0 mph22.5 kmh 30.06 in1017.9 mb 0.00 in0.0 mm 0.00 in/hr0.0 mm/hr 0.00 in0.0 mm
08:33 AM 63.2°F17.3°C 50.4°F10.2°C 63% 4.0 mph N6.4 kmh N 14.0 mph22.5 kmh 30.06 in1017.9 mb 0.00 in0.0 mm 0.00 in/hr0.0 mm/hr 0.00 in0.0 mm
08:34 AM 63.2°F17.3°C 50.4°F10.2°C 63% 4.0 mph NNE6.4 kmh NNE 14.0 mph22.5 kmh 30.06 in1017.9 mb 0.00 in0.0 mm 0.00 in/hr0.0 mm/hr 0.00 in0.0 mm
08:35 AM 63.3°F17.4°C 50.5°F10.3°C 63% 3.0 mph NNE4.8 kmh NNE 14.0 mph22.5 kmh 30.06 in1017.9 mb 0.00 in0.0 mm 0.00 in/hr0.0 mm/hr 0.00 in0.0 mm
08:38 AM 63.5°F17.5°C 50.7°F10.4°C 63% 2.0 mph NNE3.2 kmh NNE 14.0 mph22.5 kmh 30.06 in1017.9 mb 0.00 in0.0 mm 0.00 in/hr0.0 mm/hr 0.00 in0.0 mm
08:39 AM 63.5°F17.5°C 50.7°F10.4°C 63% 4.0 mph NNE6.4 kmh NNE 14.0 mph22.5 kmh 30.06 in1017.9 mb 0.00 in0.0 mm 0.00 in/hr0.0 mm/hr 0.00 in0.0 mm
08:40 AM 63.6°F17.6°C 50.4°F10.2°C 62% 8.0 mph N12.9 kmh N 14.0 mph22.5 kmh 30.06 in1017.9 mb 0.00 in0.0 mm 0.00 in/hr0.0 mm/hr 0.00 in0.0 mm
08:43 AM 63.7°F17.6°C 50.0°F10.0°C 61% 4.0 mph NE6.4 kmh NE 14.0 mph22.5 kmh 30.06 in1017.9 mb 0.00 in0.0 mm 0.00 in/hr0.0 mm/hr 0.00 in0.0 mm
08:44 AM 63.7°F17.6°C 50.0°F10.0°C 61% 9.0 mph NE14.5 kmh NE 14.0 mph22.5 kmh 30.06 in1017.9 mb 0.00 in0.0 mm 0.00 in/hr0.0 mm/hr 0.00 in0.0 mm
08:45 AM 63.8°F17.7°C 50.1°F10.1°C 61% 8.0 mph NNW12.9 kmh NNW 14.0 mph22.5 kmh 30.06 in1017.9 mb 0.00 in0.0 mm 0.00 in/hr0.0 mm/hr 0.00 in0.0 mm
08:48 AM 64.0°F17.8°C 49.4°F9.7°C 59% 8.0 mph N12.9 kmh N 14.0 mph22.5 kmh 30.06 in1017.9 mb 0.00 in0.0 mm 0.00 in/hr0.0 mm/hr 0.00 in0.0 mm
08:49 AM 64.0°F17.8°C 49.4°F9.7°C 59% 6.0 mph N9.7 kmh N 14.0 mph22.5 kmh 30.06 in1017.9 mb 0.00 in0.0 mm 0.00 in/hr0.0 mm/hr 0.00 in0.0 mm
08:50 AM 64.0°F17.8°C 49.9°F9.9°C 60% 8.0 mph NNW12.9 kmh NNW 14.0 mph22.5 kmh 30.06 in1017.9 mb 0.00 in0.0 mm 0.00 in/hr0.0 mm/hr 0.00 in0.0 mm
08:53 AM 64.1°F17.8°C 49.5°F9.7°C 59% 7.0 mph N11.3 kmh N 14.0 mph22.5 kmh 30.06 in1017.9 mb 0.00 in0.0 mm 0.00 in/hr0.0 mm/hr 0.00 in0.0 mm
08:54 AM 64.2°F17.9°C 49.6°F9.8°C 59% 11.0 mph NE17.7 kmh NE 14.0 mph22.5 kmh 30.06 in1017.9 mb 0.00 in0.0 mm 0.00 in/hr0.0 mm/hr 0.00 in0.0 mm
08:55 AM 64.2°F17.9°C 49.6°F9.8°C 59% 1.0 mph NE1.6 kmh NE 14.0 mph22.5 kmh 30.06 in1017.9 mb 0.00 in0.0 mm 0.00 in/hr0.0 mm/hr 0.00 in0.0 mm
08:58 AM 64.4°F18.0°C 49.8°F9.9°C 59% 4.0 mph NE6.4 kmh NE 14.0 mph22.5 kmh 30.06 in1017.9 mb 0.00 in0.0 mm 0.00 in/hr0.0 mm/hr 0.00 in0.0 mm
08:59 AM 64.5°F18.1°C 49.9°F9.9°C 59% 6.0 mph NE9.7 kmh NE 14.0 mph22.5 kmh 30.06 in1017.9 mb 0.00 in0.0 mm 0.00 in/hr0.0 mm/hr 0.00 in0.0 mm
09:00 AM 64.6°F18.1°C 49.5°F9.7°C 58% 2.0 mph NE3.2 kmh NE 2.0 mph3.2 kmh 30.06 in1017.9 mb 0.00 in0.0 mm 0.00 in/hr0.0 mm/hr 0.00 in0.0 mm
09:03 AM 65.0°F18.3°C 49.4°F9.7°C 57% 5.0 mph NNE8.0 kmh NNE 11.0 mph17.7 kmh 30.06 in1017.9 mb 0.00 in0.0 mm 0.00 in/hr0.0 mm/hr 0.00 in0.0 mm
09:04 AM 65.0°F18.3°C 49.4°F9.7°C 57% 1.0 mph N1.6 kmh N 11.0 mph17.7 kmh 30.06 in1017.9 mb 0.00 in0.0 mm 0.00 in/hr0.0 mm/hr 0.00 in0.0 mm
09:05 AM 65.1°F18.4°C 49.5°F9.7°C 57% 5.0 mph N8.0 kmh N 11.0 mph17.7 kmh 30.06 in1017.9 mb 0.00 in0.0 mm 0.00 in/hr0.0 mm/hr 0.00 in0.0 mm
09:08 AM 65.4°F18.6°C 48.8°F9.3°C 55% 7.0 mph N11.3 kmh N 11.0 mph17.7 kmh 30.06 in1017.9 mb 0.00 in0.0 mm 0.00 in/hr0.0 mm/hr 0.00 in0.0 mm
09:09 AM 65.4°F18.6°C 48.8°F9.3°C 55% 5.0 mph NNE8.0 kmh NNE 11.0 mph17.7 kmh 30.06 in1017.9 mb 0.00 in0.0 mm 0.00 in/hr0.0 mm/hr 0.00 in0.0 mm
09:10 AM 65.5°F18.6°C 48.4°F9.1°C 54% 5.0 mph NNE8.0 kmh NNE 11.0 mph17.7 kmh 30.06 in1017.9 mb 0.00 in0.0 mm 0.00 in/hr0.0 mm/hr 0.00 in0.0 mm
09:13 AM 65.5°F18.6°C 47.9°F8.8°C 53% 4.0 mph NNE6.4 kmh NNE 11.0 mph17.7 kmh 30.06 in1017.9 mb 0.00 in0.0 mm 0.00 in/hr0.0 mm/hr 0.00 in0.0 mm
09:14 AM 65.5°F18.6°C 47.9°F8.8°C 53% 4.0 mph N6.4 kmh N 11.0 mph17.7 kmh 30.06 in1017.9 mb 0.00 in0.0 mm 0.00 in/hr0.0 mm/hr 0.00 in0.0 mm
09:15 AM 65.5°F18.6°C 47.9°F8.8°C 53% 6.0 mph NE9.7 kmh NE 11.0 mph17.7 kmh 30.06 in1017.9 mb 0.00 in0.0 mm 0.00 in/hr0.0 mm/hr 0.00 in0.0 mm
09:18 AM 65.6°F18.7°C 47.5°F8.6°C 52% 3.0 mph NNW4.8 kmh NNW 11.0 mph17.7 kmh 30.06 in1017.9 mb 0.00 in0.0 mm 0.00 in/hr0.0 mm/hr 0.00 in0.0 mm
09:19 AM 65.6°F18.7°C 47.5°F8.6°C 52% 8.0 mph N12.9 kmh N 11.0 mph17.7 kmh 30.06 in1017.9 mb 0.00 in0.0 mm 0.00 in/hr0.0 mm/hr 0.00 in0.0 mm
09:20 AM 65.6°F18.7°C 47.5°F8.6°C 52% 9.0 mph NE14.5 kmh NE 11.0 mph17.7 kmh 30.06 in1017.9 mb 0.00 in0.0 mm 0.00 in/hr0.0 mm/hr 0.00 in0.0 mm
09:23 AM 65.7°F18.7°C 47.6°F8.7°C 52% 5.0 mph N8.0 kmh N 11.0 mph17.7 kmh 30.06 in1017.9 mb 0.00 in0.0 mm 0.00 in/hr0.0 mm/hr 0.00 in0.0 mm
09:24 AM 65.8°F18.8°C 47.7°F8.7°C 52% 7.0 mph NE11.3 kmh NE 11.0 mph17.7 kmh 30.06 in1017.9 mb 0.00 in0.0 mm 0.00 in/hr0.0 mm/hr 0.00 in0.0 mm
09:25 AM 65.8°F18.8°C 47.7°F8.7°C 52% 4.0 mph NE6.4 kmh NE 11.0 mph17.7 kmh 30.06 in1017.9 mb 0.00 in0.0 mm 0.00 in/hr0.0 mm/hr 0.00 in0.0 mm
09:28 AM 66.0°F18.9°C 48.4°F9.1°C 53% 6.0 mph NNE9.7 kmh NNE 11.0 mph17.7 kmh 30.06 in1017.9 mb 0.00 in0.0 mm 0.00 in/hr0.0 mm/hr 0.00 in0.0 mm
09:29 AM 66.1°F18.9°C 48.0°F8.9°C 52% 4.0 mph NNE6.4 kmh NNE 11.0 mph17.7 kmh 30.06 in1017.9 mb 0.00 in0.0 mm 0.00 in/hr0.0 mm/hr 0.00 in0.0 mm
09:30 AM 66.1°F18.9°C 48.0°F8.9°C 52% 4.0 mph N6.4 kmh N 11.0 mph17.7 kmh 30.06 in1017.9 mb 0.00 in0.0 mm 0.00 in/hr0.0 mm/hr 0.00 in0.0 mm
09:33 AM 66.2°F19.0°C 48.1°F8.9°C 52% 5.0 mph NNE8.0 kmh NNE 11.0 mph17.7 kmh 30.06 in1017.9 mb 0.00 in0.0 mm 0.00 in/hr0.0 mm/hr 0.00 in0.0 mm
09:34 AM 66.1°F18.9°C 48.0°F8.9°C 52% 6.0 mph NNE9.7 kmh NNE 11.0 mph17.7 kmh 30.06 in1017.9 mb 0.00 in0.0 mm 0.00 in/hr0.0 mm/hr 0.00 in0.0 mm
09:35 AM 66.1°F18.9°C 48.5°F9.2°C 53% 4.0 mph NE6.4 kmh NE 11.0 mph17.7 kmh 30.06 in1017.9 mb 0.00 in0.0 mm 0.00 in/hr0.0 mm/hr 0.00 in0.0 mm
09:38 AM 66.1°F18.9°C 47.5°F8.6°C 51% 4.0 mph NNE6.4 kmh NNE 11.0 mph17.7 kmh 30.06 in1017.9 mb 0.00 in0.0 mm 0.00 in/hr0.0 mm/hr 0.00 in0.0 mm
09:39 AM 66.0°F18.9°C 47.4°F8.6°C 51% 11.0 mph N17.7 kmh N 12.0 mph19.3 kmh 30.06 in1017.9 mb 0.00 in0.0 mm 0.00 in/hr0.0 mm/hr 0.00 in0.0 mm
09:40 AM 66.0°F18.9°C 46.9°F8.3°C 50% 6.0 mph N9.7 kmh N 12.0 mph19.3 kmh 30.06 in1017.9 mb 0.00 in0.0 mm 0.00 in/hr0.0 mm/hr 0.00 in0.0 mm
09:43 AM 66.0°F18.9°C 46.9°F8.3°C 50% 11.0 mph NNE17.7 kmh NNE 12.0 mph19.3 kmh 30.06 in1017.9 mb 0.00 in0.0 mm 0.00 in/hr0.0 mm/hr 0.00 in0.0 mm
09:44 AM 66.0°F18.9°C 46.9°F8.3°C 50% 4.0 mph NE6.4 kmh NE 12.0 mph19.3 kmh 30.06 in1017.9 mb 0.00 in0.0 mm 0.00 in/hr0.0 mm/hr 0.00 in0.0 mm
09:45 AM 66.1°F18.9°C 46.9°F8.3°C 50% 8.0 mph NNW12.9 kmh NNW 12.0 mph19.3 kmh 30.06 in1017.9 mb 0.00 in0.0 mm 0.00 in/hr0.0 mm/hr 0.00 in0.0 mm
09:48 AM 66.2°F19.0°C 47.6°F8.7°C 51% 12.0 mph NNE19.3 kmh NNE 12.0 mph19.3 kmh 30.06 in1017.9 mb 0.00 in0.0 mm 0.00 in/hr0.0 mm/hr 0.00 in0.0 mm
09:49 AM 66.2°F19.0°C 47.6°F8.7°C 51% 8.0 mph NNE12.9 kmh NNE 12.0 mph19.3 kmh 30.06 in1017.9 mb 0.00 in0.0 mm 0.00 in/hr0.0 mm/hr 0.00 in0.0 mm
09:50 AM 66.1°F18.9°C 46.4°F8.0°C 49% 5.0 mph N8.0 kmh N 12.0 mph19.3 kmh 30.06 in1017.9 mb 0.00 in0.0 mm 0.00 in/hr0.0 mm/hr 0.00 in0.0 mm
09:53 AM 66.3°F19.1°C 45.5°F7.5°C 47% 2.0 mph N3.2 kmh N 12.0 mph19.3 kmh 30.06 in1017.9 mb 0.00 in0.0 mm 0.00 in/hr0.0 mm/hr 0.00 in0.0 mm
09:54 AM 66.4°F19.1°C 46.1°F7.8°C 48% 10.0 mph N16.1 kmh N 12.0 mph19.3 kmh 30.06 in1017.9 mb 0.00 in0.0 mm 0.00 in/hr0.0 mm/hr 0.00 in0.0 mm
09:55 AM 66.4°F19.1°C 46.1°F7.8°C 48% 2.0 mph N3.2 kmh N 12.0 mph19.3 kmh 30.06 in1017.9 mb 0.00 in0.0 mm 0.00 in/hr0.0 mm/hr 0.00 in0.0 mm
09:58 AM 66.5°F19.2°C 46.8°F8.2°C 49% 3.0 mph E4.8 kmh E 12.0 mph19.3 kmh 30.06 in1017.9 mb 0.00 in0.0 mm 0.00 in/hr0.0 mm/hr 0.00 in0.0 mm
09:59 AM 66.6°F19.2°C 47.4°F8.6°C 50% 8.0 mph NE12.9 kmh NE 12.0 mph19.3 kmh 30.06 in1017.9 mb 0.00 in0.0 mm 0.00 in/hr0.0 mm/hr 0.00 in0.0 mm
10:00 AM 66.6°F19.2°C 46.3°F7.9°C 48% 8.0 mph NE12.9 kmh NE 10.0 mph16.1 kmh 30.06 in1017.9 mb 0.00 in0.0 mm 0.00 in/hr0.0 mm/hr 0.00 in0.0 mm
10:03 AM 66.6°F19.2°C 45.2°F7.3°C 46% 5.0 mph ENE8.0 kmh ENE 10.0 mph16.1 kmh 30.06 in1017.9 mb 0.00 in0.0 mm 0.00 in/hr0.0 mm/hr 0.00 in0.0 mm
10:04 AM 66.7°F19.3°C 45.3°F7.4°C 46% 3.0 mph ENE4.8 kmh ENE 11.0 mph17.7 kmh 30.06 in1017.9 mb 0.00 in0.0 mm 0.00 in/hr0.0 mm/hr 0.00 in0.0 mm
10:05 AM 66.7°F19.3°C 45.3°F7.4°C 46% 8.0 mph NE12.9 kmh NE 11.0 mph17.7 kmh 30.06 in1017.9 mb 0.00 in0.0 mm 0.00 in/hr0.0 mm/hr 0.00 in0.0 mm
10:08 AM 67.0°F19.4°C 45.0°F7.2°C 45% 5.0 mph NE8.0 kmh NE 17.0 mph27.4 kmh 30.06 in1017.9 mb 0.00 in0.0 mm 0.00 in/hr0.0 mm/hr 0.00 in0.0 mm
10:09 AM 67.1°F19.5°C 45.1°F7.3°C 45% 5.0 mph NE8.0 kmh NE 17.0 mph27.4 kmh 30.06 in1017.9 mb 0.00 in0.0 mm 0.00 in/hr0.0 mm/hr 0.00 in0.0 mm
10:10 AM 67.1°F19.5°C 45.1°F7.3°C 45% 6.0 mph NE9.7 kmh NE 17.0 mph27.4 kmh 30.06 in1017.9 mb 0.00 in0.0 mm 0.00 in/hr0.0 mm/hr 0.00 in0.0 mm
10:13 AM 67.0°F19.4°C 46.1°F7.8°C 47% 3.0 mph NNE4.8 kmh NNE 17.0 mph27.4 kmh 30.06 in1017.9 mb 0.00 in0.0 mm 0.00 in/hr0.0 mm/hr 0.00 in0.0 mm
10:14 AM 66.9°F19.4°C 46.0°F7.8°C 47% 6.0 mph NNE9.7 kmh NNE 17.0 mph27.4 kmh 30.06 in1017.9 mb 0.00 in0.0 mm 0.00 in/hr0.0 mm/hr 0.00 in0.0 mm
10:15 AM 66.8°F19.3°C 45.9°F7.7°C 47% 3.0 mph N4.8 kmh N 17.0 mph27.4 kmh 30.06 in1017.9 mb 0.00 in0.0 mm 0.00 in/hr0.0 mm/hr 0.00 in0.0 mm
10:18 AM 66.7°F19.3°C 45.9°F7.7°C 47% 2.0 mph NNE3.2 kmh NNE 17.0 mph27.4 kmh 30.06 in1017.9 mb 0.00 in0.0 mm 0.00 in/hr0.0 mm/hr 0.00 in0.0 mm
10:19 AM 66.8°F19.3°C 46.5°F8.1°C 48% 2.0 mph N3.2 kmh N 17.0 mph27.4 kmh 30.06 in1017.9 mb 0.00 in0.0 mm 0.00 in/hr0.0 mm/hr 0.00 in0.0 mm
10:20 AM 66.8°F19.3°C 46.5°F8.1°C 48% 1.0 mph NNE1.6 kmh NNE 17.0 mph27.4 kmh 30.06 in1017.9 mb 0.00 in0.0 mm 0.00 in/hr0.0 mm/hr 0.00 in0.0 mm
10:23 AM 66.9°F19.4°C 47.1°F8.4°C 49% 3.0 mph NNE4.8 kmh NNE 17.0 mph27.4 kmh 30.06 in1017.9 mb 0.00 in0.0 mm 0.00 in/hr0.0 mm/hr 0.00 in0.0 mm
10:24 AM 66.9°F19.4°C 47.1°F8.4°C 49% 1.0 mph N1.6 kmh N 17.0 mph27.4 kmh 30.06 in1017.9 mb 0.00 in0.0 mm 0.00 in/hr0.0 mm/hr 0.00 in0.0 mm
10:25 AM 67.0°F19.4°C 47.2°F8.4°C 49% 2.0 mph N3.2 kmh N 17.0 mph27.4 kmh 30.06 in1017.9 mb 0.00 in0.0 mm 0.00 in/hr0.0 mm/hr 0.00 in0.0 mm
10:28 AM 67.2°F19.6°C 46.9°F8.3°C 48% 9.0 mph N14.5 kmh N 17.0 mph27.4 kmh 30.06 in1017.9 mb 0.00 in0.0 mm 0.00 in/hr0.0 mm/hr 0.00 in0.0 mm
10:29 AM 67.2°F19.6°C 46.3°F7.9°C 47% 10.0 mph NNE16.1 kmh NNE 17.0 mph27.4 kmh 30.06 in1017.9 mb 0.00 in0.0 mm 0.00 in/hr0.0 mm/hr 0.00 in0.0 mm
10:30 AM 67.1°F19.5°C 46.2°F7.9°C 47% 6.0 mph NE9.7 kmh NE 17.0 mph27.4 kmh 30.06 in1017.9 mb 0.00 in0.0 mm 0.00 in/hr0.0 mm/hr 0.00 in0.0 mm
10:33 AM 67.2°F19.6°C 46.9°F8.3°C 48% 2.0 mph NE3.2 kmh NE 17.0 mph27.4 kmh 30.06 in1017.9 mb 0.00 in0.0 mm 0.00 in/hr0.0 mm/hr 0.00 in0.0 mm
10:34 AM 67.3°F19.6°C 47.0°F8.3°C 48% 2.0 mph NE3.2 kmh NE 17.0 mph27.4 kmh 30.06 in1017.9 mb 0.00 in0.0 mm 0.00 in/hr0.0 mm/hr 0.00 in0.0 mm
10:35 AM 67.4°F19.7°C 47.1°F8.4°C 48% 9.0 mph NE14.5 kmh NE 17.0 mph27.4 kmh 30.06 in1017.9 mb 0.00 in0.0 mm 0.00 in/hr0.0 mm/hr 0.00 in0.0 mm
10:38 AM 67.5°F19.7°C 47.1°F8.4°C 48% 5.0 mph NE8.0 kmh NE 17.0 mph27.4 kmh 30.06 in1017.9 mb 0.00 in0.0 mm 0.00 in/hr0.0 mm/hr 0.00 in0.0 mm
10:39 AM 67.6°F19.8°C 47.2°F8.4°C 48% 3.0 mph NE4.8 kmh NE 17.0 mph27.4 kmh 30.06 in1017.9 mb 0.00 in0.0 mm 0.00 in/hr0.0 mm/hr 0.00 in0.0 mm
10:40 AM 67.6°F19.8°C 47.2°F8.4°C 48% 4.0 mph NE6.4 kmh NE 17.0 mph27.4 kmh 30.07 in1018.3 mb 0.00 in0.0 mm 0.00 in/hr0.0 mm/hr 0.00 in0.0 mm
10:43 AM 67.7°F19.8°C 46.8°F8.2°C 47% 8.0 mph NE12.9 kmh NE 17.0 mph27.4 kmh 30.06 in1017.9 mb 0.00 in0.0 mm 0.00 in/hr0.0 mm/hr 0.00 in0.0 mm
10:44 AM 67.7°F19.8°C 46.8°F8.2°C 47% 6.0 mph NE9.7 kmh NE 17.0 mph27.4 kmh 30.07 in1018.3 mb 0.00 in0.0 mm 0.00 in/hr0.0 mm/hr 0.00 in0.0 mm
10:45 AM 67.7°F19.8°C 46.8°F8.2°C 47% 10.0 mph NE16.1 kmh NE 17.0 mph27.4 kmh 30.06 in1017.9 mb 0.00 in0.0 mm 0.00 in/hr0.0 mm/hr 0.00 in0.0 mm
10:48 AM 67.8°F19.9°C 46.9°F8.3°C 47% 2.0 mph NE3.2 kmh NE 17.0 mph27.4 kmh 30.07 in1018.3 mb 0.00 in0.0 mm 0.00 in/hr0.0 mm/hr 0.00 in0.0 mm
10:49 AM 67.7°F19.8°C 47.3°F8.5°C 48% 3.0 mph NE4.8 kmh NE 17.0 mph27.4 kmh 30.07 in1018.3 mb 0.00 in0.0 mm 0.00 in/hr0.0 mm/hr 0.00 in0.0 mm
10:50 AM 67.8°F19.9°C 47.4°F8.6°C 48% 2.0 mph NE3.2 kmh NE 17.0 mph27.4 kmh 30.06 in1017.9 mb 0.00 in0.0 mm 0.00 in/hr0.0 mm/hr 0.00 in0.0 mm
10:53 AM 68.0°F20.0°C 47.6°F8.7°C 48% 5.0 mph NE8.0 kmh NE 17.0 mph27.4 kmh 30.06 in1017.9 mb 0.00 in0.0 mm 0.00 in/hr0.0 mm/hr 0.00 in0.0 mm
10:54 AM 68.1°F20.1°C 48.2°F9.0°C 49% 6.0 mph NE9.7 kmh NE 17.0 mph27.4 kmh 30.07 in1018.3 mb 0.00 in0.0 mm 0.00 in/hr0.0 mm/hr 0.00 in0.0 mm
10:55 AM 68.2°F20.1°C 47.8°F8.8°C 48% 3.0 mph NE4.8 kmh NE 17.0 mph27.4 kmh 30.06 in1017.9 mb 0.00 in0.0 mm 0.00 in/hr0.0 mm/hr 0.00 in0.0 mm
10:58 AM 68.3°F20.2°C 47.9°F8.8°C 48% 5.0 mph NE8.0 kmh NE 17.0 mph27.4 kmh 30.06 in1017.9 mb 0.00 in0.0 mm 0.00 in/hr0.0 mm/hr 0.00 in0.0 mm
10:59 AM 68.2°F20.1°C 47.8°F8.8°C 48% 6.0 mph NE9.7 kmh NE 17.0 mph27.4 kmh 30.07 in1018.3 mb 0.00 in0.0 mm 0.00 in/hr0.0 mm/hr 0.00 in0.0 mm
11:00 AM 68.2°F20.1°C 47.8°F8.8°C 48% 5.0 mph NNW8.0 kmh NNW 7.0 mph11.3 kmh 30.07 in1018.3 mb 0.00 in0.0 mm 0.00 in/hr0.0 mm/hr 0.00 in0.0 mm
11:03 AM 67.9°F19.9°C 47.5°F8.6°C 48% 2.0 mph N3.2 kmh N 10.0 mph16.1 kmh 30.07 in1018.3 mb 0.00 in0.0 mm 0.00 in/hr0.0 mm/hr 0.00 in0.0 mm
11:04 AM 67.9°F19.9°C 47.5°F8.6°C 48% 3.0 mph N4.8 kmh N 10.0 mph16.1 kmh 30.07 in1018.3 mb 0.00 in0.0 mm 0.00 in/hr0.0 mm/hr 0.00 in0.0 mm
11:05 AM 68.0°F20.0°C 47.6°F8.7°C 48% 3.0 mph NNW4.8 kmh NNW 10.0 mph16.1 kmh 30.07 in1018.3 mb 0.00 in0.0 mm 0.00 in/hr0.0 mm/hr 0.00 in0.0 mm
11:08 AM 67.7°F19.8°C 47.3°F8.5°C 48% 4.0 mph N6.4 kmh N 10.0 mph16.1 kmh 30.07 in1018.3 mb 0.00 in0.0 mm 0.00 in/hr0.0 mm/hr 0.00 in0.0 mm
11:09 AM 67.6°F19.8°C 47.8°F8.8°C 49% 2.0 mph N3.2 kmh N 10.0 mph16.1 kmh 30.06 in1017.9 mb 0.00 in0.0 mm 0.00 in/hr0.0 mm/hr 0.00 in0.0 mm
11:10 AM 67.6°F19.8°C 47.8°F8.8°C 49% 4.0 mph N6.4 kmh N 10.0 mph16.1 kmh 30.07 in1018.3 mb 0.00 in0.0 mm 0.00 in/hr0.0 mm/hr 0.00 in0.0 mm
11:13 AM 68.0°F20.0°C 47.6°F8.7°C 48% 2.0 mph NE3.2 kmh NE 12.0 mph19.3 kmh 30.06 in1017.9 mb 0.00 in0.0 mm 0.00 in/hr0.0 mm/hr 0.00 in0.0 mm
11:14 AM 68.2°F20.1°C 47.2°F8.4°C 47% 7.0 mph NE11.3 kmh NE 12.0 mph19.3 kmh 30.07 in1018.3 mb 0.00 in0.0 mm 0.00 in/hr0.0 mm/hr 0.00 in0.0 mm
11:15 AM 68.1°F20.1°C 47.7°F8.7°C 48% 7.0 mph NNE11.3 kmh NNE 12.0 mph19.3 kmh 30.06 in1017.9 mb 0.00 in0.0 mm 0.00 in/hr0.0 mm/hr 0.00 in0.0 mm
11:18 AM 68.4°F20.2°C 48.0°F8.9°C 48% 3.0 mph N4.8 kmh N 12.0 mph19.3 kmh 30.07 in1018.3 mb 0.00 in0.0 mm 0.00 in/hr0.0 mm/hr 0.00 in0.0 mm
11:19 AM 68.4°F20.2°C 47.4°F8.6°C 47% 5.0 mph NNE8.0 kmh NNE 12.0 mph19.3 kmh 30.06 in1017.9 mb 0.00 in0.0 mm 0.00 in/hr0.0 mm/hr 0.00 in0.0 mm
11:20 AM 68.2°F20.1°C 47.8°F8.8°C 48% 1.0 mph NNE1.6 kmh NNE 12.0 mph19.3 kmh 30.06 in1017.9 mb 0.00 in0.0 mm 0.00 in/hr0.0 mm/hr 0.00 in0.0 mm
11:23 AM 68.5°F20.3°C 48.1°F8.9°C 48% 2.0 mph NNE3.2 kmh NNE 12.0 mph19.3 kmh 30.06 in1017.9 mb 0.00 in0.0 mm 0.00 in/hr0.0 mm/hr 0.00 in0.0 mm
11:24 AM 68.7°F20.4°C 48.2°F9.0°C 48% 3.0 mph NNE4.8 kmh NNE 12.0 mph19.3 kmh 30.06 in1017.9 mb 0.00 in0.0 mm 0.00 in/hr0.0 mm/hr 0.00 in0.0 mm
11:25 AM 68.9°F20.5°C 48.4°F9.1°C 48% Calm Calm 12.0 mph19.3 kmh 30.06 in1017.9 mb 0.00 in0.0 mm 0.00 in/hr0.0 mm/hr 0.00 in0.0 mm
11:28 AM 69.5°F20.8°C 47.8°F8.8°C 46% 8.0 mph N12.9 kmh N 12.0 mph19.3 kmh 30.06 in1017.9 mb 0.00 in0.0 mm 0.00 in/hr0.0 mm/hr 0.00 in0.0 mm
11:29 AM 69.3°F20.7°C 47.1°F8.4°C 45% 5.0 mph NNE8.0 kmh NNE 12.0 mph19.3 kmh 30.06 in1017.9 mb 0.00 in0.0 mm 0.00 in/hr0.0 mm/hr 0.00 in0.0 mm
11:30 AM 69.1°F20.6°C 46.9°F8.3°C 45% 1.0 mph NNE1.6 kmh NNE 12.0 mph19.3 kmh 30.06 in1017.9 mb 0.00 in0.0 mm 0.00 in/hr0.0 mm/hr 0.00 in0.0 mm
11:33 AM 69.4°F20.8°C 47.7°F8.7°C 46% 6.0 mph NNE9.7 kmh NNE 12.0 mph19.3 kmh 30.06 in1017.9 mb 0.00 in0.0 mm 0.00 in/hr0.0 mm/hr 0.00 in0.0 mm
11:34 AM 69.5°F20.8°C 47.3°F8.5°C 45% 5.0 mph NNW8.0 kmh NNW 12.0 mph19.3 kmh 30.06 in1017.9 mb 0.00 in0.0 mm 0.00 in/hr0.0 mm/hr 0.00 in0.0 mm
11:35 AM 69.5°F20.8°C 47.3°F8.5°C 45% 4.0 mph N6.4 kmh N 12.0 mph19.3 kmh 30.06 in1017.9 mb 0.00 in0.0 mm 0.00 in/hr0.0 mm/hr 0.00 in0.0 mm
11:38 AM 69.6°F20.9°C 47.3°F8.5°C 45% 4.0 mph NNE6.4 kmh NNE 12.0 mph19.3 kmh 30.07 in1018.3 mb 0.00 in0.0 mm 0.00 in/hr0.0 mm/hr 0.00 in0.0 mm
11:39 AM 69.6°F20.9°C 47.3°F8.5°C 45% 5.0 mph NNE8.0 kmh NNE 12.0 mph19.3 kmh 30.07 in1018.3 mb 0.00 in0.0 mm 0.00 in/hr0.0 mm/hr 0.00 in0.0 mm
11:40 AM 69.6°F20.9°C 47.3°F8.5°C 45% 6.0 mph NNE9.7 kmh NNE 12.0 mph19.3 kmh 30.07 in1018.3 mb 0.00 in0.0 mm 0.00 in/hr0.0 mm/hr 0.00 in0.0 mm
11:43 AM 70.0°F21.1°C 48.3°F9.1°C 46% Calm Calm 12.0 mph19.3 kmh 30.06 in1017.9 mb 0.00 in0.0 mm 0.00 in/hr0.0 mm/hr 0.00 in0.0 mm
11:44 AM 70.3°F21.3°C 48.0°F8.9°C 45% Calm Calm 12.0 mph19.3 kmh 30.06 in1017.9 mb 0.00 in0.0 mm 0.00 in/hr0.0 mm/hr 0.00 in0.0 mm
11:45 AM 70.7°F21.5°C 48.3°F9.1°C 45% 3.0 mph NNE4.8 kmh NNE 12.0 mph19.3 kmh 30.06 in1017.9 mb 0.00 in0.0 mm 0.00 in/hr0.0 mm/hr 0.00 in0.0 mm
11:48 AM 70.7°F21.5°C 47.1°F8.4°C 43% 6.0 mph NE9.7 kmh NE 12.0 mph19.3 kmh 30.06 in1017.9 mb 0.00 in0.0 mm 0.00 in/hr0.0 mm/hr 0.00 in0.0 mm
11:49 AM 70.5°F21.4°C 47.0°F8.3°C 43% 3.0 mph NNE4.8 kmh NNE 12.0 mph19.3 kmh 30.06 in1017.9 mb 0.00 in0.0 mm 0.00 in/hr0.0 mm/hr 0.00 in0.0 mm
11:50 AM 70.3°F21.3°C 46.8°F8.2°C 43% 5.0 mph NNE8.0 kmh NNE 12.0 mph19.3 kmh 30.06 in1017.9 mb 0.00 in0.0 mm 0.00 in/hr0.0 mm/hr 0.00 in0.0 mm
11:53 AM 70.4°F21.3°C 47.5°F8.6°C 44% 2.0 mph N3.2 kmh N 12.0 mph19.3 kmh 30.06 in1017.9 mb 0.00 in0.0 mm 0.00 in/hr0.0 mm/hr 0.00 in0.0 mm
11:54 AM 70.7°F21.5°C 47.7°F8.7°C 44% 6.0 mph NNE9.7 kmh NNE 12.0 mph19.3 kmh 30.06 in1017.9 mb 0.00 in0.0 mm 0.00 in/hr0.0 mm/hr 0.00 in0.0 mm
11:55 AM 70.9°F21.6°C 47.3°F8.5°C 43% 4.0 mph NNE6.4 kmh NNE 12.0 mph19.3 kmh 30.06 in1017.9 mb 0.00 in0.0 mm 0.00 in/hr0.0 mm/hr 0.00 in0.0 mm
11:58 AM 71.3°F21.8°C 47.1°F8.4°C 42% 4.0 mph NNE6.4 kmh NNE 12.0 mph19.3 kmh 30.06 in1017.9 mb 0.00 in0.0 mm 0.00 in/hr0.0 mm/hr 0.00 in0.0 mm
11:59 AM 71.3°F21.8°C 47.1°F8.4°C 42% 5.0 mph NNE8.0 kmh NNE 12.0 mph19.3 kmh 30.06 in1017.9 mb 0.00 in0.0 mm 0.00 in/hr0.0 mm/hr 0.00 in0.0 mm
12:00 PM 71.2°F21.8°C 47.6°F8.7°C 43% 4.0 mph NE6.4 kmh NE 5.0 mph8.0 kmh 30.06 in1017.9 mb 0.00 in0.0 mm 0.00 in/hr0.0 mm/hr 0.00 in0.0 mm
12:03 PM 71.3°F21.8°C 47.7°F8.7°C 43% 7.0 mph ENE11.3 kmh ENE 10.0 mph16.1 kmh 30.06 in1017.9 mb 0.00 in0.0 mm 0.00 in/hr0.0 mm/hr 0.00 in0.0 mm
12:04 PM 71.4°F21.9°C 47.1°F8.4°C 42% 8.0 mph NE12.9 kmh NE 11.0 mph17.7 kmh 30.06 in1017.9 mb 0.00 in0.0 mm 0.00 in/hr0.0 mm/hr 0.00 in0.0 mm
12:05 PM 71.4°F21.9°C 47.1°F8.4°C 42% 4.0 mph NE6.4 kmh NE 11.0 mph17.7 kmh 30.06 in1017.9 mb 0.00 in0.0 mm 0.00 in/hr0.0 mm/hr 0.00 in0.0 mm
12:08 PM 71.8°F22.1°C 47.5°F8.6°C 42% 3.0 mph NE4.8 kmh NE 11.0 mph17.7 kmh 30.06 in1017.9 mb 0.00 in0.0 mm 0.00 in/hr0.0 mm/hr 0.00 in0.0 mm
12:09 PM 71.8°F22.1°C 47.5°F8.6°C 42% 3.0 mph NE4.8 kmh NE 11.0 mph17.7 kmh 30.06 in1017.9 mb 0.00 in0.0 mm 0.00 in/hr0.0 mm/hr 0.00 in0.0 mm
12:10 PM 71.7°F22.1°C 47.4°F8.6°C 42% 5.0 mph NE8.0 kmh NE 11.0 mph17.7 kmh 30.06 in1017.9 mb 0.00 in0.0 mm 0.00 in/hr0.0 mm/hr 0.00 in0.0 mm
12:13 PM 71.8°F22.1°C 47.5°F8.6°C 42% 3.0 mph NE4.8 kmh NE 11.0 mph17.7 kmh 30.06 in1017.9 mb 0.00 in0.0 mm 0.00 in/hr0.0 mm/hr 0.00 in0.0 mm
12:14 PM 71.8°F22.1°C 47.5°F8.6°C 42% 3.0 mph NE4.8 kmh NE 11.0 mph17.7 kmh 30.06 in1017.9 mb 0.00 in0.0 mm 0.00 in/hr0.0 mm/hr 0.00 in0.0 mm
12:15 PM 71.8°F22.1°C 47.5°F8.6°C 42% 7.0 mph NE11.3 kmh NE 11.0 mph17.7 kmh 30.06 in1017.9 mb 0.00 in0.0 mm 0.00 in/hr0.0 mm/hr 0.00 in0.0 mm
12:18 PM 71.1°F21.7°C 47.5°F8.6°C 43% 11.0 mph N17.7 kmh N 13.0 mph20.9 kmh 30.06 in1017.9 mb 0.00 in0.0 mm 0.00 in/hr0.0 mm/hr 0.00 in0.0 mm
12:19 PM 70.8°F21.6°C 47.8°F8.8°C 44% 9.0 mph N14.5 kmh N 13.0 mph20.9 kmh 30.06 in1017.9 mb 0.00 in0.0 mm 0.00 in/hr0.0 mm/hr 0.00 in0.0 mm
12:20 PM 70.5°F21.4°C 47.6°F8.7°C 44% 7.0 mph NNE11.3 kmh NNE 13.0 mph20.9 kmh 30.06 in1017.9 mb 0.00 in0.0 mm 0.00 in/hr0.0 mm/hr 0.00 in0.0 mm
12:23 PM 70.0°F21.1°C 47.7°F8.7°C 45% 4.0 mph N6.4 kmh N 13.0 mph20.9 kmh 30.06 in1017.9 mb 0.00 in0.0 mm 0.00 in/hr0.0 mm/hr 0.00 in0.0 mm
12:24 PM 69.8°F21.0°C 47.5°F8.6°C 45% 7.0 mph NW11.3 kmh NW 13.0 mph20.9 kmh 30.06 in1017.9 mb 0.00 in0.0 mm 0.00 in/hr0.0 mm/hr 0.00 in0.0 mm
12:25 PM 69.9°F21.1°C 47.6°F8.7°C 45% 5.0 mph NW8.0 kmh NW 13.0 mph20.9 kmh 30.06 in1017.9 mb 0.00 in0.0 mm 0.00 in/hr0.0 mm/hr 0.00 in0.0 mm
12:28 PM 70.2°F21.2°C 47.9°F8.8°C 45% 7.0 mph N11.3 kmh N 13.0 mph20.9 kmh 30.06 in1017.9 mb 0.00 in0.0 mm 0.00 in/hr0.0 mm/hr 0.00 in0.0 mm
12:29 PM 70.4°F21.3°C 48.1°F8.9°C 45% 7.0 mph N11.3 kmh N 13.0 mph20.9 kmh 30.06 in1017.9 mb 0.00 in0.0 mm 0.00 in/hr0.0 mm/hr 0.00 in0.0 mm
12:30 PM 70.6°F21.4°C 48.3°F9.1°C 45% 2.0 mph NNE3.2 kmh NNE 13.0 mph20.9 kmh 30.06 in1017.9 mb 0.00 in0.0 mm 0.00 in/hr0.0 mm/hr 0.00 in0.0 mm
12:33 PM 71.0°F21.7°C 47.4°F8.6°C 43% 4.0 mph NE6.4 kmh NE 13.0 mph20.9 kmh 30.06 in1017.9 mb 0.00 in0.0 mm 0.00 in/hr0.0 mm/hr 0.00 in0.0 mm
12:34 PM 71.2°F21.8°C 47.6°F8.7°C 43% 2.0 mph NE3.2 kmh NE 13.0 mph20.9 kmh 30.05 in1017.6 mb 0.00 in0.0 mm 0.00 in/hr0.0 mm/hr 0.00 in0.0 mm
12:35 PM 71.4°F21.9°C 47.8°F8.8°C 43% 2.0 mph NE3.2 kmh NE 13.0 mph20.9 kmh 30.05 in1017.6 mb 0.00 in0.0 mm 0.00 in/hr0.0 mm/hr 0.00 in0.0 mm
12:38 PM 71.6°F22.0°C 47.9°F8.8°C 43% 2.0 mph NE3.2 kmh NE 13.0 mph20.9 kmh 30.05 in1017.6 mb 0.00 in0.0 mm 0.00 in/hr0.0 mm/hr 0.00 in0.0 mm
12:39 PM 71.9°F22.2°C 48.2°F9.0°C 43% 5.0 mph NNE8.0 kmh NNE 13.0 mph20.9 kmh 30.05 in1017.6 mb 0.00 in0.0 mm 0.00 in/hr0.0 mm/hr 0.00 in0.0 mm
12:40 PM 72.2°F22.3°C 47.9°F8.8°C 42% 3.0 mph NNE4.8 kmh NNE 13.0 mph20.9 kmh 30.06 in1017.9 mb 0.00 in0.0 mm 0.00 in/hr0.0 mm/hr 0.00 in0.0 mm
12:43 PM 72.3°F22.4°C 47.3°F8.5°C 41% 3.0 mph NNE4.8 kmh NNE 13.0 mph20.9 kmh 30.05 in1017.6 mb 0.00 in0.0 mm 0.00 in/hr0.0 mm/hr 0.00 in0.0 mm
12:44 PM 72.1°F22.3°C 47.8°F8.8°C 42% 3.0 mph NNE4.8 kmh NNE 13.0 mph20.9 kmh 30.05 in1017.6 mb 0.00 in0.0 mm 0.00 in/hr0.0 mm/hr 0.00 in0.0 mm
12:45 PM 71.9°F22.2°C 47.6°F8.7°C 42% 1.0 mph NNE1.6 kmh NNE 13.0 mph20.9 kmh 30.05 in1017.6 mb 0.00 in0.0 mm 0.00 in/hr0.0 mm/hr 0.00 in0.0 mm
12:48 PM 72.1°F22.3°C 50.2°F10.1°C 46% 4.0 mph N6.4 kmh N 13.0 mph20.9 kmh 30.05 in1017.6 mb 0.00 in0.0 mm 0.00 in/hr0.0 mm/hr 0.00 in0.0 mm
12:49 PM 72.1°F22.3°C 50.8°F10.4°C 47% 5.0 mph ENE8.0 kmh ENE 13.0 mph20.9 kmh 30.05 in1017.6 mb 0.00 in0.0 mm 0.00 in/hr0.0 mm/hr 0.00 in0.0 mm
12:50 PM 72.2°F22.3°C 52.0°F11.1°C 49% Calm Calm 13.0 mph20.9 kmh 30.05 in1017.6 mb 0.00 in0.0 mm 0.00 in/hr0.0 mm/hr 0.00 in0.0 mm
12:53 PM 72.3°F22.4°C 53.2°F11.8°C 51% Calm Calm 13.0 mph20.9 kmh 30.06 in1017.9 mb 0.00 in0.0 mm 0.00 in/hr0.0 mm/hr 0.00 in0.0 mm
12:54 PM 72.4°F22.4°C 52.7°F11.5°C 50% 1.0 mph E1.6 kmh E 13.0 mph20.9 kmh 30.06 in1017.9 mb 0.00 in0.0 mm 0.00 in/hr0.0 mm/hr 0.00 in0.0 mm
12:55 PM 72.4°F22.4°C 52.2°F11.2°C 49% 1.0 mph E1.6 kmh E 13.0 mph20.9 kmh 30.05 in1017.6 mb 0.00 in0.0 mm 0.00 in/hr0.0 mm/hr 0.00 in0.0 mm
12:58 PM 72.4°F22.4°C 51.6°F10.9°C 48% 8.0 mph S12.9 kmh S 13.0 mph20.9 kmh 30.05 in1017.6 mb 0.00 in0.0 mm 0.00 in/hr0.0 mm/hr 0.00 in0.0 mm
12:59 PM 72.1°F22.3°C 51.4°F10.8°C 48% 5.0 mph S8.0 kmh S 13.0 mph20.9 kmh 30.05 in1017.6 mb 0.00 in0.0 mm 0.00 in/hr0.0 mm/hr 0.00 in0.0 mm
01:00 PM 71.9°F22.2°C 51.7°F10.9°C 49% 5.0 mph S8.0 kmh S 6.0 mph9.7 kmh 30.05 in1017.6 mb 0.00 in0.0 mm 0.00 in/hr0.0 mm/hr 0.00 in0.0 mm
01:03 PM 71.4°F21.9°C 51.3°F10.7°C 49% 4.0 mph S6.4 kmh S 8.0 mph12.9 kmh 30.05 in1017.6 mb 0.00 in0.0 mm 0.00 in/hr0.0 mm/hr 0.00 in0.0 mm
01:04 PM 71.5°F21.9°C 51.4°F10.8°C 49% 9.0 mph S14.5 kmh S 10.0 mph16.1 kmh 30.05 in1017.6 mb 0.00 in0.0 mm 0.00 in/hr0.0 mm/hr 0.00 in0.0 mm
01:05 PM 71.4°F21.9°C 51.3°F10.7°C 49% 7.0 mph S11.3 kmh S 10.0 mph16.1 kmh 30.05 in1017.6 mb 0.00 in0.0 mm 0.00 in/hr0.0 mm/hr 0.00 in0.0 mm
01:08 PM 71.2°F21.8°C 51.6°F10.9°C 50% 5.0 mph S8.0 kmh S 10.0 mph16.1 kmh 30.05 in1017.6 mb 0.00 in0.0 mm 0.00 in/hr0.0 mm/hr 0.00 in0.0 mm
01:09 PM 71.2°F21.8°C 51.6°F10.9°C 50% 4.0 mph S6.4 kmh S 10.0 mph16.1 kmh 30.05 in1017.6 mb 0.00 in0.0 mm 0.00 in/hr0.0 mm/hr 0.00 in0.0 mm
01:10 PM 71.3°F21.8°C 52.3°F11.3°C 51% 7.0 mph SSE11.3 kmh SSE 12.0 mph19.3 kmh 30.05 in1017.6 mb 0.00 in0.0 mm 0.00 in/hr0.0 mm/hr 0.00 in0.0 mm
01:13 PM 71.3°F21.8°C 51.2°F10.7°C 49% 5.0 mph SSE8.0 kmh SSE 12.0 mph19.3 kmh 30.05 in1017.6 mb 0.00 in0.0 mm 0.00 in/hr0.0 mm/hr 0.00 in0.0 mm
01:14 PM 71.4°F21.9°C 51.3°F10.7°C 49% 5.0 mph SSE8.0 kmh SSE 12.0 mph19.3 kmh 30.05 in1017.6 mb 0.00 in0.0 mm 0.00 in/hr0.0 mm/hr 0.00 in0.0 mm
01:15 PM 71.3°F21.8°C 51.2°F10.7°C 49% 5.0 mph SSE8.0 kmh SSE 12.0 mph19.3 kmh 30.05 in1017.6 mb 0.00 in0.0 mm 0.00 in/hr0.0 mm/hr 0.00 in0.0 mm
01:18 PM 70.9°F21.6°C 49.7°F9.8°C 47% 6.0 mph SE9.7 kmh SE 12.0 mph19.3 kmh 30.05 in1017.6 mb 0.00 in0.0 mm 0.00 in/hr0.0 mm/hr 0.00 in0.0 mm
01:19 PM 70.9°F21.6°C 50.3°F10.2°C 48% 6.0 mph SE9.7 kmh SE 12.0 mph19.3 kmh 30.05 in1017.6 mb 0.00 in0.0 mm 0.00 in/hr0.0 mm/hr 0.00 in0.0 mm
01:20 PM 70.9°F21.6°C 50.8°F10.4°C 49% 4.0 mph SE6.4 kmh SE 12.0 mph19.3 kmh 30.05 in1017.6 mb 0.00 in0.0 mm 0.00 in/hr0.0 mm/hr 0.00 in0.0 mm
01:23 PM 71.1°F21.7°C 53.1°F11.7°C 53% 5.0 mph SSE8.0 kmh SSE 12.0 mph19.3 kmh 30.05 in1017.6 mb 0.00 in0.0 mm 0.00 in/hr0.0 mm/hr 0.00 in0.0 mm
01:24 PM 71.1°F21.7°C 53.1°F11.7°C 53% 2.0 mph SSE3.2 kmh SSE 12.0 mph19.3 kmh 30.05 in1017.6 mb 0.00 in0.0 mm 0.00 in/hr0.0 mm/hr 0.00 in0.0 mm
01:25 PM 71.1°F21.7°C 53.1°F11.7°C 53% 8.0 mph S12.9 kmh S 12.0 mph19.3 kmh 30.05 in1017.6 mb 0.00 in0.0 mm 0.00 in/hr0.0 mm/hr 0.00 in0.0 mm
01:28 PM 70.1°F21.2°C 52.2°F11.2°C 53% 8.0 mph SSW12.9 kmh SSW 12.0 mph19.3 kmh 30.05 in1017.6 mb 0.00 in0.0 mm 0.00 in/hr0.0 mm/hr 0.00 in0.0 mm
01:29 PM 69.9°F21.1°C 53.0°F11.7°C 55% 6.0 mph SSW9.7 kmh SSW 12.0 mph19.3 kmh 30.04 in1017.3 mb 0.00 in0.0 mm 0.00 in/hr0.0 mm/hr 0.00 in0.0 mm
01:30 PM 69.8°F21.0°C 52.9°F11.6°C 55% 7.0 mph SSW11.3 kmh SSW 12.0 mph19.3 kmh 30.04 in1017.3 mb 0.00 in0.0 mm 0.00 in/hr0.0 mm/hr 0.00 in0.0 mm
01:33 PM 69.6°F20.9°C 52.7°F11.5°C 55% 9.0 mph SSW14.5 kmh SSW 12.0 mph19.3 kmh 30.04 in1017.3 mb 0.00 in0.0 mm 0.00 in/hr0.0 mm/hr 0.00 in0.0 mm
01:34 PM 69.4°F20.8°C 53.0°F11.7°C 56% 8.0 mph S12.9 kmh S 12.0 mph19.3 kmh 30.04 in1017.3 mb 0.00 in0.0 mm 0.00 in/hr0.0 mm/hr 0.00 in0.0 mm
01:35 PM 69.4°F20.8°C 52.6°F11.4°C 55% 5.0 mph SSW8.0 kmh SSW 12.0 mph19.3 kmh 30.04 in1017.3 mb 0.00 in0.0 mm 0.00 in/hr0.0 mm/hr 0.00 in0.0 mm
01:38 PM 69.3°F20.7°C 53.0°F11.7°C 56% 6.0 mph S9.7 kmh S 12.0 mph19.3 kmh 30.05 in1017.6 mb 0.00 in0.0 mm 0.00 in/hr0.0 mm/hr 0.00 in0.0 mm
01:39 PM 69.3°F20.7°C 53.0°F11.7°C 56% 5.0 mph SSW8.0 kmh SSW 12.0 mph19.3 kmh 30.04 in1017.3 mb 0.00 in0.0 mm 0.00 in/hr0.0 mm/hr 0.00 in0.0 mm
01:40 PM 69.0°F20.6°C 52.7°F11.5°C 56% 6.0 mph SSW9.7 kmh SSW 12.0 mph19.3 kmh 30.04 in1017.3 mb 0.00 in0.0 mm 0.00 in/hr0.0 mm/hr 0.00 in0.0 mm
01:43 PM 68.9°F20.5°C 53.1°F11.7°C 57% 4.0 mph S6.4 kmh S 12.0 mph19.3 kmh 30.04 in1017.3 mb 0.00 in0.0 mm 0.00 in/hr0.0 mm/hr 0.00 in0.0 mm
01:44 PM 69.2°F20.7°C 53.3°F11.8°C 57% 6.0 mph S9.7 kmh S 12.0 mph19.3 kmh 30.04 in1017.3 mb 0.00 in0.0 mm 0.00 in/hr0.0 mm/hr 0.00 in0.0 mm
01:45 PM 69.5°F20.8°C 53.1°F11.7°C 56% 4.0 mph S6.4 kmh S 12.0 mph19.3 kmh 30.04 in1017.3 mb 0.00 in0.0 mm 0.00 in/hr0.0 mm/hr 0.00 in0.0 mm
01:48 PM 69.9°F21.1°C 53.5°F11.9°C 56% 4.0 mph S6.4 kmh S 12.0 mph19.3 kmh 30.04 in1017.3 mb 0.00 in0.0 mm 0.00 in/hr0.0 mm/hr 0.00 in0.0 mm
01:49 PM 69.8°F21.0°C 53.4°F11.9°C 56% 8.0 mph S12.9 kmh S 12.0 mph19.3 kmh 30.04 in1017.3 mb 0.00 in0.0 mm 0.00 in/hr0.0 mm/hr 0.00 in0.0 mm
01:50 PM 69.8°F21.0°C 52.9°F11.6°C 55% 9.0 mph S14.5 kmh S 12.0 mph19.3 kmh 30.04 in1017.3 mb 0.00 in0.0 mm 0.00 in/hr0.0 mm/hr 0.00 in0.0 mm
01:53 PM 69.8°F21.0°C 53.4°F11.9°C 56% 9.0 mph SSW14.5 kmh SSW 12.0 mph19.3 kmh 30.04 in1017.3 mb 0.00 in0.0 mm 0.00 in/hr0.0 mm/hr 0.00 in0.0 mm
01:54 PM 69.5°F20.8°C 52.6°F11.4°C 55% 5.0 mph SSW8.0 kmh SSW 12.0 mph19.3 kmh 30.04 in1017.3 mb 0.00 in0.0 mm 0.00 in/hr0.0 mm/hr 0.00 in0.0 mm
01:55 PM 69.3°F20.7°C 53.0°F11.7°C 56% 5.0 mph SSW8.0 kmh SSW 12.0 mph19.3 kmh 30.04 in1017.3 mb 0.00 in0.0 mm 0.00 in/hr0.0 mm/hr 0.00 in0.0 mm
01:58 PM 69.3°F20.7°C 53.4°F11.9°C 57% 9.0 mph S14.5 kmh S 13.0 mph20.9 kmh 30.04 in1017.3 mb 0.00 in0.0 mm 0.00 in/hr0.0 mm/hr 0.00 in0.0 mm
01:59 PM 69.2°F20.7°C 52.9°F11.6°C 56% 6.0 mph S9.7 kmh S 13.0 mph20.9 kmh 30.05 in1017.6 mb 0.00 in0.0 mm 0.00 in/hr0.0 mm/hr 0.00 in0.0 mm
02:00 PM 69.3°F20.7°C 53.0°F11.7°C 56% 7.0 mph S11.3 kmh S 7.0 mph11.3 kmh 30.04 in1017.3 mb 0.00 in0.0 mm 0.00 in/hr0.0 mm/hr 0.00 in0.0 mm
02:03 PM 69.2°F20.7°C 52.9°F11.6°C 56% 7.0 mph S11.3 kmh S 11.0 mph17.7 kmh 30.04 in1017.3 mb 0.00 in0.0 mm 0.00 in/hr0.0 mm/hr 0.00 in0.0 mm
02:04 PM 69.2°F20.7°C 53.3°F11.8°C 57% 7.0 mph S11.3 kmh S 11.0 mph17.7 kmh 30.04 in1017.3 mb 0.00 in0.0 mm 0.00 in/hr0.0 mm/hr 0.00 in0.0 mm
02:05 PM 69.0°F20.6°C 53.6°F12.0°C 58% 5.0 mph SSW8.0 kmh SSW 12.0 mph19.3 kmh 30.04 in1017.3 mb 0.00 in0.0 mm 0.00 in/hr0.0 mm/hr 0.00 in0.0 mm
02:08 PM 68.8°F20.4°C 53.4°F11.9°C 58% 7.0 mph SSW11.3 kmh SSW 12.0 mph19.3 kmh 30.04 in1017.3 mb 0.00 in0.0 mm 0.00 in/hr0.0 mm/hr 0.00 in0.0 mm
02:09 PM 68.8°F20.4°C 53.9°F12.2°C 59% 4.0 mph SSW6.4 kmh SSW 12.0 mph19.3 kmh 30.04 in1017.3 mb 0.00 in0.0 mm 0.00 in/hr0.0 mm/hr 0.00 in0.0 mm
02:10 PM 69.0°F20.6°C 54.1°F12.3°C 59% 7.0 mph SSW11.3 kmh SSW 12.0 mph19.3 kmh 30.04 in1017.3 mb 0.00 in0.0 mm 0.00 in/hr0.0 mm/hr 0.00 in0.0 mm
02:13 PM 69.4°F20.8°C 54.5°F12.5°C 59% 8.0 mph S12.9 kmh S 12.0 mph19.3 kmh 30.04 in1017.3 mb 0.00 in0.0 mm 0.00 in/hr0.0 mm/hr 0.00 in0.0 mm
02:14 PM 69.6°F20.9°C 54.7°F12.6°C 59% 6.0 mph S9.7 kmh S 12.0 mph19.3 kmh 30.04 in1017.3 mb 0.00 in0.0 mm 0.00 in/hr0.0 mm/hr 0.00 in0.0 mm
02:15 PM 69.8°F21.0°C 54.4°F12.4°C 58% 8.0 mph S12.9 kmh S 12.0 mph19.3 kmh 30.04 in1017.3 mb 0.00 in0.0 mm 0.00 in/hr0.0 mm/hr 0.00 in0.0 mm
02:18 PM 69.6°F20.9°C 54.7°F12.6°C 59% 6.0 mph SSW9.7 kmh SSW 12.0 mph19.3 kmh 30.04 in1017.3 mb 0.00 in0.0 mm 0.00 in/hr0.0 mm/hr 0.00 in0.0 mm
02:19 PM 69.5°F20.8°C 54.6°F12.6°C 59% 5.0 mph SSW8.0 kmh SSW 12.0 mph19.3 kmh 30.04 in1017.3 mb 0.00 in0.0 mm 0.00 in/hr0.0 mm/hr 0.00 in0.0 mm
02:20 PM 69.4°F20.8°C 54.5°F12.5°C 59% 5.0 mph SSW8.0 kmh SSW 12.0 mph19.3 kmh 30.04 in1017.3 mb 0.00 in0.0 mm 0.00 in/hr0.0 mm/hr 0.00 in0.0 mm
02:23 PM 69.4°F20.8°C 54.5°F12.5°C 59% 4.0 mph S6.4 kmh S 12.0 mph19.3 kmh 30.04 in1017.3 mb 0.00 in0.0 mm 0.00 in/hr0.0 mm/hr 0.00 in0.0 mm
02:24 PM 69.5°F20.8°C 54.6°F12.6°C 59% 4.0 mph S6.4 kmh S 12.0 mph19.3 kmh 30.04 in1017.3 mb 0.00 in0.0 mm 0.00 in/hr0.0 mm/hr 0.00 in0.0 mm
02:25 PM 69.7°F20.9°C 54.8°F12.7°C 59% 7.0 mph SSE11.3 kmh SSE 12.0 mph19.3 kmh 30.04 in1017.3 mb 0.00 in0.0 mm 0.00 in/hr0.0 mm/hr 0.00 in0.0 mm
02:28 PM 70.4°F21.3°C 54.9°F12.7°C 58% 4.0 mph SSE6.4 kmh SSE 12.0 mph19.3 kmh 30.04 in1017.3 mb 0.00 in0.0 mm 0.00 in/hr0.0 mm/hr 0.00 in0.0 mm
02:29 PM 70.7°F21.5°C 54.7°F12.6°C 57% 2.0 mph SSE3.2 kmh SSE 12.0 mph19.3 kmh 30.04 in1017.3 mb 0.00 in0.0 mm 0.00 in/hr0.0 mm/hr 0.00 in0.0 mm
02:30 PM 70.9°F21.6°C 54.4°F12.4°C 56% 7.0 mph SSE11.3 kmh SSE 12.0 mph19.3 kmh 30.04 in1017.3 mb 0.00 in0.0 mm 0.00 in/hr0.0 mm/hr 0.00 in0.0 mm
02:33 PM 71.2°F21.8°C 54.2°F12.3°C 55% 2.0 mph S3.2 kmh S 12.0 mph19.3 kmh 30.04 in1017.3 mb 0.00 in0.0 mm 0.00 in/hr0.0 mm/hr 0.00 in0.0 mm
02:34 PM 71.1°F21.7°C 54.1°F12.3°C 55% 8.0 mph SSW12.9 kmh SSW 12.0 mph19.3 kmh 30.04 in1017.3 mb 0.00 in0.0 mm 0.00 in/hr0.0 mm/hr 0.00 in0.0 mm
02:35 PM 70.8°F21.6°C 54.4°F12.4°C 56% 11.0 mph SSW17.7 kmh SSW 12.0 mph19.3 kmh 30.04 in1017.3 mb 0.00 in0.0 mm 0.00 in/hr0.0 mm/hr 0.00 in0.0 mm
02:38 PM 69.9°F21.1°C 54.0°F12.2°C 57% 1.0 mph S1.6 kmh S 12.0 mph19.3 kmh 30.04 in1017.3 mb 0.00 in0.0 mm 0.00 in/hr0.0 mm/hr 0.00 in0.0 mm
02:39 PM 69.8°F21.0°C 53.9°F12.2°C 57% 4.0 mph S6.4 kmh S 12.0 mph19.3 kmh 30.04 in1017.3 mb 0.00 in0.0 mm 0.00 in/hr0.0 mm/hr 0.00 in0.0 mm
02:40 PM 70.0°F21.1°C 54.1°F12.3°C 57% 6.0 mph S9.7 kmh S 12.0 mph19.3 kmh 30.04 in1017.3 mb 0.00 in0.0 mm 0.00 in/hr0.0 mm/hr 0.00 in0.0 mm
02:43 PM 70.5°F21.4°C 54.1°F12.3°C 56% 5.0 mph S8.0 kmh S 12.0 mph19.3 kmh 30.04 in1017.3 mb 0.00 in0.0 mm 0.00 in/hr0.0 mm/hr 0.00 in0.0 mm
02:44 PM 70.5°F21.4°C 54.1°F12.3°C 56% 2.0 mph S3.2 kmh S 12.0 mph19.3 kmh 30.04 in1017.3 mb 0.00 in0.0 mm 0.00 in/hr0.0 mm/hr 0.00 in0.0 mm
02:45 PM 70.5°F21.4°C 54.1°F12.3°C 56% 7.0 mph S11.3 kmh S 12.0 mph19.3 kmh 30.04 in1017.3 mb 0.00 in0.0 mm 0.00 in/hr0.0 mm/hr 0.00 in0.0 mm
02:48 PM 69.8°F21.0°C 53.9°F12.2°C 57% 3.0 mph S4.8 kmh S 12.0 mph19.3 kmh 30.04 in1017.3 mb 0.00 in0.0 mm 0.00 in/hr0.0 mm/hr 0.00 in0.0 mm
02:49 PM 69.8°F21.0°C 53.9°F12.2°C 57% 8.0 mph S12.9 kmh S 12.0 mph19.3 kmh 30.04 in1017.3 mb 0.00 in0.0 mm 0.00 in/hr0.0 mm/hr 0.00 in0.0 mm
02:50 PM 69.8°F21.0°C 53.9°F12.2°C 57% 8.0 mph S12.9 kmh S 12.0 mph19.3 kmh 30.04 in1017.3 mb 0.00 in0.0 mm 0.00 in/hr0.0 mm/hr 0.00 in0.0 mm
02:53 PM 69.6°F20.9°C 53.7°F12.1°C 57% 6.0 mph S9.7 kmh S 12.0 mph19.3 kmh 30.03 in1016.9 mb 0.00 in0.0 mm 0.00 in/hr0.0 mm/hr 0.00 in0.0 mm
02:54 PM 69.6°F20.9°C 53.7°F12.1°C 57% 7.0 mph S11.3 kmh S 12.0 mph19.3 kmh 30.04 in1017.3 mb 0.00 in0.0 mm 0.00 in/hr0.0 mm/hr 0.00 in0.0 mm
02:55 PM 69.7°F20.9°C 54.3°F12.4°C 58% 6.0 mph S9.7 kmh S 12.0 mph19.3 kmh 30.03 in1016.9 mb 0.00 in0.0 mm 0.00 in/hr0.0 mm/hr 0.00 in0.0 mm
02:58 PM 69.7°F20.9°C 54.3°F12.4°C 58% 10.0 mph S16.1 kmh S 12.0 mph19.3 kmh 30.04 in1017.3 mb 0.00 in0.0 mm 0.00 in/hr0.0 mm/hr 0.00 in0.0 mm
02:59 PM 69.7°F20.9°C 54.3°F12.4°C 58% 2.0 mph S3.2 kmh S 12.0 mph19.3 kmh 30.04 in1017.3 mb 0.00 in0.0 mm 0.00 in/hr0.0 mm/hr 0.00 in0.0 mm
03:00 PM 69.6°F20.9°C 54.2°F12.3°C 58% 8.0 mph S12.9 kmh S 8.0 mph12.9 kmh 30.03 in1016.9 mb 0.00 in0.0 mm 0.00 in/hr0.0 mm/hr 0.00 in0.0 mm
03:03 PM 69.7°F20.9°C 54.8°F12.7°C 59% 8.0 mph S12.9 kmh S 10.0 mph16.1 kmh 30.03 in1016.9 mb 0.00 in0.0 mm 0.00 in/hr0.0 mm/hr 0.00 in0.0 mm
03:04 PM 69.8°F21.0°C 54.8°F12.7°C 59% 4.0 mph S6.4 kmh S 11.0 mph17.7 kmh 30.03 in1016.9 mb 0.00 in0.0 mm 0.00 in/hr0.0 mm/hr 0.00 in0.0 mm
03:05 PM 69.9°F21.1°C 54.5°F12.5°C 58% 8.0 mph S12.9 kmh S 11.0 mph17.7 kmh 30.03 in1016.9 mb 0.00 in0.0 mm 0.00 in/hr0.0 mm/hr 0.00 in0.0 mm
03:08 PM 70.1°F21.2°C 54.7°F12.6°C 58% 1.0 mph S1.6 kmh S 11.0 mph17.7 kmh 30.03 in1016.9 mb 0.00 in0.0 mm 0.00 in/hr0.0 mm/hr 0.00 in0.0 mm
03:09 PM 70.2°F21.2°C 54.3°F12.4°C 57% 5.0 mph S8.0 kmh S 11.0 mph17.7 kmh 30.03 in1016.9 mb 0.00 in0.0 mm 0.00 in/hr0.0 mm/hr 0.00 in0.0 mm
03:10 PM 70.4°F21.3°C 54.5°F12.5°C 57% 5.0 mph S8.0 kmh S 11.0 mph17.7 kmh 30.03 in1016.9 mb 0.00 in0.0 mm 0.00 in/hr0.0 mm/hr 0.00 in0.0 mm
03:13 PM 70.7°F21.5°C 54.3°F12.4°C 56% 7.0 mph S11.3 kmh S 11.0 mph17.7 kmh 30.03 in1016.9 mb 0.00 in0.0 mm 0.00 in/hr0.0 mm/hr 0.00 in0.0 mm
03:14 PM 70.6°F21.4°C 54.2°F12.3°C 56% 7.0 mph S11.3 kmh S 11.0 mph17.7 kmh 30.03 in1016.9 mb 0.00 in0.0 mm 0.00 in/hr0.0 mm/hr 0.00 in0.0 mm
03:15 PM 70.3°F21.3°C 53.9°F12.2°C 56% 10.0 mph SSW16.1 kmh SSW 12.0 mph19.3 kmh 30.03 in1016.9 mb 0.00 in0.0 mm 0.00 in/hr0.0 mm/hr 0.00 in0.0 mm
03:18 PM 69.2°F20.7°C 53.8°F12.1°C 58% 8.0 mph SSW12.9 kmh SSW 12.0 mph19.3 kmh 30.03 in1016.9 mb 0.00 in0.0 mm 0.00 in/hr0.0 mm/hr 0.00 in0.0 mm
03:19 PM 69.1°F20.6°C 54.2°F12.3°C 59% 7.0 mph S11.3 kmh S 12.0 mph19.3 kmh 30.03 in1016.9 mb 0.00 in0.0 mm 0.00 in/hr0.0 mm/hr 0.00 in0.0 mm
03:20 PM 69.1°F20.6°C 54.2°F12.3°C 59% 3.0 mph S4.8 kmh S 12.0 mph19.3 kmh 30.03 in1016.9 mb 0.00 in0.0 mm 0.00 in/hr0.0 mm/hr 0.00 in0.0 mm
03:23 PM 69.1°F20.6°C 53.7°F12.1°C 58% 6.0 mph S9.7 kmh S 12.0 mph19.3 kmh 30.03 in1016.9 mb 0.00 in0.0 mm 0.00 in/hr0.0 mm/hr 0.00 in0.0 mm
03:24 PM 69.2°F20.7°C 54.3°F12.4°C 59% 8.0 mph S12.9 kmh S 12.0 mph19.3 kmh 30.03 in1016.9 mb 0.00 in0.0 mm 0.00 in/hr0.0 mm/hr 0.00 in0.0 mm
03:25 PM 69.2°F20.7°C 53.8°F12.1°C 58% 6.0 mph S9.7 kmh S 12.0 mph19.3 kmh 30.03 in1016.9 mb 0.00 in0.0 mm 0.00 in/hr0.0 mm/hr 0.00 in0.0 mm
03:28 PM 69.5°F20.8°C 55.0°F12.8°C 60% 6.0 mph S9.7 kmh S 12.0 mph19.3 kmh 30.03 in1016.9 mb 0.00 in0.0 mm 0.00 in/hr0.0 mm/hr 0.00 in0.0 mm
03:29 PM 69.8°F21.0°C 54.8°F12.7°C 59% 8.0 mph S12.9 kmh S 12.0 mph19.3 kmh 30.03 in1016.9 mb 0.00 in0.0 mm 0.00 in/hr0.0 mm/hr 0.00 in0.0 mm
03:30 PM 70.0°F21.1°C 55.0°F12.8°C 59% 6.0 mph S9.7 kmh S 12.0 mph19.3 kmh 30.03 in1016.9 mb 0.00 in0.0 mm 0.00 in/hr0.0 mm/hr 0.00 in0.0 mm
03:33 PM 70.3°F21.3°C 54.8°F12.7°C 58% 9.0 mph S14.5 kmh S 12.0 mph19.3 kmh 30.03 in1016.9 mb 0.00 in0.0 mm 0.00 in/hr0.0 mm/hr 0.00 in0.0 mm
03:34 PM 70.3°F21.3°C 54.4°F12.4°C 57% 5.0 mph S8.0 kmh S 12.0 mph19.3 kmh 30.03 in1016.9 mb 0.00 in0.0 mm 0.00 in/hr0.0 mm/hr 0.00 in0.0 mm
03:35 PM 70.3°F21.3°C 54.8°F12.7°C 58% 5.0 mph S8.0 kmh S 12.0 mph19.3 kmh 30.03 in1016.9 mb 0.00 in0.0 mm 0.00 in/hr0.0 mm/hr 0.00 in0.0 mm
03:38 PM 70.2°F21.2°C 54.8°F12.7°C 58% 7.0 mph S11.3 kmh S 12.0 mph19.3 kmh 30.03 in1016.9 mb 0.00 in0.0 mm 0.00 in/hr0.0 mm/hr 0.00 in0.0 mm
03:39 PM 70.2°F21.2°C 54.8°F12.7°C 58% 7.0 mph S11.3 kmh S 12.0 mph19.3 kmh 30.03 in1016.9 mb 0.00 in0.0 mm 0.00 in/hr0.0 mm/hr 0.00 in0.0 mm
03:40 PM 70.1°F21.2°C 54.7°F12.6°C 58% 8.0 mph S12.9 kmh S 12.0 mph19.3 kmh 30.03 in1016.9 mb 0.00 in0.0 mm 0.00 in/hr0.0 mm/hr 0.00 in0.0 mm
03:43 PM 69.7°F20.9°C 54.3°F12.4°C 58% 3.0 mph S4.8 kmh S 12.0 mph19.3 kmh 30.03 in1016.9 mb 0.00 in0.0 mm 0.00 in/hr0.0 mm/hr 0.00 in0.0 mm
03:44 PM 69.7°F20.9°C 54.8°F12.7°C 59% 5.0 mph S8.0 kmh S 12.0 mph19.3 kmh 30.03 in1016.9 mb 0.00 in0.0 mm 0.00 in/hr0.0 mm/hr 0.00 in0.0 mm
03:45 PM 69.8°F21.0°C 54.8°F12.7°C 59% 6.0 mph S9.7 kmh S 12.0 mph19.3 kmh 30.03 in1016.9 mb 0.00 in0.0 mm 0.00 in/hr0.0 mm/hr 0.00 in0.0 mm
03:48 PM 69.8°F21.0°C 54.4°F12.4°C 58% 9.0 mph S14.5 kmh S 12.0 mph19.3 kmh 30.03 in1016.9 mb 0.00 in0.0 mm 0.00 in/hr0.0 mm/hr 0.00 in0.0 mm
03:49 PM 70.0°F21.1°C 55.0°F12.8°C 59% 6.0 mph S9.7 kmh S 12.0 mph19.3 kmh 30.03 in1016.9 mb 0.00 in0.0 mm 0.00 in/hr0.0 mm/hr 0.00 in0.0 mm
03:50 PM 69.9°F21.1°C 54.9°F12.7°C 59% 9.0 mph S14.5 kmh S 12.0 mph19.3 kmh 30.03 in1016.9 mb 0.00 in0.0 mm 0.00 in/hr0.0 mm/hr 0.00 in0.0 mm
03:53 PM 70.0°F21.1°C 55.0°F12.8°C 59% 2.0 mph S3.2 kmh S 12.0 mph19.3 kmh 30.03 in1016.9 mb 0.00 in0.0 mm 0.00 in/hr0.0 mm/hr 0.00 in0.0 mm
03:54 PM 70.0°F21.1°C 54.6°F12.6°C 58% 11.0 mph S17.7 kmh S 12.0 mph19.3 kmh 30.03 in1016.9 mb 0.00 in0.0 mm 0.00 in/hr0.0 mm/hr 0.00 in0.0 mm
03:55 PM 70.1°F21.2°C 54.7°F12.6°C 58% 5.0 mph S8.0 kmh S 12.0 mph19.3 kmh 30.03 in1016.9 mb 0.00 in0.0 mm 0.00 in/hr0.0 mm/hr 0.00 in0.0 mm
03:58 PM 69.9°F21.1°C 54.5°F12.5°C 58% 8.0 mph SSW12.9 kmh SSW 12.0 mph19.3 kmh 30.03 in1016.9 mb 0.00 in0.0 mm 0.00 in/hr0.0 mm/hr 0.00 in0.0 mm
03:59 PM 69.7°F20.9°C 54.3°F12.4°C 58% 7.0 mph SSW11.3 kmh SSW 12.0 mph19.3 kmh 30.03 in1016.9 mb 0.00 in0.0 mm 0.00 in/hr0.0 mm/hr 0.00 in0.0 mm
04:00 PM 69.6°F20.9°C 54.2°F12.3°C 58% 2.0 mph S3.2 kmh S 2.0 mph3.2 kmh 30.03 in1016.9 mb 0.00 in0.0 mm 0.00 in/hr0.0 mm/hr 0.00 in0.0 mm
04:03 PM 69.4°F20.8°C 54.9°F12.7°C 60% 8.0 mph S12.9 kmh S 9.0 mph14.5 kmh 30.03 in1016.9 mb 0.00 in0.0 mm 0.00 in/hr0.0 mm/hr 0.00 in0.0 mm
04:04 PM 69.2°F20.7°C 54.3°F12.4°C 59% 5.0 mph S8.0 kmh S 9.0 mph14.5 kmh 30.03 in1016.9 mb 0.00 in0.0 mm 0.00 in/hr0.0 mm/hr 0.00 in0.0 mm
04:05 PM 69.2°F20.7°C 54.7°F12.6°C 60% 6.0 mph S9.7 kmh S 9.0 mph14.5 kmh 30.03 in1016.9 mb 0.00 in0.0 mm 0.00 in/hr0.0 mm/hr 0.00 in0.0 mm
04:08 PM 69.5°F20.8°C 54.6°F12.6°C 59% 5.0 mph S8.0 kmh S 10.0 mph16.1 kmh 30.03 in1016.9 mb 0.00 in0.0 mm 0.00 in/hr0.0 mm/hr 0.00 in0.0 mm
04:09 PM 69.6°F20.9°C 54.2°F12.3°C 58% 5.0 mph S8.0 kmh S 10.0 mph16.1 kmh 30.03 in1016.9 mb 0.00 in0.0 mm 0.00 in/hr0.0 mm/hr 0.00 in0.0 mm
04:10 PM 69.7°F20.9°C 54.3°F12.4°C 58% 8.0 mph S12.9 kmh S 10.0 mph16.1 kmh 30.03 in1016.9 mb 0.00 in0.0 mm 0.00 in/hr0.0 mm/hr 0.00 in0.0 mm
04:13 PM 69.5°F20.8°C 54.1°F12.3°C 58% Calm Calm 11.0 mph17.7 kmh 30.02 in1016.6 mb 0.00 in0.0 mm 0.00 in/hr0.0 mm/hr 0.00 in0.0 mm
04:14 PM 69.4°F20.8°C 54.5°F12.5°C 59% 5.0 mph SSW8.0 kmh SSW 11.0 mph17.7 kmh 30.03 in1016.9 mb 0.00 in0.0 mm 0.00 in/hr0.0 mm/hr 0.00 in0.0 mm
04:15 PM 69.4°F20.8°C 54.0°F12.2°C 58% 7.0 mph S11.3 kmh S 11.0 mph17.7 kmh 30.03 in1016.9 mb 0.00 in0.0 mm 0.00 in/hr0.0 mm/hr 0.00 in0.0 mm
04:18 PM 69.0°F20.6°C 54.1°F12.3°C 59% 5.0 mph S8.0 kmh S 12.0 mph19.3 kmh 30.02 in1016.6 mb 0.00 in0.0 mm 0.00 in/hr0.0 mm/hr 0.00 in0.0 mm
04:19 PM 69.0°F20.6°C 54.6°F12.6°C 60% 5.0 mph S8.0 kmh S 12.0 mph19.3 kmh 30.02 in1016.6 mb 0.00 in0.0 mm 0.00 in/hr0.0 mm/hr 0.00 in0.0 mm
04:20 PM 69.2°F20.7°C 54.7°F12.6°C 60% 4.0 mph SSE6.4 kmh SSE 12.0 mph19.3 kmh 30.02 in1016.6 mb 0.00 in0.0 mm 0.00 in/hr0.0 mm/hr 0.00 in0.0 mm
04:23 PM 69.9°F21.1°C 54.9°F12.7°C 59% 7.0 mph SSE11.3 kmh SSE 12.0 mph19.3 kmh 30.02 in1016.6 mb 0.00 in0.0 mm 0.00 in/hr0.0 mm/hr 0.00 in0.0 mm
04:24 PM 70.1°F21.2°C 54.7°F12.6°C 58% 4.0 mph S6.4 kmh S 13.0 mph20.9 kmh 30.02 in1016.6 mb 0.00 in0.0 mm 0.00 in/hr0.0 mm/hr 0.00 in0.0 mm
04:25 PM 70.3°F21.3°C 54.8°F12.7°C 58% 8.0 mph S12.9 kmh S 13.0 mph20.9 kmh 30.02 in1016.6 mb 0.00 in0.0 mm 0.00 in/hr0.0 mm/hr 0.00 in0.0 mm
04:28 PM 70.1°F21.2°C 55.1°F12.8°C 59% 8.0 mph S12.9 kmh S 13.0 mph20.9 kmh 30.02 in1016.6 mb 0.00 in0.0 mm 0.00 in/hr0.0 mm/hr 0.00 in0.0 mm
04:29 PM 70.0°F21.1°C 54.6°F12.6°C 58% 5.0 mph S8.0 kmh S 13.0 mph20.9 kmh 30.02 in1016.6 mb 0.00 in0.0 mm 0.00 in/hr0.0 mm/hr 0.00 in0.0 mm
04:30 PM 69.9°F21.1°C 54.5°F12.5°C 58% 3.0 mph S4.8 kmh S 13.0 mph20.9 kmh 30.02 in1016.6 mb 0.00 in0.0 mm 0.00 in/hr0.0 mm/hr 0.00 in0.0 mm
04:33 PM 69.8°F21.0°C 54.8°F12.7°C 59% 7.0 mph SSE11.3 kmh SSE 13.0 mph20.9 kmh 30.02 in1016.6 mb 0.00 in0.0 mm 0.00 in/hr0.0 mm/hr 0.00 in0.0 mm
04:34 PM 69.9°F21.1°C 54.5°F12.5°C 58% 2.0 mph S3.2 kmh S 13.0 mph20.9 kmh 30.02 in1016.6 mb 0.00 in0.0 mm 0.00 in/hr0.0 mm/hr 0.00 in0.0 mm
04:35 PM 69.9°F21.1°C 54.5°F12.5°C 58% 4.0 mph S6.4 kmh S 13.0 mph20.9 kmh 30.02 in1016.6 mb 0.00 in0.0 mm 0.00 in/hr0.0 mm/hr 0.00 in0.0 mm
04:38 PM 70.0°F21.1°C 54.6°F12.6°C 58% 6.0 mph S9.7 kmh S 13.0 mph20.9 kmh 30.02 in1016.6 mb 0.00 in0.0 mm 0.00 in/hr0.0 mm/hr 0.00 in0.0 mm
04:39 PM 70.1°F21.2°C 55.1°F12.8°C 59% 7.0 mph S11.3 kmh S 13.0 mph20.9 kmh 30.02 in1016.6 mb 0.00 in0.0 mm 0.00 in/hr0.0 mm/hr 0.00 in0.0 mm
04:40 PM 70.0°F21.1°C 55.0°F12.8°C 59% 8.0 mph S12.9 kmh S 13.0 mph20.9 kmh 30.02 in1016.6 mb 0.00 in0.0 mm 0.00 in/hr0.0 mm/hr 0.00 in0.0 mm
04:43 PM 70.0°F21.1°C 55.0°F12.8°C 59% 7.0 mph S11.3 kmh S 13.0 mph20.9 kmh 30.02 in1016.6 mb 0.00 in0.0 mm 0.00 in/hr0.0 mm/hr 0.00 in0.0 mm
04:44 PM 69.9°F21.1°C 54.9°F12.7°C 59% 7.0 mph S11.3 kmh S 13.0 mph20.9 kmh 30.02 in1016.6 mb 0.00 in0.0 mm 0.00 in/hr0.0 mm/hr 0.00 in0.0 mm
04:45 PM 69.8°F21.0°C 54.8°F12.7°C 59% 3.0 mph S4.8 kmh S 13.0 mph20.9 kmh 30.02 in1016.6 mb 0.00 in0.0 mm 0.00 in/hr0.0 mm/hr 0.00 in0.0 mm
04:48 PM 70.0°F21.1°C 55.0°F12.8°C 59% 5.0 mph S8.0 kmh S 13.0 mph20.9 kmh 30.01 in1016.3 mb 0.00 in0.0 mm 0.00 in/hr0.0 mm/hr 0.00 in0.0 mm
04:49 PM 70.1°F21.2°C 55.1°F12.8°C 59% 5.0 mph S8.0 kmh S 13.0 mph20.9 kmh 30.02 in1016.6 mb 0.00 in0.0 mm 0.00 in/hr0.0 mm/hr 0.00 in0.0 mm
04:50 PM 70.1°F21.2°C 55.1°F12.8°C 59% 4.0 mph S6.4 kmh S 13.0 mph20.9 kmh 30.01 in1016.3 mb 0.00 in0.0 mm 0.00 in/hr0.0 mm/hr 0.00 in0.0 mm
04:53 PM 70.3°F21.3°C 55.3°F12.9°C 59% 5.0 mph S8.0 kmh S 13.0 mph20.9 kmh 30.01 in1016.3 mb 0.00 in0.0 mm 0.00 in/hr0.0 mm/hr 0.00 in0.0 mm
04:54 PM 70.4°F21.3°C 55.4°F13.0°C 59% 2.0 mph S3.2 kmh S 13.0 mph20.9 kmh 30.01 in1016.3 mb 0.00 in0.0 mm 0.00 in/hr0.0 mm/hr 0.00 in0.0 mm
04:55 PM 70.5°F21.4°C 55.5°F13.1°C 59% 6.0 mph S9.7 kmh S 13.0 mph20.9 kmh 30.01 in1016.3 mb 0.00 in0.0 mm 0.00 in/hr0.0 mm/hr 0.00 in0.0 mm
04:58 PM 70.4°F21.3°C 55.4°F13.0°C 59% 3.0 mph S4.8 kmh S 13.0 mph20.9 kmh 30.01 in1016.3 mb 0.00 in0.0 mm 0.00 in/hr0.0 mm/hr 0.00 in0.0 mm
04:59 PM 70.4°F21.3°C 55.4°F13.0°C 59% 5.0 mph S8.0 kmh S 13.0 mph20.9 kmh 30.01 in1016.3 mb 0.00 in0.0 mm 0.00 in/hr0.0 mm/hr 0.00 in0.0 mm
05:00 PM 70.4°F21.3°C 55.4°F13.0°C 59% 5.0 mph S8.0 kmh S 5.0 mph8.0 kmh 30.01 in1016.3 mb 0.00 in0.0 mm 0.00 in/hr0.0 mm/hr 0.00 in0.0 mm
05:03 PM 70.2°F21.2°C 54.8°F12.7°C 58% 7.0 mph S11.3 kmh S 11.0 mph17.7 kmh 30.01 in1016.3 mb 0.00 in0.0 mm 0.00 in/hr0.0 mm/hr 0.00 in0.0 mm
05:04 PM 69.7°F20.9°C 54.3°F12.4°C 58% 6.0 mph S9.7 kmh S 11.0 mph17.7 kmh 30.01 in1016.3 mb 0.00 in0.0 mm 0.00 in/hr0.0 mm/hr 0.00 in0.0 mm
05:05 PM 69.3°F20.7°C 53.9°F12.2°C 58% 8.0 mph SSW12.9 kmh SSW 11.0 mph17.7 kmh 30.01 in1016.3 mb 0.00 in0.0 mm 0.00 in/hr0.0 mm/hr 0.00 in0.0 mm
05:08 PM 68.8°F20.4°C 54.8°F12.7°C 61% 7.0 mph SSW11.3 kmh SSW 11.0 mph17.7 kmh 30.01 in1016.3 mb 0.00 in0.0 mm 0.00 in/hr0.0 mm/hr 0.00 in0.0 mm
05:09 PM 68.8°F20.4°C 54.8°F12.7°C 61% 7.0 mph SSW11.3 kmh SSW 11.0 mph17.7 kmh 30.01 in1016.3 mb 0.00 in0.0 mm 0.00 in/hr0.0 mm/hr 0.00 in0.0 mm
05:10 PM 68.9°F20.5°C 54.9°F12.7°C 61% 7.0 mph SSW11.3 kmh SSW 11.0 mph17.7 kmh 30.01 in1016.3 mb 0.00 in0.0 mm 0.00 in/hr0.0 mm/hr 0.00 in0.0 mm
05:13 PM 69.1°F20.6°C 55.1°F12.8°C 61% 4.0 mph S6.4 kmh S 11.0 mph17.7 kmh 30.01 in1016.3 mb 0.00 in0.0 mm 0.00 in/hr0.0 mm/hr 0.00 in0.0 mm
05:14 PM 69.4°F20.8°C 55.4°F13.0°C 61% 2.0 mph S3.2 kmh S 11.0 mph17.7 kmh 30.01 in1016.3 mb 0.00 in0.0 mm 0.00 in/hr0.0 mm/hr 0.00 in0.0 mm
05:15 PM 69.6°F20.9°C 55.6°F13.1°C 61% 8.0 mph S12.9 kmh S 11.0 mph17.7 kmh 30.01 in1016.3 mb 0.00 in0.0 mm 0.00 in/hr0.0 mm/hr 0.00 in0.0 mm
05:18 PM 69.6°F20.9°C 55.1°F12.8°C 60% 4.0 mph S6.4 kmh S 11.0 mph17.7 kmh 30.01 in1016.3 mb 0.00 in0.0 mm 0.00 in/hr0.0 mm/hr 0.00 in0.0 mm
05:19 PM 69.6°F20.9°C 55.1°F12.8°C 60% 7.0 mph S11.3 kmh S 11.0 mph17.7 kmh 30.01 in1016.3 mb 0.00 in0.0 mm 0.00 in/hr0.0 mm/hr 0.00 in0.0 mm
05:20 PM 69.5°F20.8°C 55.0°F12.8°C 60% 3.0 mph S4.8 kmh S 11.0 mph17.7 kmh 30.01 in1016.3 mb 0.00 in0.0 mm 0.00 in/hr0.0 mm/hr 0.00 in0.0 mm
05:23 PM 69.1°F20.6°C 54.7°F12.6°C 60% 4.0 mph S6.4 kmh S 11.0 mph17.7 kmh 30.01 in1016.3 mb 0.00 in0.0 mm 0.00 in/hr0.0 mm/hr 0.00 in0.0 mm
05:24 PM 69.1°F20.6°C 54.2°F12.3°C 59% 8.0 mph S12.9 kmh S 11.0 mph17.7 kmh 30.01 in1016.3 mb 0.00 in0.0 mm 0.00 in/hr0.0 mm/hr 0.00 in0.0 mm
05:25 PM 68.9°F20.5°C 54.5°F12.5°C 60% 7.0 mph S11.3 kmh S 11.0 mph17.7 kmh 30.01 in1016.3 mb 0.00 in0.0 mm 0.00 in/hr0.0 mm/hr 0.00 in0.0 mm
05:28 PM 68.6°F20.3°C 53.3°F11.8°C 58% 3.0 mph SSW4.8 kmh SSW 11.0 mph17.7 kmh 30.00 in1015.9 mb 0.00 in0.0 mm 0.00 in/hr0.0 mm/hr 0.00 in0.0 mm
05:29 PM 68.6°F20.3°C 53.3°F11.8°C 58% 8.0 mph S12.9 kmh S 11.0 mph17.7 kmh 30.00 in1015.9 mb 0.00 in0.0 mm 0.00 in/hr0.0 mm/hr 0.00 in0.0 mm
05:30 PM 68.7°F20.4°C 52.9°F11.6°C 57% 3.0 mph S4.8 kmh S 11.0 mph17.7 kmh 30.00 in1015.9 mb 0.00 in0.0 mm 0.00 in/hr0.0 mm/hr 0.00 in0.0 mm
05:33 PM 68.9°F20.5°C 53.1°F11.7°C 57% 6.0 mph SSW9.7 kmh SSW 11.0 mph17.7 kmh 30.00 in1015.9 mb 0.00 in0.0 mm 0.00 in/hr0.0 mm/hr 0.00 in0.0 mm
05:34 PM 69.1°F20.6°C 53.2°F11.8°C 57% 5.0 mph S8.0 kmh S 11.0 mph17.7 kmh 30.00 in1015.9 mb 0.00 in0.0 mm 0.00 in/hr0.0 mm/hr 0.00 in0.0 mm
05:35 PM 69.1°F20.6°C 53.2°F11.8°C 57% 6.0 mph S9.7 kmh S 11.0 mph17.7 kmh 30.01 in1016.3 mb 0.00 in0.0 mm 0.00 in/hr0.0 mm/hr 0.00 in0.0 mm
05:38 PM 69.3°F20.7°C 53.4°F11.9°C 57% 7.0 mph S11.3 kmh S 11.0 mph17.7 kmh 30.01 in1016.3 mb 0.00 in0.0 mm 0.00 in/hr0.0 mm/hr 0.00 in0.0 mm
05:39 PM 69.3°F20.7°C 53.4°F11.9°C 57% 7.0 mph S11.3 kmh S 11.0 mph17.7 kmh 30.01 in1016.3 mb 0.00 in0.0 mm 0.00 in/hr0.0 mm/hr 0.00 in0.0 mm
05:40 PM 69.3°F20.7°C 52.5°F11.4°C 55% 5.0 mph S8.0 kmh S 11.0 mph17.7 kmh 30.01 in1016.3 mb 0.00 in0.0 mm 0.00 in/hr0.0 mm/hr 0.00 in0.0 mm
05:43 PM 69.6°F20.9°C 52.7°F11.5°C 55% 7.0 mph S11.3 kmh S 11.0 mph17.7 kmh 30.00 in1015.9 mb 0.00 in0.0 mm 0.00 in/hr0.0 mm/hr 0.00 in0.0 mm
05:44 PM 69.6°F20.9°C 52.2°F11.2°C 54% 7.0 mph S11.3 kmh S 11.0 mph17.7 kmh 30.00 in1015.9 mb 0.00 in0.0 mm 0.00 in/hr0.0 mm/hr 0.00 in0.0 mm
05:45 PM 69.5°F20.8°C 52.2°F11.2°C 54% 3.0 mph S4.8 kmh S 11.0 mph17.7 kmh 30.00 in1015.9 mb 0.00 in0.0 mm 0.00 in/hr0.0 mm/hr 0.00 in0.0 mm
05:48 PM 69.6°F20.9°C 52.7°F11.5°C 55% 2.0 mph S3.2 kmh S 11.0 mph17.7 kmh 30.00 in1015.9 mb 0.00 in0.0 mm 0.00 in/hr0.0 mm/hr 0.00 in0.0 mm
05:49 PM 69.8°F21.0°C 52.9°F11.6°C 55% 1.0 mph S1.6 kmh S 11.0 mph17.7 kmh 30.00 in1015.9 mb 0.00 in0.0 mm 0.00 in/hr0.0 mm/hr 0.00 in0.0 mm
05:50 PM 70.0°F21.1°C 53.1°F11.7°C 55% 2.0 mph S3.2 kmh S 11.0 mph17.7 kmh 30.00 in1015.9 mb 0.00 in0.0 mm 0.00 in/hr0.0 mm/hr 0.00 in0.0 mm
05:53 PM 70.0°F21.1°C 51.1°F10.6°C 51% 3.0 mph SSW4.8 kmh SSW 11.0 mph17.7 kmh 30.00 in1015.9 mb 0.00 in0.0 mm 0.00 in/hr0.0 mm/hr 0.00 in0.0 mm
05:54 PM 69.9°F21.1°C 51.5°F10.8°C 52% 8.0 mph SSW12.9 kmh SSW 11.0 mph17.7 kmh 30.00 in1015.9 mb 0.00 in0.0 mm 0.00 in/hr0.0 mm/hr 0.00 in0.0 mm
05:55 PM 69.8°F21.0°C 51.4°F10.8°C 52% 9.0 mph SSW14.5 kmh SSW 11.0 mph17.7 kmh 30.00 in1015.9 mb 0.00 in0.0 mm 0.00 in/hr0.0 mm/hr 0.00 in0.0 mm
05:58 PM 69.5°F20.8°C 51.1°F10.6°C 52% 6.0 mph S9.7 kmh S 11.0 mph17.7 kmh 30.00 in1015.9 mb 0.00 in0.0 mm 0.00 in/hr0.0 mm/hr 0.00 in0.0 mm
05:59 PM 69.5°F20.8°C 50.6°F10.3°C 51% 3.0 mph S4.8 kmh S 11.0 mph17.7 kmh 30.00 in1015.9 mb 0.00 in0.0 mm 0.00 in/hr0.0 mm/hr 0.00 in0.0 mm
06:00 PM 69.6°F20.9°C 51.2°F10.7°C 52% 4.0 mph S6.4 kmh S 4.0 mph6.4 kmh 30.00 in1015.9 mb 0.00 in0.0 mm 0.00 in/hr0.0 mm/hr 0.00 in0.0 mm
06:03 PM 70.4°F21.3°C 51.4°F10.8°C 51% 3.0 mph S4.8 kmh S 6.0 mph9.7 kmh 30.00 in1015.9 mb 0.00 in0.0 mm 0.00 in/hr0.0 mm/hr 0.00 in0.0 mm
06:04 PM 70.6°F21.4°C 51.1°F10.6°C 50% 2.0 mph S3.2 kmh S 6.0 mph9.7 kmh 30.00 in1015.9 mb 0.00 in0.0 mm 0.00 in/hr0.0 mm/hr 0.00 in0.0 mm
06:05 PM 70.7°F21.5°C 51.7°F10.9°C 51% 1.0 mph S1.6 kmh S 6.0 mph9.7 kmh 30.00 in1015.9 mb 0.00 in0.0 mm 0.00 in/hr0.0 mm/hr 0.00 in0.0 mm
06:08 PM 70.7°F21.5°C 50.1°F10.1°C 48% 5.0 mph S8.0 kmh S 8.0 mph12.9 kmh 30.00 in1015.9 mb 0.00 in0.0 mm 0.00 in/hr0.0 mm/hr 0.00 in0.0 mm
06:09 PM 70.6°F21.4°C 50.5°F10.3°C 49% 6.0 mph S9.7 kmh S 8.0 mph12.9 kmh 30.00 in1015.9 mb 0.00 in0.0 mm 0.00 in/hr0.0 mm/hr 0.00 in0.0 mm
06:10 PM 70.4°F21.3°C 50.4°F10.2°C 49% 4.0 mph S6.4 kmh S 9.0 mph14.5 kmh 30.00 in1015.9 mb 0.00 in0.0 mm 0.00 in/hr0.0 mm/hr 0.00 in0.0 mm
06:13 PM 70.1°F21.2°C 51.2°F10.7°C 51% 5.0 mph S8.0 kmh S 9.0 mph14.5 kmh 30.00 in1015.9 mb 0.00 in0.0 mm 0.00 in/hr0.0 mm/hr 0.00 in0.0 mm
06:14 PM 70.1°F21.2°C 51.2°F10.7°C 51% 5.0 mph S8.0 kmh S 9.0 mph14.5 kmh 30.00 in1015.9 mb 0.00 in0.0 mm 0.00 in/hr0.0 mm/hr 0.00 in0.0 mm
06:15 PM 70.1°F21.2°C 51.7°F10.9°C 52% 5.0 mph S8.0 kmh S 9.0 mph14.5 kmh 30.00 in1015.9 mb 0.00 in0.0 mm 0.00 in/hr0.0 mm/hr 0.00 in0.0 mm
06:18 PM 70.2°F21.2°C 51.2°F10.7°C 51% 6.0 mph S9.7 kmh S 9.0 mph14.5 kmh 29.99 in1015.6 mb 0.00 in0.0 mm 0.00 in/hr0.0 mm/hr 0.00 in0.0 mm
06:19 PM 70.0°F21.1°C 51.6°F10.9°C 52% 5.0 mph S8.0 kmh S 9.0 mph14.5 kmh 29.99 in1015.6 mb 0.00 in0.0 mm 0.00 in/hr0.0 mm/hr 0.00 in0.0 mm
06:20 PM 69.9°F21.1°C 51.5°F10.8°C 52% 3.0 mph S4.8 kmh S 9.0 mph14.5 kmh 29.99 in1015.6 mb 0.00 in0.0 mm 0.00 in/hr0.0 mm/hr 0.00 in0.0 mm
06:23 PM 69.9°F21.1°C 51.5°F10.8°C 52% 2.0 mph SSE3.2 kmh SSE 10.0 mph16.1 kmh 29.99 in1015.6 mb 0.00 in0.0 mm 0.00 in/hr0.0 mm/hr 0.00 in0.0 mm
06:24 PM 70.2°F21.2°C 51.2°F10.7°C 51% 4.0 mph SSE6.4 kmh SSE 10.0 mph16.1 kmh 29.99 in1015.6 mb 0.00 in0.0 mm 0.00 in/hr0.0 mm/hr 0.00 in0.0 mm
06:25 PM 70.4°F21.3°C 51.4°F10.8°C 51% 5.0 mph SSE8.0 kmh SSE 10.0 mph16.1 kmh 29.99 in1015.6 mb 0.00 in0.0 mm 0.00 in/hr0.0 mm/hr 0.00 in0.0 mm
06:28 PM 70.8°F21.6°C 51.8°F11.0°C 51% 6.0 mph SSE9.7 kmh SSE 10.0 mph16.1 kmh 29.99 in1015.6 mb 0.00 in0.0 mm 0.00 in/hr0.0 mm/hr 0.00 in0.0 mm
06:29 PM 70.9°F21.6°C 50.8°F10.4°C 49% 4.0 mph SSE6.4 kmh SSE 10.0 mph16.1 kmh 29.99 in1015.6 mb 0.00 in0.0 mm 0.00 in/hr0.0 mm/hr 0.00 in0.0 mm
06:30 PM 70.9°F21.6°C 50.8°F10.4°C 49% 2.0 mph SSE3.2 kmh SSE 10.0 mph16.1 kmh 29.99 in1015.6 mb 0.00 in0.0 mm 0.00 in/hr0.0 mm/hr 0.00 in0.0 mm
06:33 PM 71.2°F21.8°C 51.1°F10.6°C 49% Calm Calm 10.0 mph16.1 kmh 29.99 in1015.6 mb 0.00 in0.0 mm 0.00 in/hr0.0 mm/hr 0.00 in0.0 mm
06:34 PM 71.2°F21.8°C 51.1°F10.6°C 49% 6.0 mph SSE9.7 kmh SSE 10.0 mph16.1 kmh 29.98 in1015.2 mb 0.00 in0.0 mm 0.00 in/hr0.0 mm/hr 0.00 in0.0 mm
06:35 PM 71.3°F21.8°C 51.2°F10.7°C 49% 4.0 mph SSE6.4 kmh SSE 10.0 mph16.1 kmh 29.98 in1015.2 mb 0.00 in0.0 mm 0.00 in/hr0.0 mm/hr 0.00 in0.0 mm
06:38 PM 71.4°F21.9°C 50.7°F10.4°C 48% 4.0 mph SSE6.4 kmh SSE 10.0 mph16.1 kmh 29.99 in1015.6 mb 0.00 in0.0 mm 0.00 in/hr0.0 mm/hr 0.00 in0.0 mm
06:39 PM 71.4°F21.9°C 51.3°F10.7°C 49% 5.0 mph S8.0 kmh S 10.0 mph16.1 kmh 29.99 in1015.6 mb 0.00 in0.0 mm 0.00 in/hr0.0 mm/hr 0.00 in0.0 mm
06:40 PM 71.3°F21.8°C 51.7°F10.9°C 50% 5.0 mph S8.0 kmh S 10.0 mph16.1 kmh 29.99 in1015.6 mb 0.00 in0.0 mm 0.00 in/hr0.0 mm/hr 0.00 in0.0 mm
06:43 PM 71.2°F21.8°C 51.6°F10.9°C 50% 6.0 mph S9.7 kmh S 10.0 mph16.1 kmh 29.99 in1015.6 mb 0.00 in0.0 mm 0.00 in/hr0.0 mm/hr 0.00 in0.0 mm
06:44 PM 71.0°F21.7°C 52.0°F11.1°C 51% 5.0 mph S8.0 kmh S 10.0 mph16.1 kmh 29.99 in1015.6 mb 0.00 in0.0 mm 0.00 in/hr0.0 mm/hr 0.00 in0.0 mm
06:45 PM 70.7°F21.5°C 51.2°F10.7°C 50% 6.0 mph S9.7 kmh S 10.0 mph16.1 kmh 29.99 in1015.6 mb 0.00 in0.0 mm 0.00 in/hr0.0 mm/hr 0.00 in0.0 mm
06:48 PM 70.3°F21.3°C 51.9°F11.1°C 52% 4.0 mph S6.4 kmh S 10.0 mph16.1 kmh 29.99 in1015.6 mb 0.00 in0.0 mm 0.00 in/hr0.0 mm/hr 0.00 in0.0 mm
06:49 PM 70.3°F21.3°C 51.9°F11.1°C 52% 4.0 mph S6.4 kmh S 10.0 mph16.1 kmh 29.99 in1015.6 mb 0.00 in0.0 mm 0.00 in/hr0.0 mm/hr 0.00 in0.0 mm
06:50 PM 70.3°F21.3°C 51.9°F11.1°C 52% Calm Calm 10.0 mph16.1 kmh 29.99 in1015.6 mb 0.00 in0.0 mm 0.00 in/hr0.0 mm/hr 0.00 in0.0 mm
06:53 PM 70.3°F21.3°C 51.9°F11.1°C 52% 2.0 mph S3.2 kmh S 10.0 mph16.1 kmh 29.99 in1015.6 mb 0.00 in0.0 mm 0.00 in/hr0.0 mm/hr 0.00 in0.0 mm
06:54 PM 70.7°F21.5°C 52.2°F11.2°C 52% 4.0 mph S6.4 kmh S 10.0 mph16.1 kmh 29.99 in1015.6 mb 0.00 in0.0 mm 0.00 in/hr0.0 mm/hr 0.00 in0.0 mm
06:55 PM 70.6°F21.4°C 52.7°F11.5°C 53% 4.0 mph S6.4 kmh S 10.0 mph16.1 kmh 29.99 in1015.6 mb 0.00 in0.0 mm 0.00 in/hr0.0 mm/hr 0.00 in0.0 mm
06:58 PM 70.2°F21.2°C 51.8°F11.0°C 52% 4.0 mph S6.4 kmh S 10.0 mph16.1 kmh 29.99 in1015.6 mb 0.00 in0.0 mm 0.00 in/hr0.0 mm/hr 0.00 in0.0 mm
06:59 PM 70.1°F21.2°C 51.7°F10.9°C 52% 1.0 mph S1.6 kmh S 10.0 mph16.1 kmh 29.99 in1015.6 mb 0.00 in0.0 mm 0.00 in/hr0.0 mm/hr 0.00 in0.0 mm
07:00 PM 70.0°F21.1°C 52.1°F11.2°C 53% 3.0 mph S4.8 kmh S 4.0 mph6.4 kmh 29.99 in1015.6 mb 0.00 in0.0 mm 0.00 in/hr0.0 mm/hr 0.00 in0.0 mm
07:03 PM 69.8°F21.0°C 51.9°F11.1°C 53% 6.0 mph S9.7 kmh S 7.0 mph11.3 kmh 29.99 in1015.6 mb 0.00 in0.0 mm 0.00 in/hr0.0 mm/hr 0.00 in0.0 mm
07:04 PM 69.6°F20.9°C 52.2°F11.2°C 54% 6.0 mph S9.7 kmh S 7.0 mph11.3 kmh 29.99 in1015.6 mb 0.00 in0.0 mm 0.00 in/hr0.0 mm/hr 0.00 in0.0 mm
07:05 PM 69.4°F20.8°C 52.1°F11.2°C 54% 3.0 mph S4.8 kmh S 7.0 mph11.3 kmh 29.99 in1015.6 mb 0.00 in0.0 mm 0.00 in/hr0.0 mm/hr 0.00 in0.0 mm
07:08 PM 69.1°F20.6°C 52.8°F11.6°C 56% 4.0 mph S6.4 kmh S 7.0 mph11.3 kmh 29.99 in1015.6 mb 0.00 in0.0 mm 0.00 in/hr0.0 mm/hr 0.00 in0.0 mm
07:09 PM 69.1°F20.6°C 52.3°F11.3°C 55% 3.0 mph S4.8 kmh S 7.0 mph11.3 kmh 29.99 in1015.6 mb 0.00 in0.0 mm 0.00 in/hr0.0 mm/hr 0.00 in0.0 mm
07:10 PM 69.0°F20.6°C 52.2°F11.2°C 55% 3.0 mph S4.8 kmh S 7.0 mph11.3 kmh 29.99 in1015.6 mb 0.00 in0.0 mm 0.00 in/hr0.0 mm/hr 0.00 in0.0 mm
07:13 PM 68.9°F20.5°C 52.1°F11.2°C 55% 3.0 mph S4.8 kmh S 7.0 mph11.3 kmh 29.99 in1015.6 mb 0.00 in0.0 mm 0.00 in/hr0.0 mm/hr 0.00 in0.0 mm
07:14 PM 68.9°F20.5°C 52.1°F11.2°C 55% 4.0 mph S6.4 kmh S 7.0 mph11.3 kmh 29.99 in1015.6 mb 0.00 in0.0 mm 0.00 in/hr0.0 mm/hr 0.00 in0.0 mm
07:15 PM 69.0°F20.6°C 52.2°F11.2°C 55% 1.0 mph S1.6 kmh S 7.0 mph11.3 kmh 29.99 in1015.6 mb 0.00 in0.0 mm 0.00 in/hr0.0 mm/hr 0.00 in0.0 mm
07:18 PM 69.2°F20.7°C 51.4°F10.8°C 53% 2.0 mph S3.2 kmh S 7.0 mph11.3 kmh 29.99 in1015.6 mb 0.00 in0.0 mm 0.00 in/hr0.0 mm/hr 0.00 in0.0 mm
07:19 PM 69.3°F20.7°C 51.5°F10.8°C 53% 1.0 mph S1.6 kmh S 7.0 mph11.3 kmh 29.99 in1015.6 mb 0.00 in0.0 mm 0.00 in/hr0.0 mm/hr 0.00 in0.0 mm
07:20 PM 69.4°F20.8°C 51.6°F10.9°C 53% 2.0 mph S3.2 kmh S 7.0 mph11.3 kmh 29.99 in1015.6 mb 0.00 in0.0 mm 0.00 in/hr0.0 mm/hr 0.00 in0.0 mm
07:23 PM 69.9°F21.1°C 51.5°F10.8°C 52% Calm Calm 7.0 mph11.3 kmh 29.98 in1015.2 mb 0.00 in0.0 mm 0.00 in/hr0.0 mm/hr 0.00 in0.0 mm
07:24 PM 70.0°F21.1°C 51.6°F10.9°C 52% 4.0 mph S6.4 kmh S 7.0 mph11.3 kmh 29.99 in1015.6 mb 0.00 in0.0 mm 0.00 in/hr0.0 mm/hr 0.00 in0.0 mm
07:25 PM 70.2°F21.2°C 51.2°F10.7°C 51% 5.0 mph S8.0 kmh S 7.0 mph11.3 kmh 29.99 in1015.6 mb 0.00 in0.0 mm 0.00 in/hr0.0 mm/hr 0.00 in0.0 mm
07:28 PM 70.0°F21.1°C 52.1°F11.2°C 53% 2.0 mph S3.2 kmh S 7.0 mph11.3 kmh 29.98 in1015.2 mb 0.00 in0.0 mm 0.00 in/hr0.0 mm/hr 0.00 in0.0 mm
07:29 PM 69.9°F21.1°C 51.5°F10.8°C 52% 1.0 mph S1.6 kmh S 7.0 mph11.3 kmh 29.99 in1015.6 mb 0.00 in0.0 mm 0.00 in/hr0.0 mm/hr 0.00 in0.0 mm
07:30 PM 69.8°F21.0°C 51.9°F11.1°C 53% Calm Calm 7.0 mph11.3 kmh 29.98 in1015.2 mb 0.00 in0.0 mm 0.00 in/hr0.0 mm/hr 0.00 in0.0 mm
07:33 PM 69.8°F21.0°C 52.4°F11.3°C 54% 1.0 mph S1.6 kmh S 7.0 mph11.3 kmh 29.98 in1015.2 mb 0.00 in0.0 mm 0.00 in/hr0.0 mm/hr 0.00 in0.0 mm
07:34 PM 69.8°F21.0°C 52.4°F11.3°C 54% 2.0 mph S3.2 kmh S 7.0 mph11.3 kmh 29.98 in1015.2 mb 0.00 in0.0 mm 0.00 in/hr0.0 mm/hr 0.00 in0.0 mm
07:35 PM 69.8°F21.0°C 52.4°F11.3°C 54% 1.0 mph S1.6 kmh S 7.0 mph11.3 kmh 29.98 in1015.2 mb 0.00 in0.0 mm 0.00 in/hr0.0 mm/hr 0.00 in0.0 mm
07:38 PM 69.8°F21.0°C 52.4°F11.3°C 54% Calm Calm 7.0 mph11.3 kmh 29.98 in1015.2 mb 0.00 in0.0 mm 0.00 in/hr0.0 mm/hr 0.00 in0.0 mm
07:39 PM 69.7°F20.9°C 52.3°F11.3°C 54% Calm Calm 7.0 mph11.3 kmh 29.98 in1015.2 mb 0.00 in0.0 mm 0.00 in/hr0.0 mm/hr 0.00 in0.0 mm
07:40 PM 69.8°F21.0°C 52.9°F11.6°C 55% Calm Calm 7.0 mph11.3 kmh 29.98 in1015.2 mb 0.00 in0.0 mm 0.00 in/hr0.0 mm/hr 0.00 in0.0 mm
07:43 PM 69.8°F21.0°C 52.9°F11.6°C 55% Calm Calm 7.0 mph11.3 kmh 29.98 in1015.2 mb 0.00 in0.0 mm 0.00 in/hr0.0 mm/hr 0.00 in0.0 mm
07:44 PM 69.8°F21.0°C 52.4°F11.3°C 54% Calm Calm 7.0 mph11.3 kmh 29.98 in1015.2 mb 0.00 in0.0 mm 0.00 in/hr0.0 mm/hr 0.00 in0.0 mm
07:45 PM 69.9°F21.1°C 52.0°F11.1°C 53% 1.0 mph S1.6 kmh S 7.0 mph11.3 kmh 29.98 in1015.2 mb 0.00 in0.0 mm 0.00 in/hr0.0 mm/hr 0.00 in0.0 mm
07:48 PM 70.0°F21.1°C 52.1°F11.2°C 53% 1.0 mph S1.6 kmh S 7.0 mph11.3 kmh 29.98 in1015.2 mb 0.00 in0.0 mm 0.00 in/hr0.0 mm/hr 0.00 in0.0 mm
07:49 PM 70.0°F21.1°C 51.6°F10.9°C 52% 2.0 mph S3.2 kmh S 7.0 mph11.3 kmh 29.98 in1015.2 mb 0.00 in0.0 mm 0.00 in/hr0.0 mm/hr 0.00 in0.0 mm
07:50 PM 70.0°F21.1°C 51.6°F10.9°C 52% 2.0 mph S3.2 kmh S 7.0 mph11.3 kmh 29.98 in1015.2 mb 0.00 in0.0 mm 0.00 in/hr0.0 mm/hr 0.00 in0.0 mm
07:53 PM 69.9°F21.1°C 51.5°F10.8°C 52% Calm Calm 7.0 mph11.3 kmh 29.98 in1015.2 mb 0.00 in0.0 mm 0.00 in/hr0.0 mm/hr 0.00 in0.0 mm
07:54 PM 69.9°F21.1°C 51.5°F10.8°C 52% 2.0 mph S3.2 kmh S 7.0 mph11.3 kmh 29.98 in1015.2 mb 0.00 in0.0 mm 0.00 in/hr0.0 mm/hr 0.00 in0.0 mm
07:55 PM 69.8°F21.0°C 51.4°F10.8°C 52% 1.0 mph S1.6 kmh S 7.0 mph11.3 kmh 29.98 in1015.2 mb 0.00 in0.0 mm 0.00 in/hr0.0 mm/hr 0.00 in0.0 mm
07:58 PM 69.5°F20.8°C 51.1°F10.6°C 52% Calm Calm 7.0 mph11.3 kmh 29.98 in1015.2 mb 0.00 in0.0 mm 0.00 in/hr0.0 mm/hr 0.00 in0.0 mm
07:59 PM 69.4°F20.8°C 51.0°F10.6°C 52% 2.0 mph S3.2 kmh S 7.0 mph11.3 kmh 29.98 in1015.2 mb 0.00 in0.0 mm 0.00 in/hr0.0 mm/hr 0.00 in0.0 mm
08:00 PM 69.4°F20.8°C 51.6°F10.9°C 53% 5.0 mph S8.0 kmh S 5.0 mph8.0 kmh 29.98 in1015.2 mb 0.00 in0.0 mm 0.00 in/hr0.0 mm/hr 0.00 in0.0 mm
08:03 PM 69.1°F20.6°C 51.3°F10.7°C 53% 2.0 mph S3.2 kmh S 6.0 mph9.7 kmh 29.98 in1015.2 mb 0.00 in0.0 mm 0.00 in/hr0.0 mm/hr 0.00 in0.0 mm
08:04 PM 69.0°F20.6°C 51.2°F10.7°C 53% Calm Calm 6.0 mph9.7 kmh 29.98 in1015.2 mb 0.00 in0.0 mm 0.00 in/hr0.0 mm/hr 0.00 in0.0 mm
08:05 PM 69.0°F20.6°C 51.2°F10.7°C 53% Calm Calm 6.0 mph9.7 kmh 29.98 in1015.2 mb 0.00 in0.0 mm 0.00 in/hr0.0 mm/hr 0.00 in0.0 mm
08:08 PM 69.0°F20.6°C 51.2°F10.7°C 53% Calm Calm 6.0 mph9.7 kmh 29.98 in1015.2 mb 0.00 in0.0 mm 0.00 in/hr0.0 mm/hr 0.00 in0.0 mm
08:09 PM 69.1°F20.6°C 51.3°F10.7°C 53% Calm Calm 6.0 mph9.7 kmh 29.98 in1015.2 mb 0.00 in0.0 mm 0.00 in/hr0.0 mm/hr 0.00 in0.0 mm
08:10 PM 69.2°F20.7°C 51.4°F10.8°C 53% 1.0 mph S1.6 kmh S 6.0 mph9.7 kmh 29.99 in1015.6 mb 0.00 in0.0 mm 0.00 in/hr0.0 mm/hr 0.00 in0.0 mm
08:13 PM 69.2°F20.7°C 50.9°F10.5°C 52% 3.0 mph S4.8 kmh S 6.0 mph9.7 kmh 29.98 in1015.2 mb 0.00 in0.0 mm 0.00 in/hr0.0 mm/hr 0.00 in0.0 mm
08:14 PM 69.1°F20.6°C 51.3°F10.7°C 53% 1.0 mph S1.6 kmh S 6.0 mph9.7 kmh 29.99 in1015.6 mb 0.00 in0.0 mm 0.00 in/hr0.0 mm/hr 0.00 in0.0 mm
08:15 PM 69.0°F20.6°C 51.2°F10.7°C 53% 2.0 mph S3.2 kmh S 6.0 mph9.7 kmh 29.99 in1015.6 mb 0.00 in0.0 mm 0.00 in/hr0.0 mm/hr 0.00 in0.0 mm
08:18 PM 68.7°F20.4°C 50.9°F10.5°C 53% 1.0 mph S1.6 kmh S 6.0 mph9.7 kmh 29.99 in1015.6 mb 0.00 in0.0 mm 0.00 in/hr0.0 mm/hr 0.00 in0.0 mm
08:19 PM 68.6°F20.3°C 50.8°F10.4°C 53% 1.0 mph S1.6 kmh S 6.0 mph9.7 kmh 29.99 in1015.6 mb 0.00 in0.0 mm 0.00 in/hr0.0 mm/hr 0.00 in0.0 mm
08:20 PM 68.5°F20.3°C 50.7°F10.4°C 53% Calm Calm 6.0 mph9.7 kmh 29.99 in1015.6 mb 0.00 in0.0 mm 0.00 in/hr0.0 mm/hr 0.00 in0.0 mm
08:23 PM 68.4°F20.2°C 51.1°F10.6°C 54% Calm Calm 6.0 mph9.7 kmh 29.99 in1015.6 mb 0.00 in0.0 mm 0.00 in/hr0.0 mm/hr 0.00 in0.0 mm
08:24 PM 68.4°F20.2°C 51.1°F10.6°C 54% 2.0 mph S3.2 kmh S 6.0 mph9.7 kmh 29.99 in1015.6 mb 0.00 in0.0 mm 0.00 in/hr0.0 mm/hr 0.00 in0.0 mm
08:25 PM 68.4°F20.2°C 51.1°F10.6°C 54% Calm Calm 6.0 mph9.7 kmh 29.99 in1015.6 mb 0.00 in0.0 mm 0.00 in/hr0.0 mm/hr 0.00 in0.0 mm
08:28 PM 68.5°F20.3°C 50.7°F10.4°C 53% Calm Calm 6.0 mph9.7 kmh 29.99 in1015.6 mb 0.00 in0.0 mm 0.00 in/hr0.0 mm/hr 0.00 in0.0 mm
08:29 PM 68.5°F20.3°C 51.2°F10.7°C 54% Calm Calm 6.0 mph9.7 kmh 29.99 in1015.6 mb 0.00 in0.0 mm 0.00 in/hr0.0 mm/hr 0.00 in0.0 mm
08:30 PM 68.6°F20.3°C 51.3°F10.7°C 54% 3.0 mph S4.8 kmh S 6.0 mph9.7 kmh 29.99 in1015.6 mb 0.00 in0.0 mm 0.00 in/hr0.0 mm/hr 0.00 in0.0 mm
08:33 PM 68.5°F20.3°C 51.2°F10.7°C 54% Calm Calm 6.0 mph9.7 kmh 29.99 in1015.6 mb 0.00 in0.0 mm 0.00 in/hr0.0 mm/hr 0.00 in0.0 mm
08:34 PM 68.4°F20.2°C 51.1°F10.6°C 54% 1.0 mph S1.6 kmh S 6.0 mph9.7 kmh 29.99 in1015.6 mb 0.00 in0.0 mm 0.00 in/hr0.0 mm/hr 0.00 in0.0 mm
08:35 PM 68.4°F20.2°C 51.1°F10.6°C 54% 2.0 mph S3.2 kmh S 6.0 mph9.7 kmh 29.99 in1015.6 mb 0.00 in0.0 mm 0.00 in/hr0.0 mm/hr 0.00 in0.0 mm
08:38 PM 68.3°F20.2°C 51.0°F10.6°C 54% 1.0 mph S1.6 kmh S 6.0 mph9.7 kmh 29.98 in1015.2 mb 0.00 in0.0 mm 0.00 in/hr0.0 mm/hr 0.00 in0.0 mm
08:39 PM 68.3°F20.2°C 51.0°F10.6°C 54% Calm Calm 6.0 mph9.7 kmh 29.99 in1015.6 mb 0.00 in0.0 mm 0.00 in/hr0.0 mm/hr 0.00 in0.0 mm
08:40 PM 68.2°F20.1°C 50.9°F10.5°C 54% 1.0 mph S1.6 kmh S 6.0 mph9.7 kmh 29.98 in1015.2 mb 0.00 in0.0 mm 0.00 in/hr0.0 mm/hr 0.00 in0.0 mm
08:43 PM 68.1°F20.1°C 50.9°F10.5°C 54% Calm Calm 6.0 mph9.7 kmh 29.98 in1015.2 mb 0.00 in0.0 mm 0.00 in/hr0.0 mm/hr 0.00 in0.0 mm
08:44 PM 68.1°F20.1°C 50.9°F10.5°C 54% Calm Calm 6.0 mph9.7 kmh 29.98 in1015.2 mb 0.00 in0.0 mm 0.00 in/hr0.0 mm/hr 0.00 in0.0 mm
08:45 PM 68.1°F20.1°C 50.9°F10.5°C 54% 1.0 mph S1.6 kmh S 6.0 mph9.7 kmh 29.98 in1015.2 mb 0.00 in0.0 mm 0.00 in/hr0.0 mm/hr 0.00 in0.0 mm
08:48 PM 68.2°F20.1°C 50.9°F10.5°C 54% 1.0 mph S1.6 kmh S 6.0 mph9.7 kmh 29.99 in1015.6 mb 0.00 in0.0 mm 0.00 in/hr0.0 mm/hr 0.00 in0.0 mm
08:49 PM 68.2°F20.1°C 50.9°F10.5°C 54% Calm Calm 6.0 mph9.7 kmh 29.98 in1015.2 mb 0.00 in0.0 mm 0.00 in/hr0.0 mm/hr 0.00 in0.0 mm
08:50 PM 68.2°F20.1°C 50.9°F10.5°C 54% Calm Calm 6.0 mph9.7 kmh 29.98 in1015.2 mb 0.00 in0.0 mm 0.00 in/hr0.0 mm/hr 0.00 in0.0 mm
08:53 PM 68.2°F20.1°C 50.9°F10.5°C 54% Calm Calm 6.0 mph9.7 kmh 29.99 in1015.6 mb 0.00 in0.0 mm 0.00 in/hr0.0 mm/hr 0.00 in0.0 mm
08:54 PM 68.2°F20.1°C 50.9°F10.5°C 54% 1.0 mph S1.6 kmh S 6.0 mph9.7 kmh 29.99 in1015.6 mb 0.00 in0.0 mm 0.00 in/hr0.0 mm/hr 0.00 in0.0 mm
08:55 PM 68.2°F20.1°C 50.9°F10.5°C 54% 2.0 mph S3.2 kmh S 6.0 mph9.7 kmh 29.98 in1015.2 mb 0.00 in0.0 mm 0.00 in/hr0.0 mm/hr 0.00 in0.0 mm
08:58 PM 68.1°F20.1°C 50.9°F10.5°C 54% 1.0 mph S1.6 kmh S 6.0 mph9.7 kmh 29.99 in1015.6 mb 0.00 in0.0 mm 0.00 in/hr0.0 mm/hr 0.00 in0.0 mm
08:59 PM 68.1°F20.1°C 51.3°F10.7°C 55% 1.0 mph S1.6 kmh S 6.0 mph9.7 kmh 29.99 in1015.6 mb 0.00 in0.0 mm 0.00 in/hr0.0 mm/hr 0.00 in0.0 mm
09:00 PM 68.0°F20.0°C 50.8°F10.4°C 54% Calm Calm -- 29.99 in1015.6 mb 0.00 in0.0 mm 0.00 in/hr0.0 mm/hr 0.00 in0.0 mm
09:03 PM 68.0°F20.0°C 50.3°F10.2°C 53% 2.0 mph S3.2 kmh S 2.0 mph3.2 kmh 29.99 in1015.6 mb 0.00 in0.0 mm 0.00 in/hr0.0 mm/hr 0.00 in0.0 mm
09:04 PM 68.0°F20.0°C 50.3°F10.2°C 53% 1.0 mph S1.6 kmh S 3.0 mph4.8 kmh 29.99 in1015.6 mb 0.00 in0.0 mm 0.00 in/hr0.0 mm/hr 0.00 in0.0 mm
09:05 PM 67.9°F19.9°C 50.2°F10.1°C 53% Calm Calm 3.0 mph4.8 kmh 29.99 in1015.6 mb 0.00 in0.0 mm 0.00 in/hr0.0 mm/hr 0.00 in0.0 mm
09:08 PM 67.9°F19.9°C 50.2°F10.1°C 53% Calm Calm 3.0 mph4.8 kmh 29.99 in1015.6 mb 0.00 in0.0 mm 0.00 in/hr0.0 mm/hr 0.00 in0.0 mm
09:09 PM 68.0°F20.0°C 50.3°F10.2°C 53% Calm Calm 3.0 mph4.8 kmh 29.99 in1015.6 mb 0.00 in0.0 mm 0.00 in/hr0.0 mm/hr 0.00 in0.0 mm
09:10 PM 67.9°F19.9°C 50.2°F10.1°C 53% Calm Calm 3.0 mph4.8 kmh 29.99 in1015.6 mb 0.00 in0.0 mm 0.00 in/hr0.0 mm/hr 0.00 in0.0 mm
09:13 PM 67.9°F19.9°C 50.2°F10.1°C 53% 2.0 mph S3.2 kmh S 3.0 mph4.8 kmh 29.99 in1015.6 mb 0.00 in0.0 mm 0.00 in/hr0.0 mm/hr 0.00 in0.0 mm
09:14 PM 67.9°F19.9°C 50.2°F10.1°C 53% 1.0 mph S1.6 kmh S 3.0 mph4.8 kmh 29.99 in1015.6 mb 0.00 in0.0 mm 0.00 in/hr0.0 mm/hr 0.00 in0.0 mm
09:15 PM 67.9°F19.9°C 50.2°F10.1°C 53% 1.0 mph S1.6 kmh S 3.0 mph4.8 kmh 29.99 in1015.6 mb 0.00 in0.0 mm 0.00 in/hr0.0 mm/hr 0.00 in0.0 mm
09:18 PM 68.0°F20.0°C 50.3°F10.2°C 53% Calm Calm 3.0 mph4.8 kmh 29.99 in1015.6 mb 0.00 in0.0 mm 0.00 in/hr0.0 mm/hr 0.00 in0.0 mm
09:19 PM 68.0°F20.0°C 50.3°F10.2°C 53% Calm Calm 3.0 mph4.8 kmh 29.99 in1015.6 mb 0.00 in0.0 mm 0.00 in/hr0.0 mm/hr 0.00 in0.0 mm
09:20 PM 68.0°F20.0°C 50.3°F10.2°C 53% Calm Calm 3.0 mph4.8 kmh 29.99 in1015.6 mb 0.00 in0.0 mm 0.00 in/hr0.0 mm/hr 0.00 in0.0 mm
09:23 PM 68.0°F20.0°C 50.3°F10.2°C 53% Calm Calm 3.0 mph4.8 kmh 29.99 in1015.6 mb 0.00 in0.0 mm 0.00 in/hr0.0 mm/hr 0.00 in0.0 mm
09:24 PM 68.0°F20.0°C 50.3°F10.2°C 53% Calm Calm 3.0 mph4.8 kmh 29.99 in1015.6 mb 0.00 in0.0 mm 0.00 in/hr0.0 mm/hr 0.00 in0.0 mm
09:25 PM 68.0°F20.0°C 50.3°F10.2°C 53% Calm Calm 3.0 mph4.8 kmh 29.99 in1015.6 mb 0.00 in0.0 mm 0.00 in/hr0.0 mm/hr 0.00 in0.0 mm
09:28 PM 68.0°F20.0°C 50.3°F10.2°C 53% Calm Calm 3.0 mph4.8 kmh 29.99 in1015.6 mb 0.00 in0.0 mm 0.00 in/hr0.0 mm/hr 0.00 in0.0 mm
09:29 PM 68.0°F20.0°C 50.3°F10.2°C 53% Calm Calm 3.0 mph4.8 kmh 29.99 in1015.6 mb 0.00 in0.0 mm 0.00 in/hr0.0 mm/hr 0.00 in0.0 mm
09:30 PM 68.0°F20.0°C 50.3°F10.2°C 53% 1.0 mph S1.6 kmh S 3.0 mph4.8 kmh 30.00 in1015.9 mb 0.00 in0.0 mm 0.00 in/hr0.0 mm/hr 0.00 in0.0 mm
09:33 PM 68.0°F20.0°C 50.3°F10.2°C 53% Calm Calm 3.0 mph4.8 kmh 30.00 in1015.9 mb 0.00 in0.0 mm 0.00 in/hr0.0 mm/hr 0.00 in0.0 mm
09:34 PM 68.0°F20.0°C 50.3°F10.2°C 53% Calm Calm 3.0 mph4.8 kmh 30.00 in1015.9 mb 0.00 in0.0 mm 0.00 in/hr0.0 mm/hr 0.00 in0.0 mm
09:35 PM 68.0°F20.0°C 50.8°F10.4°C 54% Calm Calm 3.0 mph4.8 kmh 30.00 in1015.9 mb 0.00 in0.0 mm 0.00 in/hr0.0 mm/hr 0.00 in0.0 mm
09:38 PM 68.1°F20.1°C 50.9°F10.5°C 54% Calm Calm 3.0 mph4.8 kmh 30.00 in1015.9 mb 0.00 in0.0 mm 0.00 in/hr0.0 mm/hr 0.00 in0.0 mm
09:39 PM 68.1°F20.1°C 50.9°F10.5°C 54% Calm Calm 3.0 mph4.8 kmh 30.00 in1015.9 mb 0.00 in0.0 mm 0.00 in/hr0.0 mm/hr 0.00 in0.0 mm
09:40 PM 68.1°F20.1°C 50.9°F10.5°C 54% Calm Calm 3.0 mph4.8 kmh 30.00 in1015.9 mb 0.00 in0.0 mm 0.00 in/hr0.0 mm/hr 0.00 in0.0 mm
09:43 PM 68.1°F20.1°C 50.9°F10.5°C 54% Calm Calm 3.0 mph4.8 kmh 30.00 in1015.9 mb 0.00 in0.0 mm 0.00 in/hr0.0 mm/hr 0.00 in0.0 mm
09:44 PM 68.1°F20.1°C 50.9°F10.5°C 54% 1.0 mph S1.6 kmh S 3.0 mph4.8 kmh 30.00 in1015.9 mb 0.00 in0.0 mm 0.00 in/hr0.0 mm/hr 0.00 in0.0 mm
09:45 PM 68.1°F20.1°C 51.3°F10.7°C 55% Calm Calm 3.0 mph4.8 kmh 30.00 in1015.9 mb 0.00 in0.0 mm 0.00 in/hr0.0 mm/hr 0.00 in0.0 mm
09:48 PM 68.1°F20.1°C 51.3°F10.7°C 55% Calm Calm 3.0 mph4.8 kmh 30.00 in1015.9 mb 0.00 in0.0 mm 0.00 in/hr0.0 mm/hr 0.00 in0.0 mm
09:49 PM 68.1°F20.1°C 50.9°F10.5°C 54% Calm Calm 3.0 mph4.8 kmh 30.00 in1015.9 mb 0.00 in0.0 mm 0.00 in/hr0.0 mm/hr 0.00 in0.0 mm
09:50 PM 68.1°F20.1°C 50.9°F10.5°C 54% Calm Calm 3.0 mph4.8 kmh 30.00 in1015.9 mb 0.00 in0.0 mm 0.00 in/hr0.0 mm/hr 0.00 in0.0 mm
09:53 PM 68.1°F20.1°C 50.3°F10.2°C 53% 1.0 mph S1.6 kmh S 3.0 mph4.8 kmh 30.00 in1015.9 mb 0.00 in0.0 mm 0.00 in/hr0.0 mm/hr 0.00 in0.0 mm
09:54 PM 68.1°F20.1°C 50.3°F10.2°C 53% Calm Calm 3.0 mph4.8 kmh 30.00 in1015.9 mb 0.00 in0.0 mm 0.00 in/hr0.0 mm/hr 0.00 in0.0 mm
09:55 PM 68.1°F20.1°C 50.9°F10.5°C 54% Calm Calm 3.0 mph4.8 kmh 30.01 in1016.3 mb 0.00 in0.0 mm 0.00 in/hr0.0 mm/hr 0.00 in0.0 mm
09:58 PM 68.1°F20.1°C 50.3°F10.2°C 53% 1.0 mph S1.6 kmh S 3.0 mph4.8 kmh 30.01 in1016.3 mb 0.00 in0.0 mm 0.00 in/hr0.0 mm/hr 0.00 in0.0 mm
09:59 PM 68.1°F20.1°C 49.8°F9.9°C 52% Calm Calm 3.0 mph4.8 kmh 30.01 in1016.3 mb 0.00 in0.0 mm 0.00 in/hr0.0 mm/hr 0.00 in0.0 mm
10:00 PM 68.2°F20.1°C 49.9°F9.9°C 52% 2.0 mph S3.2 kmh S 2.0 mph3.2 kmh 30.01 in1016.3 mb 0.00 in0.0 mm 0.00 in/hr0.0 mm/hr 0.00 in0.0 mm
10:03 PM 68.3°F20.2°C 50.0°F10.0°C 52% 1.0 mph S1.6 kmh S 2.0 mph3.2 kmh 30.01 in1016.3 mb 0.00 in0.0 mm 0.00 in/hr0.0 mm/hr 0.00 in0.0 mm
10:04 PM 68.3°F20.2°C 50.0°F10.0°C 52% 2.0 mph S3.2 kmh S 2.0 mph3.2 kmh 30.01 in1016.3 mb 0.00 in0.0 mm 0.00 in/hr0.0 mm/hr 0.00 in0.0 mm
10:05 PM 68.3°F20.2°C 50.0°F10.0°C 52% 1.0 mph S1.6 kmh S 2.0 mph3.2 kmh 30.01 in1016.3 mb 0.00 in0.0 mm 0.00 in/hr0.0 mm/hr 0.00 in0.0 mm
10:08 PM 68.3°F20.2°C 50.0°F10.0°C 52% Calm Calm 2.0 mph3.2 kmh 30.01 in1016.3 mb 0.00 in0.0 mm 0.00 in/hr0.0 mm/hr 0.00 in0.0 mm
10:09 PM 68.2°F20.1°C 49.4°F9.7°C 51% 1.0 mph S1.6 kmh S 2.0 mph3.2 kmh 30.01 in1016.3 mb 0.00 in0.0 mm 0.00 in/hr0.0 mm/hr 0.00 in0.0 mm
10:10 PM 68.2°F20.1°C 49.4°F9.7°C 51% 1.0 mph S1.6 kmh S 2.0 mph3.2 kmh 30.01 in1016.3 mb 0.00 in0.0 mm 0.00 in/hr0.0 mm/hr 0.00 in0.0 mm
10:13 PM 68.2°F20.1°C 49.4°F9.7°C 51% Calm Calm 2.0 mph3.2 kmh 30.01 in1016.3 mb 0.00 in0.0 mm 0.00 in/hr0.0 mm/hr 0.00 in0.0 mm
10:14 PM 68.2°F20.1°C 49.4°F9.7°C 51% Calm Calm 2.0 mph3.2 kmh 30.01 in1016.3 mb 0.00 in0.0 mm 0.00 in/hr0.0 mm/hr 0.00 in0.0 mm
10:15 PM 68.2°F20.1°C 48.9°F9.4°C 50% 1.0 mph S1.6 kmh S 2.0 mph3.2 kmh 30.01 in1016.3 mb 0.00 in0.0 mm 0.00 in/hr0.0 mm/hr 0.00 in0.0 mm
10:18 PM 68.1°F20.1°C 48.8°F9.3°C 50% Calm Calm 2.0 mph3.2 kmh 30.01 in1016.3 mb 0.00 in0.0 mm 0.00 in/hr0.0 mm/hr 0.00 in0.0 mm
10:19 PM 68.1°F20.1°C 48.8°F9.3°C 50% Calm Calm 2.0 mph3.2 kmh 30.02 in1016.6 mb 0.00 in0.0 mm 0.00 in/hr0.0 mm/hr 0.00 in0.0 mm
10:20 PM 68.1°F20.1°C 48.8°F9.3°C 50% 1.0 mph S1.6 kmh S 2.0 mph3.2 kmh 30.02 in1016.6 mb 0.00 in0.0 mm 0.00 in/hr0.0 mm/hr 0.00 in0.0 mm
10:23 PM 68.1°F20.1°C 48.2°F9.0°C 49% Calm Calm 2.0 mph3.2 kmh 30.02 in1016.6 mb 0.00 in0.0 mm 0.00 in/hr0.0 mm/hr 0.00 in0.0 mm
10:24 PM 68.1°F20.1°C 47.7°F8.7°C 48% 1.0 mph S1.6 kmh S 2.0 mph3.2 kmh 30.02 in1016.6 mb 0.00 in0.0 mm 0.00 in/hr0.0 mm/hr 0.00 in0.0 mm
10:25 PM 68.2°F20.1°C 47.8°F8.8°C 48% Calm Calm 2.0 mph3.2 kmh 30.02 in1016.6 mb 0.00 in0.0 mm 0.00 in/hr0.0 mm/hr 0.00 in0.0 mm
10:28 PM 68.1°F20.1°C 47.7°F8.7°C 48% Calm Calm 2.0 mph3.2 kmh 30.02 in1016.6 mb 0.00 in0.0 mm 0.00 in/hr0.0 mm/hr 0.00 in0.0 mm
10:29 PM 68.2°F20.1°C 47.8°F8.8°C 48% Calm Calm 2.0 mph3.2 kmh 30.02 in1016.6 mb 0.00 in0.0 mm 0.00 in/hr0.0 mm/hr 0.00 in0.0 mm
10:30 PM 68.1°F20.1°C 47.7°F8.7°C 48% Calm Calm 2.0 mph3.2 kmh 30.02 in1016.6 mb 0.00 in0.0 mm 0.00 in/hr0.0 mm/hr 0.00 in0.0 mm
10:33 PM 68.0°F20.0°C 47.6°F8.7°C 48% 2.0 mph S3.2 kmh S 3.0 mph4.8 kmh 30.02 in1016.6 mb 0.00 in0.0 mm 0.00 in/hr0.0 mm/hr 0.00 in0.0 mm
10:34 PM 68.0°F20.0°C 47.6°F8.7°C 48% 2.0 mph S3.2 kmh S 4.0 mph6.4 kmh 30.02 in1016.6 mb 0.00 in0.0 mm 0.00 in/hr0.0 mm/hr 0.00 in0.0 mm
10:35 PM 68.0°F20.0°C 47.0°F8.3°C 47% Calm Calm 4.0 mph6.4 kmh 30.02 in1016.6 mb 0.00 in0.0 mm 0.00 in/hr0.0 mm/hr 0.00 in0.0 mm
10:38 PM 68.0°F20.0°C 47.0°F8.3°C 47% 2.0 mph S3.2 kmh S 4.0 mph6.4 kmh 30.02 in1016.6 mb 0.00 in0.0 mm 0.00 in/hr0.0 mm/hr 0.00 in0.0 mm
10:39 PM 68.0°F20.0°C 47.0°F8.3°C 47% 3.0 mph S4.8 kmh S 4.0 mph6.4 kmh 30.02 in1016.6 mb 0.00 in0.0 mm 0.00 in/hr0.0 mm/hr 0.00 in0.0 mm
10:40 PM 68.0°F20.0°C 47.0°F8.3°C 47% 3.0 mph S4.8 kmh S 4.0 mph6.4 kmh 30.02 in1016.6 mb 0.00 in0.0 mm 0.00 in/hr0.0 mm/hr 0.00 in0.0 mm
10:43 PM 68.1°F20.1°C 47.1°F8.4°C 47% 1.0 mph S1.6 kmh S 4.0 mph6.4 kmh 30.02 in1016.6 mb 0.00 in0.0 mm 0.00 in/hr0.0 mm/hr 0.00 in0.0 mm
10:44 PM 68.1°F20.1°C 46.6°F8.1°C 46% Calm Calm 4.0 mph6.4 kmh 30.02 in1016.6 mb 0.00 in0.0 mm 0.00 in/hr0.0 mm/hr 0.00 in0.0 mm
10:45 PM 68.1°F20.1°C 46.6°F8.1°C 46% 2.0 mph S3.2 kmh S 4.0 mph6.4 kmh 30.02 in1016.6 mb 0.00 in0.0 mm 0.00 in/hr0.0 mm/hr 0.00 in0.0 mm
10:48 PM 68.0°F20.0°C 46.5°F8.1°C 46% 1.0 mph S1.6 kmh S 4.0 mph6.4 kmh 30.02 in1016.6 mb 0.00 in0.0 mm 0.00 in/hr0.0 mm/hr 0.00 in0.0 mm
10:49 PM 68.0°F20.0°C 46.5°F8.1°C 46% 1.0 mph S1.6 kmh S 4.0 mph6.4 kmh 30.02 in1016.6 mb 0.00 in0.0 mm 0.00 in/hr0.0 mm/hr 0.00 in0.0 mm
10:50 PM 68.0°F20.0°C 47.0°F8.3°C 47% 1.0 mph S1.6 kmh S 4.0 mph6.4 kmh 30.02 in1016.6 mb 0.00 in0.0 mm 0.00 in/hr0.0 mm/hr 0.00 in0.0 mm
10:53 PM 68.0°F20.0°C 47.0°F8.3°C 47% Calm Calm 4.0 mph6.4 kmh 30.02 in1016.6 mb 0.00 in0.0 mm 0.00 in/hr0.0 mm/hr 0.00 in0.0 mm
10:54 PM 67.9°F19.9°C 47.0°F8.3°C 47% Calm Calm 4.0 mph6.4 kmh 30.02 in1016.6 mb 0.00 in0.0 mm 0.00 in/hr0.0 mm/hr 0.00 in0.0 mm
10:55 PM 67.9°F19.9°C 47.0°F8.3°C 47% Calm Calm 4.0 mph6.4 kmh 30.02 in1016.6 mb 0.00 in0.0 mm 0.00 in/hr0.0 mm/hr 0.00 in0.0 mm
10:58 PM 67.8°F19.9°C 46.9°F8.3°C 47% 2.0 mph S3.2 kmh S 4.0 mph6.4 kmh 30.02 in1016.6 mb 0.00 in0.0 mm 0.00 in/hr0.0 mm/hr 0.00 in0.0 mm
10:59 PM 67.8°F19.9°C 46.9°F8.3°C 47% 1.0 mph S1.6 kmh S 4.0 mph6.4 kmh 30.02 in1016.6 mb 0.00 in0.0 mm 0.00 in/hr0.0 mm/hr 0.00 in0.0 mm
11:00 PM 67.8°F19.9°C 46.9°F8.3°C 47% Calm Calm -- 30.02 in1016.6 mb 0.00 in0.0 mm 0.00 in/hr0.0 mm/hr 0.00 in0.0 mm
11:03 PM 67.7°F19.8°C 46.8°F8.2°C 47% 2.0 mph S3.2 kmh S 3.0 mph4.8 kmh 30.02 in1016.6 mb 0.00 in0.0 mm 0.00 in/hr0.0 mm/hr 0.00 in0.0 mm
11:04 PM 67.7°F19.8°C 46.8°F8.2°C 47% 2.0 mph S3.2 kmh S 3.0 mph4.8 kmh 30.02 in1016.6 mb 0.00 in0.0 mm 0.00 in/hr0.0 mm/hr 0.00 in0.0 mm
11:05 PM 67.6°F19.8°C 46.7°F8.2°C 47% 2.0 mph S3.2 kmh S 3.0 mph4.8 kmh 30.02 in1016.6 mb 0.00 in0.0 mm 0.00 in/hr0.0 mm/hr 0.00 in0.0 mm
11:08 PM 67.5°F19.7°C 46.6°F8.1°C 47% 2.0 mph S3.2 kmh S 4.0 mph6.4 kmh 30.03 in1016.9 mb 0.00 in0.0 mm 0.00 in/hr0.0 mm/hr 0.00 in0.0 mm
11:09 PM 67.5°F19.7°C 46.6°F8.1°C 47% 4.0 mph S6.4 kmh S 4.0 mph6.4 kmh 30.03 in1016.9 mb 0.00 in0.0 mm 0.00 in/hr0.0 mm/hr 0.00 in0.0 mm
11:10 PM 67.5°F19.7°C 46.6°F8.1°C 47% 2.0 mph S3.2 kmh S 4.0 mph6.4 kmh 30.03 in1016.9 mb 0.00 in0.0 mm 0.00 in/hr0.0 mm/hr 0.00 in0.0 mm
11:13 PM 67.4°F19.7°C 47.1°F8.4°C 48% Calm Calm 4.0 mph6.4 kmh 30.03 in1016.9 mb 0.00 in0.0 mm 0.00 in/hr0.0 mm/hr 0.00 in0.0 mm
11:14 PM 67.4°F19.7°C 47.1°F8.4°C 48% Calm Calm 4.0 mph6.4 kmh 30.03 in1016.9 mb 0.00 in0.0 mm 0.00 in/hr0.0 mm/hr 0.00 in0.0 mm
11:15 PM 67.4°F19.7°C 47.1°F8.4°C 48% 2.0 mph S3.2 kmh S 4.0 mph6.4 kmh 30.03 in1016.9 mb 0.00 in0.0 mm 0.00 in/hr0.0 mm/hr 0.00 in0.0 mm
11:18 PM 67.3°F19.6°C 47.0°F8.3°C 48% Calm Calm 4.0 mph6.4 kmh 30.03 in1016.9 mb 0.00 in0.0 mm 0.00 in/hr0.0 mm/hr 0.00 in0.0 mm
11:19 PM 67.3°F19.6°C 47.0°F8.3°C 48% 2.0 mph S3.2 kmh S 4.0 mph6.4 kmh 30.03 in1016.9 mb 0.00 in0.0 mm 0.00 in/hr0.0 mm/hr 0.00 in0.0 mm
11:20 PM 67.3°F19.6°C 47.0°F8.3°C 48% Calm Calm 4.0 mph6.4 kmh 30.03 in1016.9 mb 0.00 in0.0 mm 0.00 in/hr0.0 mm/hr 0.00 in0.0 mm
11:23 PM 67.3°F19.6°C 47.0°F8.3°C 48% 4.0 mph S6.4 kmh S 5.0 mph8.0 kmh 30.03 in1016.9 mb 0.00 in0.0 mm 0.00 in/hr0.0 mm/hr 0.00 in0.0 mm
11:24 PM 67.3°F19.6°C 47.0°F8.3°C 48% 4.0 mph S6.4 kmh S 5.0 mph8.0 kmh 30.03 in1016.9 mb 0.00 in0.0 mm 0.00 in/hr0.0 mm/hr 0.00 in0.0 mm
11:25 PM 67.2°F19.6°C 46.9°F8.3°C 48% 3.0 mph S4.8 kmh S 5.0 mph8.0 kmh 30.03 in1016.9 mb 0.00 in0.0 mm 0.00 in/hr0.0 mm/hr 0.00 in0.0 mm
11:28 PM 67.1°F19.5°C 46.8°F8.2°C 48% 3.0 mph S4.8 kmh S 5.0 mph8.0 kmh 30.03 in1016.9 mb 0.00 in0.0 mm 0.00 in/hr0.0 mm/hr 0.00 in0.0 mm
11:29 PM 67.0°F19.4°C 46.7°F8.2°C 48% 2.0 mph S3.2 kmh S 5.0 mph8.0 kmh 30.04 in1017.3 mb 0.00 in0.0 mm 0.00 in/hr0.0 mm/hr 0.00 in0.0 mm
11:30 PM 66.9°F19.4°C 46.6°F8.1°C 48% Calm Calm 5.0 mph8.0 kmh 30.03 in1016.9 mb 0.00 in0.0 mm 0.00 in/hr0.0 mm/hr 0.00 in0.0 mm
11:33 PM 66.8°F19.3°C 47.1°F8.4°C 49% 1.0 mph S1.6 kmh S 5.0 mph8.0 kmh 30.03 in1016.9 mb 0.00 in0.0 mm 0.00 in/hr0.0 mm/hr 0.00 in0.0 mm
11:34 PM 66.8°F19.3°C 47.1°F8.4°C 49% 2.0 mph S3.2 kmh S 6.0 mph9.7 kmh 30.03 in1016.9 mb 0.00 in0.0 mm 0.00 in/hr0.0 mm/hr 0.00 in0.0 mm
11:35 PM 66.8°F19.3°C 47.1°F8.4°C 49% 5.0 mph S8.0 kmh S 7.0 mph11.3 kmh 30.03 in1016.9 mb 0.00 in0.0 mm 0.00 in/hr0.0 mm/hr 0.00 in0.0 mm
11:38 PM 66.7°F19.3°C 47.5°F8.6°C 50% 1.0 mph S1.6 kmh S 7.0 mph11.3 kmh 30.04 in1017.3 mb 0.00 in0.0 mm 0.00 in/hr0.0 mm/hr 0.00 in0.0 mm
11:39 PM 66.7°F19.3°C 47.5°F8.6°C 50% 8.0 mph SSE12.9 kmh SSE 9.0 mph14.5 kmh 30.04 in1017.3 mb 0.00 in0.0 mm 0.00 in/hr0.0 mm/hr 0.00 in0.0 mm
11:40 PM 66.7°F19.3°C 47.5°F8.6°C 50% 6.0 mph SSE9.7 kmh SSE 9.0 mph14.5 kmh 30.04 in1017.3 mb 0.00 in0.0 mm 0.00 in/hr0.0 mm/hr 0.00 in0.0 mm
11:43 PM 66.7°F19.3°C 47.5°F8.6°C 50% Calm Calm 9.0 mph14.5 kmh 30.03 in1016.9 mb 0.00 in0.0 mm 0.00 in/hr0.0 mm/hr 0.00 in0.0 mm
11:44 PM 66.6°F19.2°C 47.4°F8.6°C 50% 5.0 mph SSE8.0 kmh SSE 9.0 mph14.5 kmh 30.03 in1016.9 mb 0.00 in0.0 mm 0.00 in/hr0.0 mm/hr 0.00 in0.0 mm
11:45 PM 66.6°F19.2°C 47.9°F8.8°C 51% 2.0 mph SSE3.2 kmh SSE 9.0 mph14.5 kmh 30.03 in1016.9 mb 0.00 in0.0 mm 0.00 in/hr0.0 mm/hr 0.00 in0.0 mm
11:48 PM 66.5°F19.2°C 47.8°F8.8°C 51% Calm Calm 9.0 mph14.5 kmh 30.03 in1016.9 mb 0.00 in0.0 mm 0.00 in/hr0.0 mm/hr 0.00 in0.0 mm
11:49 PM 66.4°F19.1°C 47.7°F8.7°C 51% 5.0 mph SE8.0 kmh SE 9.0 mph14.5 kmh 30.03 in1016.9 mb 0.00 in0.0 mm 0.00 in/hr0.0 mm/hr 0.00 in0.0 mm
11:50 PM 66.4°F19.1°C 47.7°F8.7°C 51% 2.0 mph SE3.2 kmh SE 9.0 mph14.5 kmh 30.03 in1016.9 mb 0.00 in0.0 mm 0.00 in/hr0.0 mm/hr 0.00 in0.0 mm
11:53 PM 66.3°F19.1°C 47.7°F8.7°C 51% 5.0 mph SE8.0 kmh SE 9.0 mph14.5 kmh 30.03 in1016.9 mb 0.00 in0.0 mm 0.00 in/hr0.0 mm/hr 0.00 in0.0 mm
11:54 PM 66.3°F19.1°C 47.7°F8.7°C 51% 4.0 mph SE6.4 kmh SE 9.0 mph14.5 kmh 30.03 in1016.9 mb 0.00 in0.0 mm 0.00 in/hr0.0 mm/hr 0.00 in0.0 mm
11:55 PM 66.3°F19.1°C 47.7°F8.7°C 51% 4.0 mph SE6.4 kmh SE 9.0 mph14.5 kmh 30.03 in1016.9 mb 0.00 in0.0 mm 0.00 in/hr0.0 mm/hr 0.00 in0.0 mm
11:58 PM 66.2°F19.0°C 48.1°F8.9°C 52% 4.0 mph SE6.4 kmh SE 9.0 mph14.5 kmh 30.03 in1016.9 mb 0.00 in0.0 mm 0.00 in/hr0.0 mm/hr 0.00 in0.0 mm
11:59 PM 66.2°F19.0°C 48.1°F8.9°C 52% 2.0 mph SE3.2 kmh SE 9.0 mph14.5 kmh 30.03 in1016.9 mb 0.00 in0.0 mm 0.00 in/hr0.0 mm/hr 0.00 in0.0 mm